<?xml version="1.0" encoding="UTF-8" standalone="no" ?>
<gpx xmlns="http://www.topografix.com/GPX/1/1" xmlns:xsi="http://www.w3.org/2001/XMLSchema-instance" xsi:schemaLocation="http://www.topografix.com/GPX/1/1 http://www.topografix.com/GPX/1/1/gpx.xsd" version="1.1" creator="VisuGPX - https://www.visugpx.com">
  <metadata>
    <name>randonnée pédestre des Banuts 1 mai 2011</name>
    <desc><![CDATA[Un beau parcours qui monte fort, dès le début, vous grimpez des marches... La vue sur la vallée en contre bas est superbe!  Au passage du col dans le superbe panorama du plateau nous cherchons les troupeaux de banuts. Mais aujourd'hui il y avait beaucoup de monde... peut-être qu'en vélo?... Merci à l'organisation sans faille... vive les pompiers de Combes .]]></desc>
  </metadata>
  <trk>
    <name><![CDATA[01-MAI-11 13:24:57]]></name>
    <trkseg>
      <trkpt lat="43.58217" lon="3.01155">
        <ele>241.91</ele>
        <time>2011-05-01T05:34:32Z</time>
      </trkpt>
      <trkpt lat="43.58217" lon="3.01155">
        <ele>245.75</ele>
        <time>2011-05-01T05:34:33Z</time>
      </trkpt>
      <trkpt lat="43.58217" lon="3.01155">
        <ele>241.91</ele>
        <time>2011-05-01T05:34:34Z</time>
      </trkpt>
      <trkpt lat="43.58217" lon="3.01155">
        <ele>239.02</ele>
        <time>2011-05-01T05:34:45Z</time>
      </trkpt>
      <trkpt lat="43.58217" lon="3.01155">
        <ele>242.39</ele>
        <time>2011-05-01T05:34:46Z</time>
      </trkpt>
      <trkpt lat="43.58217" lon="3.01155">
        <ele>245.75</ele>
        <time>2011-05-01T05:34:55Z</time>
      </trkpt>
      <trkpt lat="43.58217" lon="3.01155">
        <ele>242.39</ele>
        <time>2011-05-01T05:34:56Z</time>
      </trkpt>
      <trkpt lat="43.58217" lon="3.01155">
        <ele>237.58</ele>
        <time>2011-05-01T05:34:57Z</time>
      </trkpt>
      <trkpt lat="43.58217" lon="3.01155">
        <ele>243.35</ele>
        <time>2011-05-01T05:34:58Z</time>
      </trkpt>
      <trkpt lat="43.58217" lon="3.01155">
        <ele>237.58</ele>
        <time>2011-05-01T05:35:00Z</time>
      </trkpt>
      <trkpt lat="43.58217" lon="3.01155">
        <ele>243.35</ele>
        <time>2011-05-01T05:35:01Z</time>
      </trkpt>
      <trkpt lat="43.58217" lon="3.01155">
        <ele>226.53</ele>
        <time>2011-05-01T05:35:02Z</time>
      </trkpt>
      <trkpt lat="43.58217" lon="3.01155">
        <ele>244.31</ele>
        <time>2011-05-01T05:35:03Z</time>
      </trkpt>
      <trkpt lat="43.58217" lon="3.01155">
        <ele>243.35</ele>
        <time>2011-05-01T05:35:06Z</time>
      </trkpt>
      <trkpt lat="43.58217" lon="3.01155">
        <ele>239.99</ele>
        <time>2011-05-01T05:35:07Z</time>
      </trkpt>
      <trkpt lat="43.58217" lon="3.01155">
        <ele>242.87</ele>
        <time>2011-05-01T05:35:12Z</time>
      </trkpt>
      <trkpt lat="43.58216" lon="3.01155">
        <ele>241.91</ele>
        <time>2011-05-01T05:35:36Z</time>
      </trkpt>
      <trkpt lat="43.58216" lon="3.01156">
        <ele>241.91</ele>
        <time>2011-05-01T05:35:40Z</time>
      </trkpt>
      <trkpt lat="43.58178" lon="3.01302">
        <ele>246.72</ele>
        <time>2011-05-01T06:34:37Z</time>
      </trkpt>
      <trkpt lat="43.58176" lon="3.01298">
        <ele>241.91</ele>
        <time>2011-05-01T06:34:43Z</time>
      </trkpt>
      <trkpt lat="43.58175" lon="3.01296">
        <ele>249.6</ele>
        <time>2011-05-01T06:34:44Z</time>
      </trkpt>
      <trkpt lat="43.58174" lon="3.01295">
        <ele>241.43</ele>
        <time>2011-05-01T06:34:46Z</time>
      </trkpt>
      <trkpt lat="43.58175" lon="3.01295">
        <ele>242.39</ele>
        <time>2011-05-01T06:34:47Z</time>
      </trkpt>
      <trkpt lat="43.58175" lon="3.01295">
        <ele>247.68</ele>
        <time>2011-05-01T06:34:48Z</time>
      </trkpt>
      <trkpt lat="43.58175" lon="3.01295">
        <ele>244.31</ele>
        <time>2011-05-01T06:34:49Z</time>
      </trkpt>
      <trkpt lat="43.58174" lon="3.01295">
        <ele>253.93</ele>
        <time>2011-05-01T06:34:50Z</time>
      </trkpt>
      <trkpt lat="43.58174" lon="3.01295">
        <ele>223.64</ele>
        <time>2011-05-01T06:34:51Z</time>
      </trkpt>
      <trkpt lat="43.58174" lon="3.01295">
        <ele>246.23</ele>
        <time>2011-05-01T06:34:52Z</time>
      </trkpt>
      <trkpt lat="43.58174" lon="3.01295">
        <ele>251.04</ele>
        <time>2011-05-01T06:34:53Z</time>
      </trkpt>
      <trkpt lat="43.58174" lon="3.01294">
        <ele>243.83</ele>
        <time>2011-05-01T06:34:54Z</time>
      </trkpt>
      <trkpt lat="43.58175" lon="3.01293">
        <ele>240.47</ele>
        <time>2011-05-01T06:34:56Z</time>
      </trkpt>
      <trkpt lat="43.58175" lon="3.01293">
        <ele>236.62</ele>
        <time>2011-05-01T06:35:00Z</time>
      </trkpt>
      <trkpt lat="43.58175" lon="3.01293">
        <ele>240.47</ele>
        <time>2011-05-01T06:35:01Z</time>
      </trkpt>
      <trkpt lat="43.58175" lon="3.01293">
        <ele>237.1</ele>
        <time>2011-05-01T06:35:02Z</time>
      </trkpt>
      <trkpt lat="43.58176" lon="3.01296">
        <ele>228.93</ele>
        <time>2011-05-01T06:35:13Z</time>
      </trkpt>
      <trkpt lat="43.58177" lon="3.01296">
        <ele>235.66</ele>
        <time>2011-05-01T06:35:14Z</time>
      </trkpt>
      <trkpt lat="43.58179" lon="3.01298">
        <ele>227.01</ele>
        <time>2011-05-01T06:35:29Z</time>
      </trkpt>
      <trkpt lat="43.58179" lon="3.01299">
        <ele>230.85</ele>
        <time>2011-05-01T06:35:30Z</time>
      </trkpt>
      <trkpt lat="43.5818" lon="3.01299">
        <ele>235.18</ele>
        <time>2011-05-01T06:35:32Z</time>
      </trkpt>
      <trkpt lat="43.58179" lon="3.013">
        <ele>233.74</ele>
        <time>2011-05-01T06:35:33Z</time>
      </trkpt>
      <trkpt lat="43.58183" lon="3.01304">
        <ele>236.14</ele>
        <time>2011-05-01T06:35:41Z</time>
      </trkpt>
      <trkpt lat="43.58185" lon="3.01305">
        <ele>239.02</ele>
        <time>2011-05-01T06:35:51Z</time>
      </trkpt>
      <trkpt lat="43.58188" lon="3.01311">
        <ele>241.43</ele>
        <time>2011-05-01T06:36:08Z</time>
      </trkpt>
      <trkpt lat="43.58193" lon="3.01317">
        <ele>244.31</ele>
        <time>2011-05-01T06:36:17Z</time>
      </trkpt>
      <trkpt lat="43.58199" lon="3.0131">
        <ele>246.72</ele>
        <time>2011-05-01T06:36:31Z</time>
      </trkpt>
      <trkpt lat="43.58204" lon="3.01308">
        <ele>248.16</ele>
        <time>2011-05-01T06:36:50Z</time>
      </trkpt>
      <trkpt lat="43.58209" lon="3.01313">
        <ele>251.52</ele>
        <time>2011-05-01T06:37:01Z</time>
      </trkpt>
      <trkpt lat="43.58213" lon="3.01312">
        <ele>254.89</ele>
        <time>2011-05-01T06:37:16Z</time>
      </trkpt>
      <trkpt lat="43.58218" lon="3.01305">
        <ele>257.77</ele>
        <time>2011-05-01T06:37:30Z</time>
      </trkpt>
      <trkpt lat="43.58221" lon="3.01299">
        <ele>259.69</ele>
        <time>2011-05-01T06:37:44Z</time>
      </trkpt>
      <trkpt lat="43.58224" lon="3.01299">
        <ele>261.62</ele>
        <time>2011-05-01T06:37:58Z</time>
      </trkpt>
      <trkpt lat="43.58226" lon="3.01304">
        <ele>264.02</ele>
        <time>2011-05-01T06:38:13Z</time>
      </trkpt>
      <trkpt lat="43.58228" lon="3.01307">
        <ele>265.94</ele>
        <time>2011-05-01T06:38:31Z</time>
      </trkpt>
      <trkpt lat="43.58235" lon="3.01312">
        <ele>268.35</ele>
        <time>2011-05-01T06:38:41Z</time>
      </trkpt>
      <trkpt lat="43.58242" lon="3.0132">
        <ele>271.71</ele>
        <time>2011-05-01T06:38:55Z</time>
      </trkpt>
      <trkpt lat="43.58245" lon="3.01329">
        <ele>273.63</ele>
        <time>2011-05-01T06:39:08Z</time>
      </trkpt>
      <trkpt lat="43.58243" lon="3.01336">
        <ele>275.07</ele>
        <time>2011-05-01T06:39:24Z</time>
      </trkpt>
      <trkpt lat="43.58248" lon="3.01343">
        <ele>277.48</ele>
        <time>2011-05-01T06:39:37Z</time>
      </trkpt>
      <trkpt lat="43.58251" lon="3.01347">
        <ele>280.84</ele>
        <time>2011-05-01T06:39:52Z</time>
      </trkpt>
      <trkpt lat="43.58254" lon="3.0135">
        <ele>282.77</ele>
        <time>2011-05-01T06:40:04Z</time>
      </trkpt>
      <trkpt lat="43.58257" lon="3.01353">
        <ele>283.25</ele>
        <time>2011-05-01T06:40:19Z</time>
      </trkpt>
      <trkpt lat="43.58257" lon="3.01353">
        <ele>283.25</ele>
        <time>2011-05-01T06:40:36Z</time>
      </trkpt>
      <trkpt lat="43.58259" lon="3.01355">
        <ele>283.25</ele>
        <time>2011-05-01T06:40:52Z</time>
      </trkpt>
      <trkpt lat="43.58259" lon="3.01355">
        <ele>283.25</ele>
        <time>2011-05-01T06:40:56Z</time>
      </trkpt>
      <trkpt lat="43.58261" lon="3.01344">
        <ele>283.25</ele>
        <time>2011-05-01T06:41:11Z</time>
      </trkpt>
      <trkpt lat="43.58263" lon="3.01342">
        <ele>283.25</ele>
        <time>2011-05-01T06:41:24Z</time>
      </trkpt>
      <trkpt lat="43.58265" lon="3.01337">
        <ele>284.69</ele>
        <time>2011-05-01T06:41:40Z</time>
      </trkpt>
      <trkpt lat="43.58269" lon="3.01333">
        <ele>286.13</ele>
        <time>2011-05-01T06:41:53Z</time>
      </trkpt>
      <trkpt lat="43.58271" lon="3.0133">
        <ele>287.09</ele>
        <time>2011-05-01T06:42:01Z</time>
      </trkpt>
      <trkpt lat="43.58278" lon="3.01323">
        <ele>289.49</ele>
        <time>2011-05-01T06:42:14Z</time>
      </trkpt>
      <trkpt lat="43.58282" lon="3.01326">
        <ele>291.9</ele>
        <time>2011-05-01T06:42:28Z</time>
      </trkpt>
      <trkpt lat="43.58285" lon="3.01336">
        <ele>294.3</ele>
        <time>2011-05-01T06:42:41Z</time>
      </trkpt>
      <trkpt lat="43.58283" lon="3.01345">
        <ele>295.74</ele>
        <time>2011-05-01T06:42:53Z</time>
      </trkpt>
      <trkpt lat="43.58281" lon="3.01356">
        <ele>296.7</ele>
        <time>2011-05-01T06:43:08Z</time>
      </trkpt>
      <trkpt lat="43.58279" lon="3.01363">
        <ele>298.63</ele>
        <time>2011-05-01T06:43:21Z</time>
      </trkpt>
      <trkpt lat="43.58279" lon="3.0137">
        <ele>299.59</ele>
        <time>2011-05-01T06:43:37Z</time>
      </trkpt>
      <trkpt lat="43.58282" lon="3.01369">
        <ele>301.51</ele>
        <time>2011-05-01T06:43:50Z</time>
      </trkpt>
      <trkpt lat="43.58286" lon="3.01366">
        <ele>303.43</ele>
        <time>2011-05-01T06:44:04Z</time>
      </trkpt>
      <trkpt lat="43.58289" lon="3.01363">
        <ele>305.84</ele>
        <time>2011-05-01T06:44:18Z</time>
      </trkpt>
      <trkpt lat="43.58292" lon="3.0136">
        <ele>306.8</ele>
        <time>2011-05-01T06:44:31Z</time>
      </trkpt>
      <trkpt lat="43.58293" lon="3.01359">
        <ele>307.76</ele>
        <time>2011-05-01T06:44:49Z</time>
      </trkpt>
      <trkpt lat="43.58296" lon="3.0136">
        <ele>309.2</ele>
        <time>2011-05-01T06:45:00Z</time>
      </trkpt>
      <trkpt lat="43.58299" lon="3.01357">
        <ele>311.6</ele>
        <time>2011-05-01T06:45:12Z</time>
      </trkpt>
      <trkpt lat="43.58306" lon="3.01351">
        <ele>313.05</ele>
        <time>2011-05-01T06:45:25Z</time>
      </trkpt>
      <trkpt lat="43.58313" lon="3.0135">
        <ele>316.41</ele>
        <time>2011-05-01T06:45:39Z</time>
      </trkpt>
      <trkpt lat="43.5832" lon="3.01348">
        <ele>317.85</ele>
        <time>2011-05-01T06:45:50Z</time>
      </trkpt>
      <trkpt lat="43.58326" lon="3.01342">
        <ele>318.81</ele>
        <time>2011-05-01T06:46:04Z</time>
      </trkpt>
      <trkpt lat="43.58332" lon="3.01332">
        <ele>320.74</ele>
        <time>2011-05-01T06:46:18Z</time>
      </trkpt>
      <trkpt lat="43.58343" lon="3.01325">
        <ele>322.18</ele>
        <time>2011-05-01T06:46:34Z</time>
      </trkpt>
      <trkpt lat="43.58351" lon="3.01322">
        <ele>322.66</ele>
        <time>2011-05-01T06:46:51Z</time>
      </trkpt>
      <trkpt lat="43.58358" lon="3.01319">
        <ele>324.1</ele>
        <time>2011-05-01T06:47:04Z</time>
      </trkpt>
      <trkpt lat="43.58366" lon="3.01315">
        <ele>325.54</ele>
        <time>2011-05-01T06:47:15Z</time>
      </trkpt>
      <trkpt lat="43.58373" lon="3.01312">
        <ele>327.47</ele>
        <time>2011-05-01T06:47:27Z</time>
      </trkpt>
      <trkpt lat="43.58377" lon="3.0131">
        <ele>329.39</ele>
        <time>2011-05-01T06:47:42Z</time>
      </trkpt>
      <trkpt lat="43.58383" lon="3.01305">
        <ele>331.79</ele>
        <time>2011-05-01T06:47:54Z</time>
      </trkpt>
      <trkpt lat="43.58393" lon="3.01301">
        <ele>332.75</ele>
        <time>2011-05-01T06:48:07Z</time>
      </trkpt>
      <trkpt lat="43.584" lon="3.01298">
        <ele>334.68</ele>
        <time>2011-05-01T06:48:19Z</time>
      </trkpt>
      <trkpt lat="43.58407" lon="3.01298">
        <ele>336.12</ele>
        <time>2011-05-01T06:48:32Z</time>
      </trkpt>
      <trkpt lat="43.58413" lon="3.01298">
        <ele>336.6</ele>
        <time>2011-05-01T06:48:47Z</time>
      </trkpt>
      <trkpt lat="43.5842" lon="3.01302">
        <ele>339.96</ele>
        <time>2011-05-01T06:49:02Z</time>
      </trkpt>
      <trkpt lat="43.58422" lon="3.01301">
        <ele>340.44</ele>
        <time>2011-05-01T06:49:16Z</time>
      </trkpt>
      <trkpt lat="43.58428" lon="3.01301">
        <ele>339</ele>
        <time>2011-05-01T06:49:28Z</time>
      </trkpt>
      <trkpt lat="43.58436" lon="3.01298">
        <ele>338.52</ele>
        <time>2011-05-01T06:49:40Z</time>
      </trkpt>
      <trkpt lat="43.58445" lon="3.01294">
        <ele>337.56</ele>
        <time>2011-05-01T06:49:54Z</time>
      </trkpt>
      <trkpt lat="43.58453" lon="3.0129">
        <ele>337.56</ele>
        <time>2011-05-01T06:50:07Z</time>
      </trkpt>
      <trkpt lat="43.58463" lon="3.0129">
        <ele>338.52</ele>
        <time>2011-05-01T06:50:23Z</time>
      </trkpt>
      <trkpt lat="43.58467" lon="3.0129">
        <ele>339.96</ele>
        <time>2011-05-01T06:50:39Z</time>
      </trkpt>
      <trkpt lat="43.58468" lon="3.01289">
        <ele>341.41</ele>
        <time>2011-05-01T06:50:42Z</time>
      </trkpt>
      <trkpt lat="43.58476" lon="3.01284">
        <ele>343.33</ele>
        <time>2011-05-01T06:50:59Z</time>
      </trkpt>
      <trkpt lat="43.5848" lon="3.01275">
        <ele>344.29</ele>
        <time>2011-05-01T06:51:13Z</time>
      </trkpt>
      <trkpt lat="43.58484" lon="3.01269">
        <ele>345.73</ele>
        <time>2011-05-01T06:51:27Z</time>
      </trkpt>
      <trkpt lat="43.58487" lon="3.01267">
        <ele>348.13</ele>
        <time>2011-05-01T06:51:38Z</time>
      </trkpt>
      <trkpt lat="43.5849" lon="3.01263">
        <ele>350.54</ele>
        <time>2011-05-01T06:51:52Z</time>
      </trkpt>
      <trkpt lat="43.5849" lon="3.01256">
        <ele>352.46</ele>
        <time>2011-05-01T06:52:04Z</time>
      </trkpt>
      <trkpt lat="43.58492" lon="3.0125">
        <ele>354.86</ele>
        <time>2011-05-01T06:52:16Z</time>
      </trkpt>
      <trkpt lat="43.58495" lon="3.01244">
        <ele>355.83</ele>
        <time>2011-05-01T06:52:28Z</time>
      </trkpt>
      <trkpt lat="43.58499" lon="3.0124">
        <ele>356.79</ele>
        <time>2011-05-01T06:52:44Z</time>
      </trkpt>
      <trkpt lat="43.58506" lon="3.01232">
        <ele>358.23</ele>
        <time>2011-05-01T06:52:57Z</time>
      </trkpt>
      <trkpt lat="43.58512" lon="3.0123">
        <ele>360.63</ele>
        <time>2011-05-01T06:53:10Z</time>
      </trkpt>
      <trkpt lat="43.5852" lon="3.01226">
        <ele>362.07</ele>
        <time>2011-05-01T06:53:23Z</time>
      </trkpt>
      <trkpt lat="43.58523" lon="3.01225">
        <ele>363.04</ele>
        <time>2011-05-01T06:53:35Z</time>
      </trkpt>
      <trkpt lat="43.58525" lon="3.01224">
        <ele>363.52</ele>
        <time>2011-05-01T06:53:55Z</time>
      </trkpt>
      <trkpt lat="43.58525" lon="3.01223">
        <ele>364.48</ele>
        <time>2011-05-01T06:54:03Z</time>
      </trkpt>
      <trkpt lat="43.58531" lon="3.01221">
        <ele>366.88</ele>
        <time>2011-05-01T06:54:15Z</time>
      </trkpt>
      <trkpt lat="43.58533" lon="3.01221">
        <ele>368.32</ele>
        <time>2011-05-01T06:54:28Z</time>
      </trkpt>
      <trkpt lat="43.58536" lon="3.01223">
        <ele>369.28</ele>
        <time>2011-05-01T06:54:40Z</time>
      </trkpt>
      <trkpt lat="43.58536" lon="3.01222">
        <ele>369.76</ele>
        <time>2011-05-01T06:55:01Z</time>
      </trkpt>
      <trkpt lat="43.58541" lon="3.01222">
        <ele>371.69</ele>
        <time>2011-05-01T06:55:10Z</time>
      </trkpt>
      <trkpt lat="43.58542" lon="3.01222">
        <ele>372.17</ele>
        <time>2011-05-01T06:55:23Z</time>
      </trkpt>
      <trkpt lat="43.58541" lon="3.01221">
        <ele>372.17</ele>
        <time>2011-05-01T06:55:44Z</time>
      </trkpt>
      <trkpt lat="43.58541" lon="3.01221">
        <ele>372.17</ele>
        <time>2011-05-01T06:56:13Z</time>
      </trkpt>
      <trkpt lat="43.58541" lon="3.01221">
        <ele>372.17</ele>
        <time>2011-05-01T06:56:27Z</time>
      </trkpt>
      <trkpt lat="43.58541" lon="3.01221">
        <ele>372.17</ele>
        <time>2011-05-01T06:56:57Z</time>
      </trkpt>
      <trkpt lat="43.58541" lon="3.01221">
        <ele>372.17</ele>
        <time>2011-05-01T06:57:24Z</time>
      </trkpt>
      <trkpt lat="43.58541" lon="3.01221">
        <ele>372.17</ele>
        <time>2011-05-01T06:57:47Z</time>
      </trkpt>
      <trkpt lat="43.58541" lon="3.01221">
        <ele>372.17</ele>
        <time>2011-05-01T06:58:06Z</time>
      </trkpt>
      <trkpt lat="43.58541" lon="3.0122">
        <ele>372.65</ele>
        <time>2011-05-01T06:58:27Z</time>
      </trkpt>
      <trkpt lat="43.58546" lon="3.01215">
        <ele>372.17</ele>
        <time>2011-05-01T06:58:39Z</time>
      </trkpt>
      <trkpt lat="43.58551" lon="3.01209">
        <ele>373.13</ele>
        <time>2011-05-01T06:58:51Z</time>
      </trkpt>
      <trkpt lat="43.58557" lon="3.01205">
        <ele>375.05</ele>
        <time>2011-05-01T06:59:05Z</time>
      </trkpt>
      <trkpt lat="43.58558" lon="3.01203">
        <ele>375.05</ele>
        <time>2011-05-01T06:59:17Z</time>
      </trkpt>
      <trkpt lat="43.58561" lon="3.01203">
        <ele>376.01</ele>
        <time>2011-05-01T06:59:26Z</time>
      </trkpt>
      <trkpt lat="43.58564" lon="3.01204">
        <ele>376.01</ele>
        <time>2011-05-01T06:59:37Z</time>
      </trkpt>
      <trkpt lat="43.5857" lon="3.01205">
        <ele>377.94</ele>
        <time>2011-05-01T06:59:49Z</time>
      </trkpt>
      <trkpt lat="43.58577" lon="3.01204">
        <ele>379.38</ele>
        <time>2011-05-01T07:00:03Z</time>
      </trkpt>
      <trkpt lat="43.58583" lon="3.01203">
        <ele>381.3</ele>
        <time>2011-05-01T07:00:16Z</time>
      </trkpt>
      <trkpt lat="43.58587" lon="3.01201">
        <ele>383.7</ele>
        <time>2011-05-01T07:00:31Z</time>
      </trkpt>
      <trkpt lat="43.58592" lon="3.01202">
        <ele>385.15</ele>
        <time>2011-05-01T07:00:43Z</time>
      </trkpt>
      <trkpt lat="43.58597" lon="3.01203">
        <ele>387.55</ele>
        <time>2011-05-01T07:00:56Z</time>
      </trkpt>
      <trkpt lat="43.58603" lon="3.01205">
        <ele>388.99</ele>
        <time>2011-05-01T07:01:09Z</time>
      </trkpt>
      <trkpt lat="43.58609" lon="3.01207">
        <ele>391.39</ele>
        <time>2011-05-01T07:01:23Z</time>
      </trkpt>
      <trkpt lat="43.58613" lon="3.0121">
        <ele>392.84</ele>
        <time>2011-05-01T07:01:35Z</time>
      </trkpt>
      <trkpt lat="43.5862" lon="3.01211">
        <ele>394.28</ele>
        <time>2011-05-01T07:01:48Z</time>
      </trkpt>
      <trkpt lat="43.58625" lon="3.01214">
        <ele>394.28</ele>
        <time>2011-05-01T07:01:58Z</time>
      </trkpt>
      <trkpt lat="43.58626" lon="3.01216">
        <ele>396.2</ele>
        <time>2011-05-01T07:02:12Z</time>
      </trkpt>
      <trkpt lat="43.58627" lon="3.01219">
        <ele>398.12</ele>
        <time>2011-05-01T07:02:25Z</time>
      </trkpt>
      <trkpt lat="43.5863" lon="3.01224">
        <ele>401.01</ele>
        <time>2011-05-01T07:02:39Z</time>
      </trkpt>
      <trkpt lat="43.58629" lon="3.01228">
        <ele>402.93</ele>
        <time>2011-05-01T07:02:53Z</time>
      </trkpt>
      <trkpt lat="43.5863" lon="3.01231">
        <ele>404.37</ele>
        <time>2011-05-01T07:03:07Z</time>
      </trkpt>
      <trkpt lat="43.58632" lon="3.01236">
        <ele>407.26</ele>
        <time>2011-05-01T07:03:20Z</time>
      </trkpt>
      <trkpt lat="43.58635" lon="3.01239">
        <ele>408.7</ele>
        <time>2011-05-01T07:03:31Z</time>
      </trkpt>
      <trkpt lat="43.5864" lon="3.01241">
        <ele>410.62</ele>
        <time>2011-05-01T07:03:43Z</time>
      </trkpt>
      <trkpt lat="43.58647" lon="3.01242">
        <ele>410.62</ele>
        <time>2011-05-01T07:03:54Z</time>
      </trkpt>
      <trkpt lat="43.58652" lon="3.01242">
        <ele>412.54</ele>
        <time>2011-05-01T07:04:08Z</time>
      </trkpt>
      <trkpt lat="43.58658" lon="3.01245">
        <ele>414.47</ele>
        <time>2011-05-01T07:04:22Z</time>
      </trkpt>
      <trkpt lat="43.5866" lon="3.01245">
        <ele>415.43</ele>
        <time>2011-05-01T07:04:35Z</time>
      </trkpt>
      <trkpt lat="43.5866" lon="3.01245">
        <ele>416.39</ele>
        <time>2011-05-01T07:04:50Z</time>
      </trkpt>
      <trkpt lat="43.58661" lon="3.01246">
        <ele>415.91</ele>
        <time>2011-05-01T07:05:03Z</time>
      </trkpt>
      <trkpt lat="43.58662" lon="3.01246">
        <ele>416.87</ele>
        <time>2011-05-01T07:05:17Z</time>
      </trkpt>
      <trkpt lat="43.58664" lon="3.01247">
        <ele>417.83</ele>
        <time>2011-05-01T07:05:29Z</time>
      </trkpt>
      <trkpt lat="43.58664" lon="3.01247">
        <ele>417.35</ele>
        <time>2011-05-01T07:05:42Z</time>
      </trkpt>
      <trkpt lat="43.58666" lon="3.01251">
        <ele>419.75</ele>
        <time>2011-05-01T07:05:51Z</time>
      </trkpt>
      <trkpt lat="43.58666" lon="3.01251">
        <ele>419.75</ele>
        <time>2011-05-01T07:05:53Z</time>
      </trkpt>
      <trkpt lat="43.58662" lon="3.01255">
        <ele>420.71</ele>
        <time>2011-05-01T07:06:04Z</time>
      </trkpt>
      <trkpt lat="43.58658" lon="3.01258">
        <ele>421.19</ele>
        <time>2011-05-01T07:06:19Z</time>
      </trkpt>
      <trkpt lat="43.58656" lon="3.01261">
        <ele>423.12</ele>
        <time>2011-05-01T07:06:31Z</time>
      </trkpt>
      <trkpt lat="43.58657" lon="3.01265">
        <ele>425.52</ele>
        <time>2011-05-01T07:06:44Z</time>
      </trkpt>
      <trkpt lat="43.58656" lon="3.01268">
        <ele>427.44</ele>
        <time>2011-05-01T07:06:59Z</time>
      </trkpt>
      <trkpt lat="43.58657" lon="3.01272">
        <ele>429.37</ele>
        <time>2011-05-01T07:07:12Z</time>
      </trkpt>
      <trkpt lat="43.58656" lon="3.01275">
        <ele>432.25</ele>
        <time>2011-05-01T07:07:25Z</time>
      </trkpt>
      <trkpt lat="43.58653" lon="3.01281">
        <ele>434.17</ele>
        <time>2011-05-01T07:07:37Z</time>
      </trkpt>
      <trkpt lat="43.58652" lon="3.01282">
        <ele>436.58</ele>
        <time>2011-05-01T07:07:51Z</time>
      </trkpt>
      <trkpt lat="43.58652" lon="3.01285">
        <ele>437.54</ele>
        <time>2011-05-01T07:08:09Z</time>
      </trkpt>
      <trkpt lat="43.58652" lon="3.01287">
        <ele>438.02</ele>
        <time>2011-05-01T07:08:23Z</time>
      </trkpt>
      <trkpt lat="43.58652" lon="3.01292">
        <ele>439.46</ele>
        <time>2011-05-01T07:08:35Z</time>
      </trkpt>
      <trkpt lat="43.58652" lon="3.01293">
        <ele>438.98</ele>
        <time>2011-05-01T07:08:55Z</time>
      </trkpt>
      <trkpt lat="43.58652" lon="3.01295">
        <ele>440.42</ele>
        <time>2011-05-01T07:09:22Z</time>
      </trkpt>
      <trkpt lat="43.58659" lon="3.01296">
        <ele>442.34</ele>
        <time>2011-05-01T07:09:34Z</time>
      </trkpt>
      <trkpt lat="43.58661" lon="3.013">
        <ele>444.75</ele>
        <time>2011-05-01T07:09:46Z</time>
      </trkpt>
      <trkpt lat="43.58661" lon="3.01303">
        <ele>445.71</ele>
        <time>2011-05-01T07:10:09Z</time>
      </trkpt>
      <trkpt lat="43.58665" lon="3.01307">
        <ele>448.11</ele>
        <time>2011-05-01T07:10:19Z</time>
      </trkpt>
      <trkpt lat="43.58674" lon="3.01305">
        <ele>450.52</ele>
        <time>2011-05-01T07:10:32Z</time>
      </trkpt>
      <trkpt lat="43.58676" lon="3.01308">
        <ele>452.92</ele>
        <time>2011-05-01T07:10:40Z</time>
      </trkpt>
      <trkpt lat="43.58675" lon="3.01316">
        <ele>455.32</ele>
        <time>2011-05-01T07:10:54Z</time>
      </trkpt>
      <trkpt lat="43.58673" lon="3.01322">
        <ele>457.24</ele>
        <time>2011-05-01T07:11:06Z</time>
      </trkpt>
      <trkpt lat="43.58671" lon="3.01327">
        <ele>459.65</ele>
        <time>2011-05-01T07:11:20Z</time>
      </trkpt>
      <trkpt lat="43.58672" lon="3.0133">
        <ele>461.57</ele>
        <time>2011-05-01T07:11:31Z</time>
      </trkpt>
      <trkpt lat="43.58679" lon="3.01331">
        <ele>463.01</ele>
        <time>2011-05-01T07:11:46Z</time>
      </trkpt>
      <trkpt lat="43.58682" lon="3.01332">
        <ele>464.93</ele>
        <time>2011-05-01T07:12:01Z</time>
      </trkpt>
      <trkpt lat="43.58683" lon="3.01331">
        <ele>465.42</ele>
        <time>2011-05-01T07:12:16Z</time>
      </trkpt>
      <trkpt lat="43.58683" lon="3.01331">
        <ele>465.42</ele>
        <time>2011-05-01T07:12:40Z</time>
      </trkpt>
      <trkpt lat="43.58683" lon="3.01332">
        <ele>465.42</ele>
        <time>2011-05-01T07:13:04Z</time>
      </trkpt>
      <trkpt lat="43.58683" lon="3.01332">
        <ele>464.93</ele>
        <time>2011-05-01T07:13:26Z</time>
      </trkpt>
      <trkpt lat="43.58683" lon="3.01332">
        <ele>464.93</ele>
        <time>2011-05-01T07:13:54Z</time>
      </trkpt>
      <trkpt lat="43.58684" lon="3.01332">
        <ele>465.42</ele>
        <time>2011-05-01T07:14:16Z</time>
      </trkpt>
      <trkpt lat="43.58684" lon="3.01332">
        <ele>465.9</ele>
        <time>2011-05-01T07:14:55Z</time>
      </trkpt>
      <trkpt lat="43.58684" lon="3.01332">
        <ele>465.42</ele>
        <time>2011-05-01T07:15:32Z</time>
      </trkpt>
      <trkpt lat="43.58683" lon="3.01332">
        <ele>465.9</ele>
        <time>2011-05-01T07:16:06Z</time>
      </trkpt>
      <trkpt lat="43.58686" lon="3.01332">
        <ele>467.82</ele>
        <time>2011-05-01T07:16:18Z</time>
      </trkpt>
      <trkpt lat="43.58687" lon="3.01332">
        <ele>467.82</ele>
        <time>2011-05-01T07:16:34Z</time>
      </trkpt>
      <trkpt lat="43.58692" lon="3.01333">
        <ele>470.22</ele>
        <time>2011-05-01T07:16:46Z</time>
      </trkpt>
      <trkpt lat="43.58696" lon="3.01335">
        <ele>472.63</ele>
        <time>2011-05-01T07:17:00Z</time>
      </trkpt>
      <trkpt lat="43.58698" lon="3.01339">
        <ele>474.55</ele>
        <time>2011-05-01T07:17:10Z</time>
      </trkpt>
      <trkpt lat="43.58698" lon="3.0134">
        <ele>476.47</ele>
        <time>2011-05-01T07:17:22Z</time>
      </trkpt>
      <trkpt lat="43.58696" lon="3.01345">
        <ele>477.43</ele>
        <time>2011-05-01T07:17:33Z</time>
      </trkpt>
      <trkpt lat="43.58696" lon="3.01349">
        <ele>479.84</ele>
        <time>2011-05-01T07:17:44Z</time>
      </trkpt>
      <trkpt lat="43.58695" lon="3.01354">
        <ele>481.76</ele>
        <time>2011-05-01T07:17:56Z</time>
      </trkpt>
      <trkpt lat="43.58698" lon="3.01357">
        <ele>483.68</ele>
        <time>2011-05-01T07:18:08Z</time>
      </trkpt>
      <trkpt lat="43.587" lon="3.01359">
        <ele>485.6</ele>
        <time>2011-05-01T07:18:23Z</time>
      </trkpt>
      <trkpt lat="43.587" lon="3.01362">
        <ele>487.05</ele>
        <time>2011-05-01T07:18:35Z</time>
      </trkpt>
      <trkpt lat="43.58702" lon="3.01366">
        <ele>488.01</ele>
        <time>2011-05-01T07:18:44Z</time>
      </trkpt>
      <trkpt lat="43.58702" lon="3.01371">
        <ele>489.93</ele>
        <time>2011-05-01T07:18:56Z</time>
      </trkpt>
      <trkpt lat="43.58701" lon="3.01378">
        <ele>491.37</ele>
        <time>2011-05-01T07:19:07Z</time>
      </trkpt>
      <trkpt lat="43.587" lon="3.01379">
        <ele>492.81</ele>
        <time>2011-05-01T07:19:25Z</time>
      </trkpt>
      <trkpt lat="43.587" lon="3.01379">
        <ele>493.29</ele>
        <time>2011-05-01T07:19:46Z</time>
      </trkpt>
      <trkpt lat="43.587" lon="3.01383">
        <ele>494.26</ele>
        <time>2011-05-01T07:19:50Z</time>
      </trkpt>
      <trkpt lat="43.58702" lon="3.01388">
        <ele>494.74</ele>
        <time>2011-05-01T07:19:54Z</time>
      </trkpt>
      <trkpt lat="43.58708" lon="3.01394">
        <ele>497.14</ele>
        <time>2011-05-01T07:20:00Z</time>
      </trkpt>
      <trkpt lat="43.58708" lon="3.01395">
        <ele>497.14</ele>
        <time>2011-05-01T07:20:01Z</time>
      </trkpt>
      <trkpt lat="43.58707" lon="3.01406">
        <ele>499.06</ele>
        <time>2011-05-01T07:20:14Z</time>
      </trkpt>
      <trkpt lat="43.58706" lon="3.01407">
        <ele>499.54</ele>
        <time>2011-05-01T07:20:27Z</time>
      </trkpt>
      <trkpt lat="43.58706" lon="3.01407">
        <ele>499.54</ele>
        <time>2011-05-01T07:20:44Z</time>
      </trkpt>
      <trkpt lat="43.58706" lon="3.01408">
        <ele>499.54</ele>
        <time>2011-05-01T07:21:14Z</time>
      </trkpt>
      <trkpt lat="43.58709" lon="3.01411">
        <ele>500.5</ele>
        <time>2011-05-01T07:21:33Z</time>
      </trkpt>
      <trkpt lat="43.58709" lon="3.01411">
        <ele>500.5</ele>
        <time>2011-05-01T07:21:54Z</time>
      </trkpt>
      <trkpt lat="43.58709" lon="3.01412">
        <ele>500.5</ele>
        <time>2011-05-01T07:22:07Z</time>
      </trkpt>
      <trkpt lat="43.58717" lon="3.01411">
        <ele>501.95</ele>
        <time>2011-05-01T07:22:20Z</time>
      </trkpt>
      <trkpt lat="43.58724" lon="3.01408">
        <ele>502.43</ele>
        <time>2011-05-01T07:22:33Z</time>
      </trkpt>
      <trkpt lat="43.58725" lon="3.01413">
        <ele>504.83</ele>
        <time>2011-05-01T07:22:44Z</time>
      </trkpt>
      <trkpt lat="43.58727" lon="3.01418">
        <ele>507.23</ele>
        <time>2011-05-01T07:22:57Z</time>
      </trkpt>
      <trkpt lat="43.5873" lon="3.01422">
        <ele>508.67</ele>
        <time>2011-05-01T07:23:08Z</time>
      </trkpt>
      <trkpt lat="43.58731" lon="3.01427">
        <ele>510.12</ele>
        <time>2011-05-01T07:23:21Z</time>
      </trkpt>
      <trkpt lat="43.58734" lon="3.01434">
        <ele>512.04</ele>
        <time>2011-05-01T07:23:32Z</time>
      </trkpt>
      <trkpt lat="43.5874" lon="3.01445">
        <ele>513.96</ele>
        <time>2011-05-01T07:23:45Z</time>
      </trkpt>
      <trkpt lat="43.58743" lon="3.01452">
        <ele>515.4</ele>
        <time>2011-05-01T07:23:56Z</time>
      </trkpt>
      <trkpt lat="43.58751" lon="3.01454">
        <ele>516.85</ele>
        <time>2011-05-01T07:24:09Z</time>
      </trkpt>
      <trkpt lat="43.58757" lon="3.01458">
        <ele>518.77</ele>
        <time>2011-05-01T07:24:21Z</time>
      </trkpt>
      <trkpt lat="43.58759" lon="3.01466">
        <ele>518.77</ele>
        <time>2011-05-01T07:24:33Z</time>
      </trkpt>
      <trkpt lat="43.58757" lon="3.01473">
        <ele>518.77</ele>
        <time>2011-05-01T07:24:49Z</time>
      </trkpt>
      <trkpt lat="43.58756" lon="3.01475">
        <ele>518.29</ele>
        <time>2011-05-01T07:25:03Z</time>
      </trkpt>
      <trkpt lat="43.58753" lon="3.01482">
        <ele>516.85</ele>
        <time>2011-05-01T07:25:15Z</time>
      </trkpt>
      <trkpt lat="43.58755" lon="3.01477">
        <ele>518.29</ele>
        <time>2011-05-01T07:25:29Z</time>
      </trkpt>
      <trkpt lat="43.58758" lon="3.01473">
        <ele>519.25</ele>
        <time>2011-05-01T07:25:41Z</time>
      </trkpt>
      <trkpt lat="43.58763" lon="3.01474">
        <ele>519.73</ele>
        <time>2011-05-01T07:25:53Z</time>
      </trkpt>
      <trkpt lat="43.58768" lon="3.01467">
        <ele>520.69</ele>
        <time>2011-05-01T07:26:06Z</time>
      </trkpt>
      <trkpt lat="43.58774" lon="3.0146">
        <ele>522.61</ele>
        <time>2011-05-01T07:26:19Z</time>
      </trkpt>
      <trkpt lat="43.58781" lon="3.01454">
        <ele>524.06</ele>
        <time>2011-05-01T07:26:32Z</time>
      </trkpt>
      <trkpt lat="43.58789" lon="3.01448">
        <ele>525.02</ele>
        <time>2011-05-01T07:26:43Z</time>
      </trkpt>
      <trkpt lat="43.58797" lon="3.0144">
        <ele>526.94</ele>
        <time>2011-05-01T07:26:57Z</time>
      </trkpt>
      <trkpt lat="43.58802" lon="3.01435">
        <ele>527.9</ele>
        <time>2011-05-01T07:27:09Z</time>
      </trkpt>
      <trkpt lat="43.58808" lon="3.01433">
        <ele>529.34</ele>
        <time>2011-05-01T07:27:22Z</time>
      </trkpt>
      <trkpt lat="43.58813" lon="3.01433">
        <ele>530.79</ele>
        <time>2011-05-01T07:27:33Z</time>
      </trkpt>
      <trkpt lat="43.58818" lon="3.01441">
        <ele>532.71</ele>
        <time>2011-05-01T07:27:46Z</time>
      </trkpt>
      <trkpt lat="43.58821" lon="3.01449">
        <ele>532.71</ele>
        <time>2011-05-01T07:27:58Z</time>
      </trkpt>
      <trkpt lat="43.58825" lon="3.01454">
        <ele>531.27</ele>
        <time>2011-05-01T07:28:12Z</time>
      </trkpt>
      <trkpt lat="43.58828" lon="3.01456">
        <ele>531.27</ele>
        <time>2011-05-01T07:28:25Z</time>
      </trkpt>
      <trkpt lat="43.58832" lon="3.01457">
        <ele>531.27</ele>
        <time>2011-05-01T07:29:02Z</time>
      </trkpt>
      <trkpt lat="43.58836" lon="3.01454">
        <ele>533.19</ele>
        <time>2011-05-01T07:29:06Z</time>
      </trkpt>
      <trkpt lat="43.58843" lon="3.01451">
        <ele>534.15</ele>
        <time>2011-05-01T07:29:14Z</time>
      </trkpt>
      <trkpt lat="43.58851" lon="3.01438">
        <ele>536.55</ele>
        <time>2011-05-01T07:29:24Z</time>
      </trkpt>
      <trkpt lat="43.58855" lon="3.01433">
        <ele>537.99</ele>
        <time>2011-05-01T07:29:29Z</time>
      </trkpt>
      <trkpt lat="43.5886" lon="3.0143">
        <ele>539.92</ele>
        <time>2011-05-01T07:29:43Z</time>
      </trkpt>
      <trkpt lat="43.58863" lon="3.01427">
        <ele>542.32</ele>
        <time>2011-05-01T07:29:52Z</time>
      </trkpt>
      <trkpt lat="43.58867" lon="3.01425">
        <ele>545.2</ele>
        <time>2011-05-01T07:30:06Z</time>
      </trkpt>
      <trkpt lat="43.58871" lon="3.01422">
        <ele>546.65</ele>
        <time>2011-05-01T07:30:13Z</time>
      </trkpt>
      <trkpt lat="43.58878" lon="3.01411">
        <ele>548.09</ele>
        <time>2011-05-01T07:30:26Z</time>
      </trkpt>
      <trkpt lat="43.58884" lon="3.01409">
        <ele>550.49</ele>
        <time>2011-05-01T07:30:38Z</time>
      </trkpt>
      <trkpt lat="43.5889" lon="3.01407">
        <ele>551.93</ele>
        <time>2011-05-01T07:30:48Z</time>
      </trkpt>
      <trkpt lat="43.58895" lon="3.01402">
        <ele>552.9</ele>
        <time>2011-05-01T07:31:01Z</time>
      </trkpt>
      <trkpt lat="43.58897" lon="3.014">
        <ele>554.82</ele>
        <time>2011-05-01T07:31:16Z</time>
      </trkpt>
      <trkpt lat="43.58902" lon="3.01396">
        <ele>556.74</ele>
        <time>2011-05-01T07:31:28Z</time>
      </trkpt>
      <trkpt lat="43.58905" lon="3.01399">
        <ele>558.18</ele>
        <time>2011-05-01T07:31:42Z</time>
      </trkpt>
      <trkpt lat="43.58909" lon="3.01397">
        <ele>560.11</ele>
        <time>2011-05-01T07:31:55Z</time>
      </trkpt>
      <trkpt lat="43.58914" lon="3.01396">
        <ele>562.03</ele>
        <time>2011-05-01T07:32:06Z</time>
      </trkpt>
      <trkpt lat="43.58919" lon="3.01396">
        <ele>563.47</ele>
        <time>2011-05-01T07:32:23Z</time>
      </trkpt>
      <trkpt lat="43.58923" lon="3.01391">
        <ele>565.87</ele>
        <time>2011-05-01T07:32:36Z</time>
      </trkpt>
      <trkpt lat="43.58924" lon="3.01388">
        <ele>567.32</ele>
        <time>2011-05-01T07:32:55Z</time>
      </trkpt>
      <trkpt lat="43.58929" lon="3.01384">
        <ele>569.72</ele>
        <time>2011-05-01T07:33:06Z</time>
      </trkpt>
      <trkpt lat="43.58934" lon="3.01378">
        <ele>571.64</ele>
        <time>2011-05-01T07:33:18Z</time>
      </trkpt>
      <trkpt lat="43.58935" lon="3.01375">
        <ele>572.6</ele>
        <time>2011-05-01T07:33:33Z</time>
      </trkpt>
      <trkpt lat="43.58939" lon="3.01372">
        <ele>574.53</ele>
        <time>2011-05-01T07:33:44Z</time>
      </trkpt>
      <trkpt lat="43.58943" lon="3.01371">
        <ele>575.97</ele>
        <time>2011-05-01T07:33:55Z</time>
      </trkpt>
      <trkpt lat="43.58946" lon="3.01371">
        <ele>577.41</ele>
        <time>2011-05-01T07:34:09Z</time>
      </trkpt>
      <trkpt lat="43.58949" lon="3.01371">
        <ele>579.33</ele>
        <time>2011-05-01T07:34:22Z</time>
      </trkpt>
      <trkpt lat="43.58952" lon="3.0137">
        <ele>580.77</ele>
        <time>2011-05-01T07:34:35Z</time>
      </trkpt>
      <trkpt lat="43.58953" lon="3.01368">
        <ele>582.22</ele>
        <time>2011-05-01T07:34:48Z</time>
      </trkpt>
      <trkpt lat="43.58955" lon="3.01363">
        <ele>583.18</ele>
        <time>2011-05-01T07:34:59Z</time>
      </trkpt>
      <trkpt lat="43.58958" lon="3.01358">
        <ele>584.62</ele>
        <time>2011-05-01T07:35:13Z</time>
      </trkpt>
      <trkpt lat="43.58959" lon="3.01355">
        <ele>586.06</ele>
        <time>2011-05-01T07:35:26Z</time>
      </trkpt>
      <trkpt lat="43.58959" lon="3.01354">
        <ele>586.06</ele>
        <time>2011-05-01T07:35:43Z</time>
      </trkpt>
      <trkpt lat="43.58959" lon="3.01354">
        <ele>586.54</ele>
        <time>2011-05-01T07:36:11Z</time>
      </trkpt>
      <trkpt lat="43.58959" lon="3.01354">
        <ele>586.54</ele>
        <time>2011-05-01T07:36:45Z</time>
      </trkpt>
      <trkpt lat="43.5896" lon="3.01354">
        <ele>586.54</ele>
        <time>2011-05-01T07:37:05Z</time>
      </trkpt>
      <trkpt lat="43.5896" lon="3.01354">
        <ele>586.06</ele>
        <time>2011-05-01T07:37:29Z</time>
      </trkpt>
      <trkpt lat="43.5896" lon="3.01354">
        <ele>586.54</ele>
        <time>2011-05-01T07:38:04Z</time>
      </trkpt>
      <trkpt lat="43.5896" lon="3.01354">
        <ele>586.06</ele>
        <time>2011-05-01T07:38:27Z</time>
      </trkpt>
      <trkpt lat="43.5896" lon="3.01353">
        <ele>586.54</ele>
        <time>2011-05-01T07:38:47Z</time>
      </trkpt>
      <trkpt lat="43.58965" lon="3.01355">
        <ele>587.98</ele>
        <time>2011-05-01T07:38:59Z</time>
      </trkpt>
      <trkpt lat="43.58971" lon="3.01359">
        <ele>590.87</ele>
        <time>2011-05-01T07:39:13Z</time>
      </trkpt>
      <trkpt lat="43.58975" lon="3.01363">
        <ele>592.31</ele>
        <time>2011-05-01T07:39:26Z</time>
      </trkpt>
      <trkpt lat="43.58975" lon="3.01364">
        <ele>592.31</ele>
        <time>2011-05-01T07:39:40Z</time>
      </trkpt>
      <trkpt lat="43.58975" lon="3.01365">
        <ele>592.79</ele>
        <time>2011-05-01T07:40:03Z</time>
      </trkpt>
      <trkpt lat="43.58975" lon="3.01365">
        <ele>592.79</ele>
        <time>2011-05-01T07:40:20Z</time>
      </trkpt>
      <trkpt lat="43.58978" lon="3.01369">
        <ele>593.75</ele>
        <time>2011-05-01T07:40:42Z</time>
      </trkpt>
      <trkpt lat="43.58981" lon="3.01371">
        <ele>595.19</ele>
        <time>2011-05-01T07:40:54Z</time>
      </trkpt>
      <trkpt lat="43.58984" lon="3.01372">
        <ele>597.12</ele>
        <time>2011-05-01T07:41:07Z</time>
      </trkpt>
      <trkpt lat="43.58985" lon="3.01372">
        <ele>597.12</ele>
        <time>2011-05-01T07:41:31Z</time>
      </trkpt>
      <trkpt lat="43.58993" lon="3.01371">
        <ele>600.48</ele>
        <time>2011-05-01T07:41:45Z</time>
      </trkpt>
      <trkpt lat="43.58996" lon="3.01369">
        <ele>602.88</ele>
        <time>2011-05-01T07:41:59Z</time>
      </trkpt>
      <trkpt lat="43.59003" lon="3.01367">
        <ele>605.77</ele>
        <time>2011-05-01T07:42:12Z</time>
      </trkpt>
      <trkpt lat="43.59006" lon="3.01375">
        <ele>605.77</ele>
        <time>2011-05-01T07:42:23Z</time>
      </trkpt>
      <trkpt lat="43.59007" lon="3.01378">
        <ele>608.65</ele>
        <time>2011-05-01T07:42:39Z</time>
      </trkpt>
      <trkpt lat="43.59012" lon="3.01379">
        <ele>610.57</ele>
        <time>2011-05-01T07:42:53Z</time>
      </trkpt>
      <trkpt lat="43.59014" lon="3.01378">
        <ele>612.5</ele>
        <time>2011-05-01T07:43:04Z</time>
      </trkpt>
      <trkpt lat="43.59016" lon="3.01376">
        <ele>613.94</ele>
        <time>2011-05-01T07:43:15Z</time>
      </trkpt>
      <trkpt lat="43.59016" lon="3.01376">
        <ele>614.9</ele>
        <time>2011-05-01T07:43:35Z</time>
      </trkpt>
      <trkpt lat="43.59019" lon="3.01373">
        <ele>616.82</ele>
        <time>2011-05-01T07:43:47Z</time>
      </trkpt>
      <trkpt lat="43.59024" lon="3.01371">
        <ele>618.26</ele>
        <time>2011-05-01T07:43:59Z</time>
      </trkpt>
      <trkpt lat="43.59025" lon="3.01372">
        <ele>620.67</ele>
        <time>2011-05-01T07:44:10Z</time>
      </trkpt>
      <trkpt lat="43.59029" lon="3.0137">
        <ele>621.15</ele>
        <time>2011-05-01T07:44:23Z</time>
      </trkpt>
      <trkpt lat="43.5903" lon="3.0137">
        <ele>623.07</ele>
        <time>2011-05-01T07:44:37Z</time>
      </trkpt>
      <trkpt lat="43.5903" lon="3.0137">
        <ele>624.03</ele>
        <time>2011-05-01T07:44:49Z</time>
      </trkpt>
      <trkpt lat="43.5903" lon="3.0137">
        <ele>625.47</ele>
        <time>2011-05-01T07:45:05Z</time>
      </trkpt>
      <trkpt lat="43.59034" lon="3.01375">
        <ele>626.44</ele>
        <time>2011-05-01T07:45:16Z</time>
      </trkpt>
      <trkpt lat="43.59043" lon="3.01378">
        <ele>628.36</ele>
        <time>2011-05-01T07:45:29Z</time>
      </trkpt>
      <trkpt lat="43.59045" lon="3.01378">
        <ele>629.8</ele>
        <time>2011-05-01T07:45:40Z</time>
      </trkpt>
      <trkpt lat="43.59048" lon="3.01381">
        <ele>630.28</ele>
        <time>2011-05-01T07:45:46Z</time>
      </trkpt>
      <trkpt lat="43.59058" lon="3.01386">
        <ele>630.76</ele>
        <time>2011-05-01T07:45:58Z</time>
      </trkpt>
      <trkpt lat="43.59069" lon="3.01387">
        <ele>632.2</ele>
        <time>2011-05-01T07:46:12Z</time>
      </trkpt>
      <trkpt lat="43.59076" lon="3.01388">
        <ele>632.68</ele>
        <time>2011-05-01T07:46:25Z</time>
      </trkpt>
      <trkpt lat="43.59079" lon="3.01391">
        <ele>631.72</ele>
        <time>2011-05-01T07:46:40Z</time>
      </trkpt>
      <trkpt lat="43.59085" lon="3.01399">
        <ele>631.24</ele>
        <time>2011-05-01T07:46:52Z</time>
      </trkpt>
      <trkpt lat="43.59092" lon="3.01404">
        <ele>630.76</ele>
        <time>2011-05-01T07:47:05Z</time>
      </trkpt>
      <trkpt lat="43.59099" lon="3.0141">
        <ele>631.24</ele>
        <time>2011-05-01T07:47:17Z</time>
      </trkpt>
      <trkpt lat="43.59108" lon="3.01412">
        <ele>632.2</ele>
        <time>2011-05-01T07:47:33Z</time>
      </trkpt>
      <trkpt lat="43.59111" lon="3.01416">
        <ele>631.24</ele>
        <time>2011-05-01T07:47:46Z</time>
      </trkpt>
      <trkpt lat="43.59114" lon="3.01416">
        <ele>632.68</ele>
        <time>2011-05-01T07:47:59Z</time>
      </trkpt>
      <trkpt lat="43.59118" lon="3.01415">
        <ele>634.13</ele>
        <time>2011-05-01T07:48:11Z</time>
      </trkpt>
      <trkpt lat="43.59123" lon="3.01413">
        <ele>635.09</ele>
        <time>2011-05-01T07:48:21Z</time>
      </trkpt>
      <trkpt lat="43.5913" lon="3.01411">
        <ele>636.53</ele>
        <time>2011-05-01T07:48:36Z</time>
      </trkpt>
      <trkpt lat="43.59133" lon="3.01405">
        <ele>638.45</ele>
        <time>2011-05-01T07:48:48Z</time>
      </trkpt>
      <trkpt lat="43.59138" lon="3.01406">
        <ele>638.93</ele>
        <time>2011-05-01T07:49:01Z</time>
      </trkpt>
      <trkpt lat="43.59143" lon="3.01405">
        <ele>639.89</ele>
        <time>2011-05-01T07:49:13Z</time>
      </trkpt>
      <trkpt lat="43.59148" lon="3.01405">
        <ele>640.38</ele>
        <time>2011-05-01T07:49:26Z</time>
      </trkpt>
      <trkpt lat="43.59149" lon="3.01404">
        <ele>640.38</ele>
        <time>2011-05-01T07:49:40Z</time>
      </trkpt>
      <trkpt lat="43.59149" lon="3.01404">
        <ele>640.38</ele>
        <time>2011-05-01T07:50:02Z</time>
      </trkpt>
      <trkpt lat="43.59149" lon="3.01404">
        <ele>640.86</ele>
        <time>2011-05-01T07:50:41Z</time>
      </trkpt>
      <trkpt lat="43.59149" lon="3.01404">
        <ele>640.86</ele>
        <time>2011-05-01T07:50:58Z</time>
      </trkpt>
      <trkpt lat="43.5915" lon="3.01404">
        <ele>640.86</ele>
        <time>2011-05-01T07:51:12Z</time>
      </trkpt>
      <trkpt lat="43.5915" lon="3.01404">
        <ele>640.86</ele>
        <time>2011-05-01T07:51:33Z</time>
      </trkpt>
      <trkpt lat="43.59151" lon="3.01405">
        <ele>640.86</ele>
        <time>2011-05-01T07:51:51Z</time>
      </trkpt>
      <trkpt lat="43.5915" lon="3.01405">
        <ele>640.86</ele>
        <time>2011-05-01T07:52:07Z</time>
      </trkpt>
      <trkpt lat="43.5915" lon="3.01405">
        <ele>640.38</ele>
        <time>2011-05-01T07:52:28Z</time>
      </trkpt>
      <trkpt lat="43.5915" lon="3.01405">
        <ele>640.86</ele>
        <time>2011-05-01T07:52:48Z</time>
      </trkpt>
      <trkpt lat="43.5915" lon="3.01405">
        <ele>641.34</ele>
        <time>2011-05-01T07:53:02Z</time>
      </trkpt>
      <trkpt lat="43.5915" lon="3.01405">
        <ele>641.34</ele>
        <time>2011-05-01T07:53:24Z</time>
      </trkpt>
      <trkpt lat="43.5915" lon="3.01406">
        <ele>641.34</ele>
        <time>2011-05-01T07:53:54Z</time>
      </trkpt>
      <trkpt lat="43.5915" lon="3.01406">
        <ele>641.34</ele>
        <time>2011-05-01T07:54:29Z</time>
      </trkpt>
      <trkpt lat="43.5915" lon="3.01406">
        <ele>641.34</ele>
        <time>2011-05-01T07:55:07Z</time>
      </trkpt>
      <trkpt lat="43.5915" lon="3.01406">
        <ele>641.34</ele>
        <time>2011-05-01T07:55:27Z</time>
      </trkpt>
      <trkpt lat="43.5915" lon="3.01406">
        <ele>641.34</ele>
        <time>2011-05-01T07:55:55Z</time>
      </trkpt>
      <trkpt lat="43.59151" lon="3.01404">
        <ele>641.82</ele>
        <time>2011-05-01T07:56:14Z</time>
      </trkpt>
      <trkpt lat="43.59156" lon="3.01401">
        <ele>642.3</ele>
        <time>2011-05-01T07:56:25Z</time>
      </trkpt>
      <trkpt lat="43.5916" lon="3.01396">
        <ele>643.26</ele>
        <time>2011-05-01T07:56:36Z</time>
      </trkpt>
      <trkpt lat="43.59162" lon="3.01393">
        <ele>643.74</ele>
        <time>2011-05-01T07:56:48Z</time>
      </trkpt>
      <trkpt lat="43.59162" lon="3.01393">
        <ele>643.26</ele>
        <time>2011-05-01T07:57:02Z</time>
      </trkpt>
      <trkpt lat="43.59163" lon="3.01393">
        <ele>643.74</ele>
        <time>2011-05-01T07:57:16Z</time>
      </trkpt>
      <trkpt lat="43.59163" lon="3.01393">
        <ele>643.26</ele>
        <time>2011-05-01T07:57:31Z</time>
      </trkpt>
      <trkpt lat="43.59163" lon="3.01393">
        <ele>643.26</ele>
        <time>2011-05-01T07:57:56Z</time>
      </trkpt>
      <trkpt lat="43.59163" lon="3.01388">
        <ele>643.26</ele>
        <time>2011-05-01T07:58:08Z</time>
      </trkpt>
      <trkpt lat="43.59166" lon="3.01388">
        <ele>643.26</ele>
        <time>2011-05-01T07:58:18Z</time>
      </trkpt>
      <trkpt lat="43.5917" lon="3.01388">
        <ele>642.3</ele>
        <time>2011-05-01T07:58:26Z</time>
      </trkpt>
      <trkpt lat="43.59172" lon="3.01388">
        <ele>641.82</ele>
        <time>2011-05-01T07:58:28Z</time>
      </trkpt>
      <trkpt lat="43.59178" lon="3.01384">
        <ele>641.34</ele>
        <time>2011-05-01T07:58:34Z</time>
      </trkpt>
      <trkpt lat="43.59191" lon="3.01381">
        <ele>640.38</ele>
        <time>2011-05-01T07:58:47Z</time>
      </trkpt>
      <trkpt lat="43.59198" lon="3.01379">
        <ele>638.93</ele>
        <time>2011-05-01T07:58:58Z</time>
      </trkpt>
      <trkpt lat="43.59201" lon="3.01378">
        <ele>637.97</ele>
        <time>2011-05-01T07:59:02Z</time>
      </trkpt>
      <trkpt lat="43.59206" lon="3.01378">
        <ele>637.49</ele>
        <time>2011-05-01T07:59:07Z</time>
      </trkpt>
      <trkpt lat="43.59217" lon="3.01372">
        <ele>635.57</ele>
        <time>2011-05-01T07:59:22Z</time>
      </trkpt>
      <trkpt lat="43.59224" lon="3.01367">
        <ele>633.65</ele>
        <time>2011-05-01T07:59:34Z</time>
      </trkpt>
      <trkpt lat="43.59227" lon="3.01363">
        <ele>632.2</ele>
        <time>2011-05-01T07:59:42Z</time>
      </trkpt>
      <trkpt lat="43.59235" lon="3.01354">
        <ele>631.24</ele>
        <time>2011-05-01T07:59:54Z</time>
      </trkpt>
      <trkpt lat="43.59246" lon="3.01347">
        <ele>631.72</ele>
        <time>2011-05-01T08:00:07Z</time>
      </trkpt>
      <trkpt lat="43.59256" lon="3.01346">
        <ele>631.24</ele>
        <time>2011-05-01T08:00:19Z</time>
      </trkpt>
      <trkpt lat="43.59267" lon="3.01344">
        <ele>629.8</ele>
        <time>2011-05-01T08:00:32Z</time>
      </trkpt>
      <trkpt lat="43.59277" lon="3.0134">
        <ele>627.4</ele>
        <time>2011-05-01T08:00:46Z</time>
      </trkpt>
      <trkpt lat="43.59282" lon="3.01339">
        <ele>626.44</ele>
        <time>2011-05-01T08:00:58Z</time>
      </trkpt>
      <trkpt lat="43.5929" lon="3.01337">
        <ele>626.44</ele>
        <time>2011-05-01T08:01:11Z</time>
      </trkpt>
      <trkpt lat="43.59298" lon="3.01333">
        <ele>627.4</ele>
        <time>2011-05-01T08:01:24Z</time>
      </trkpt>
      <trkpt lat="43.59306" lon="3.01328">
        <ele>626.92</ele>
        <time>2011-05-01T08:01:35Z</time>
      </trkpt>
      <trkpt lat="43.59315" lon="3.01321">
        <ele>624.99</ele>
        <time>2011-05-01T08:01:47Z</time>
      </trkpt>
      <trkpt lat="43.59318" lon="3.01316">
        <ele>622.59</ele>
        <time>2011-05-01T08:01:57Z</time>
      </trkpt>
      <trkpt lat="43.59318" lon="3.01312">
        <ele>621.15</ele>
        <time>2011-05-01T08:02:10Z</time>
      </trkpt>
      <trkpt lat="43.5932" lon="3.01304">
        <ele>619.71</ele>
        <time>2011-05-01T08:02:24Z</time>
      </trkpt>
      <trkpt lat="43.59316" lon="3.01297">
        <ele>619.23</ele>
        <time>2011-05-01T08:02:37Z</time>
      </trkpt>
      <trkpt lat="43.59318" lon="3.01295">
        <ele>619.23</ele>
        <time>2011-05-01T08:02:52Z</time>
      </trkpt>
      <trkpt lat="43.59318" lon="3.01295">
        <ele>619.71</ele>
        <time>2011-05-01T08:03:15Z</time>
      </trkpt>
      <trkpt lat="43.59318" lon="3.01295">
        <ele>619.23</ele>
        <time>2011-05-01T08:03:42Z</time>
      </trkpt>
      <trkpt lat="43.59318" lon="3.01295">
        <ele>619.23</ele>
        <time>2011-05-01T08:04:09Z</time>
      </trkpt>
      <trkpt lat="43.59318" lon="3.01295">
        <ele>619.23</ele>
        <time>2011-05-01T08:04:26Z</time>
      </trkpt>
      <trkpt lat="43.59318" lon="3.01295">
        <ele>619.23</ele>
        <time>2011-05-01T08:04:36Z</time>
      </trkpt>
      <trkpt lat="43.59319" lon="3.01295">
        <ele>619.23</ele>
        <time>2011-05-01T08:04:53Z</time>
      </trkpt>
      <trkpt lat="43.59318" lon="3.01296">
        <ele>619.71</ele>
        <time>2011-05-01T08:05:10Z</time>
      </trkpt>
      <trkpt lat="43.59316" lon="3.01296">
        <ele>619.23</ele>
        <time>2011-05-01T08:05:25Z</time>
      </trkpt>
      <trkpt lat="43.59316" lon="3.01295">
        <ele>619.71</ele>
        <time>2011-05-01T08:05:45Z</time>
      </trkpt>
      <trkpt lat="43.59316" lon="3.01295">
        <ele>619.23</ele>
        <time>2011-05-01T08:06:09Z</time>
      </trkpt>
      <trkpt lat="43.59316" lon="3.01297">
        <ele>619.23</ele>
        <time>2011-05-01T08:06:21Z</time>
      </trkpt>
      <trkpt lat="43.59316" lon="3.01297">
        <ele>619.23</ele>
        <time>2011-05-01T08:06:39Z</time>
      </trkpt>
      <trkpt lat="43.59319" lon="3.01297">
        <ele>619.71</ele>
        <time>2011-05-01T08:07:01Z</time>
      </trkpt>
      <trkpt lat="43.5932" lon="3.01298">
        <ele>620.19</ele>
        <time>2011-05-01T08:07:15Z</time>
      </trkpt>
      <trkpt lat="43.5932" lon="3.01299">
        <ele>619.71</ele>
        <time>2011-05-01T08:07:23Z</time>
      </trkpt>
      <trkpt lat="43.59322" lon="3.01309">
        <ele>622.11</ele>
        <time>2011-05-01T08:07:36Z</time>
      </trkpt>
      <trkpt lat="43.59328" lon="3.01308">
        <ele>619.71</ele>
        <time>2011-05-01T08:07:48Z</time>
      </trkpt>
      <trkpt lat="43.59333" lon="3.01307">
        <ele>618.26</ele>
        <time>2011-05-01T08:07:54Z</time>
      </trkpt>
      <trkpt lat="43.59343" lon="3.01307">
        <ele>616.82</ele>
        <time>2011-05-01T08:08:09Z</time>
      </trkpt>
      <trkpt lat="43.59344" lon="3.01307">
        <ele>614.9</ele>
        <time>2011-05-01T08:08:20Z</time>
      </trkpt>
      <trkpt lat="43.59347" lon="3.01306">
        <ele>614.42</ele>
        <time>2011-05-01T08:08:37Z</time>
      </trkpt>
      <trkpt lat="43.59353" lon="3.01306">
        <ele>612.02</ele>
        <time>2011-05-01T08:08:47Z</time>
      </trkpt>
      <trkpt lat="43.59363" lon="3.01305">
        <ele>609.61</ele>
        <time>2011-05-01T08:09:00Z</time>
      </trkpt>
      <trkpt lat="43.59368" lon="3.01304">
        <ele>607.21</ele>
        <time>2011-05-01T08:09:10Z</time>
      </trkpt>
      <trkpt lat="43.59375" lon="3.01304">
        <ele>604.81</ele>
        <time>2011-05-01T08:09:22Z</time>
      </trkpt>
      <trkpt lat="43.59379" lon="3.01302">
        <ele>602.4</ele>
        <time>2011-05-01T08:09:34Z</time>
      </trkpt>
      <trkpt lat="43.59385" lon="3.01298">
        <ele>599.52</ele>
        <time>2011-05-01T08:09:49Z</time>
      </trkpt>
      <trkpt lat="43.59387" lon="3.01296">
        <ele>599.04</ele>
        <time>2011-05-01T08:09:51Z</time>
      </trkpt>
      <trkpt lat="43.59395" lon="3.01294">
        <ele>596.15</ele>
        <time>2011-05-01T08:10:04Z</time>
      </trkpt>
      <trkpt lat="43.59401" lon="3.0129">
        <ele>595.19</ele>
        <time>2011-05-01T08:10:15Z</time>
      </trkpt>
      <trkpt lat="43.59407" lon="3.01286">
        <ele>592.79</ele>
        <time>2011-05-01T08:10:27Z</time>
      </trkpt>
      <trkpt lat="43.5941" lon="3.01283">
        <ele>591.35</ele>
        <time>2011-05-01T08:10:34Z</time>
      </trkpt>
      <trkpt lat="43.59419" lon="3.01278">
        <ele>588.95</ele>
        <time>2011-05-01T08:10:51Z</time>
      </trkpt>
      <trkpt lat="43.59425" lon="3.01275">
        <ele>586.54</ele>
        <time>2011-05-01T08:11:05Z</time>
      </trkpt>
      <trkpt lat="43.59431" lon="3.01273">
        <ele>584.62</ele>
        <time>2011-05-01T08:11:17Z</time>
      </trkpt>
      <trkpt lat="43.59435" lon="3.0127">
        <ele>582.22</ele>
        <time>2011-05-01T08:11:28Z</time>
      </trkpt>
      <trkpt lat="43.59439" lon="3.01269">
        <ele>580.77</ele>
        <time>2011-05-01T08:11:40Z</time>
      </trkpt>
      <trkpt lat="43.59443" lon="3.01265">
        <ele>578.37</ele>
        <time>2011-05-01T08:11:52Z</time>
      </trkpt>
      <trkpt lat="43.59448" lon="3.01263">
        <ele>575.49</ele>
        <time>2011-05-01T08:12:05Z</time>
      </trkpt>
      <trkpt lat="43.59452" lon="3.01261">
        <ele>574.53</ele>
        <time>2011-05-01T08:12:10Z</time>
      </trkpt>
      <trkpt lat="43.59455" lon="3.01261">
        <ele>573.56</ele>
        <time>2011-05-01T08:12:22Z</time>
      </trkpt>
      <trkpt lat="43.59458" lon="3.01259">
        <ele>572.12</ele>
        <time>2011-05-01T08:12:39Z</time>
      </trkpt>
      <trkpt lat="43.59458" lon="3.01258">
        <ele>571.16</ele>
        <time>2011-05-01T08:12:45Z</time>
      </trkpt>
      <trkpt lat="43.59461" lon="3.01253">
        <ele>568.76</ele>
        <time>2011-05-01T08:12:57Z</time>
      </trkpt>
      <trkpt lat="43.59466" lon="3.01252">
        <ele>566.83</ele>
        <time>2011-05-01T08:13:08Z</time>
      </trkpt>
      <trkpt lat="43.59473" lon="3.01253">
        <ele>563.95</ele>
        <time>2011-05-01T08:13:19Z</time>
      </trkpt>
      <trkpt lat="43.5948" lon="3.01256">
        <ele>561.55</ele>
        <time>2011-05-01T08:13:31Z</time>
      </trkpt>
      <trkpt lat="43.59481" lon="3.01256">
        <ele>561.07</ele>
        <time>2011-05-01T08:13:46Z</time>
      </trkpt>
      <trkpt lat="43.59487" lon="3.01256">
        <ele>558.18</ele>
        <time>2011-05-01T08:13:59Z</time>
      </trkpt>
      <trkpt lat="43.5949" lon="3.01255">
        <ele>556.74</ele>
        <time>2011-05-01T08:14:06Z</time>
      </trkpt>
      <trkpt lat="43.59495" lon="3.01257">
        <ele>556.26</ele>
        <time>2011-05-01T08:14:09Z</time>
      </trkpt>
      <trkpt lat="43.59502" lon="3.01258">
        <ele>554.82</ele>
        <time>2011-05-01T08:14:14Z</time>
      </trkpt>
      <trkpt lat="43.59514" lon="3.0126">
        <ele>552.9</ele>
        <time>2011-05-01T08:14:26Z</time>
      </trkpt>
      <trkpt lat="43.59519" lon="3.01259">
        <ele>551.45</ele>
        <time>2011-05-01T08:14:38Z</time>
      </trkpt>
      <trkpt lat="43.59521" lon="3.01256">
        <ele>550.49</ele>
        <time>2011-05-01T08:14:44Z</time>
      </trkpt>
      <trkpt lat="43.59529" lon="3.01254">
        <ele>549.53</ele>
        <time>2011-05-01T08:14:52Z</time>
      </trkpt>
      <trkpt lat="43.59535" lon="3.01257">
        <ele>550.49</ele>
        <time>2011-05-01T08:15:07Z</time>
      </trkpt>
      <trkpt lat="43.59539" lon="3.01256">
        <ele>550.97</ele>
        <time>2011-05-01T08:15:25Z</time>
      </trkpt>
      <trkpt lat="43.59541" lon="3.01258">
        <ele>551.45</ele>
        <time>2011-05-01T08:15:39Z</time>
      </trkpt>
      <trkpt lat="43.59547" lon="3.0126">
        <ele>552.9</ele>
        <time>2011-05-01T08:15:53Z</time>
      </trkpt>
      <trkpt lat="43.59552" lon="3.01256">
        <ele>552.9</ele>
        <time>2011-05-01T08:16:08Z</time>
      </trkpt>
      <trkpt lat="43.5956" lon="3.01253">
        <ele>551.93</ele>
        <time>2011-05-01T08:16:20Z</time>
      </trkpt>
      <trkpt lat="43.59564" lon="3.0125">
        <ele>550.49</ele>
        <time>2011-05-01T08:16:31Z</time>
      </trkpt>
      <trkpt lat="43.59572" lon="3.01245">
        <ele>550.49</ele>
        <time>2011-05-01T08:16:44Z</time>
      </trkpt>
      <trkpt lat="43.59576" lon="3.01239">
        <ele>549.05</ele>
        <time>2011-05-01T08:16:53Z</time>
      </trkpt>
      <trkpt lat="43.59582" lon="3.01235">
        <ele>549.05</ele>
        <time>2011-05-01T08:17:03Z</time>
      </trkpt>
      <trkpt lat="43.59587" lon="3.01232">
        <ele>547.13</ele>
        <time>2011-05-01T08:17:16Z</time>
      </trkpt>
      <trkpt lat="43.596" lon="3.01224">
        <ele>546.17</ele>
        <time>2011-05-01T08:17:27Z</time>
      </trkpt>
      <trkpt lat="43.59609" lon="3.0122">
        <ele>546.17</ele>
        <time>2011-05-01T08:17:38Z</time>
      </trkpt>
      <trkpt lat="43.59614" lon="3.0122">
        <ele>546.17</ele>
        <time>2011-05-01T08:17:48Z</time>
      </trkpt>
      <trkpt lat="43.59625" lon="3.01214">
        <ele>547.13</ele>
        <time>2011-05-01T08:17:57Z</time>
      </trkpt>
      <trkpt lat="43.59637" lon="3.01205">
        <ele>548.57</ele>
        <time>2011-05-01T08:18:10Z</time>
      </trkpt>
      <trkpt lat="43.59645" lon="3.01203">
        <ele>550.49</ele>
        <time>2011-05-01T08:18:27Z</time>
      </trkpt>
      <trkpt lat="43.59652" lon="3.01205">
        <ele>551.93</ele>
        <time>2011-05-01T08:18:39Z</time>
      </trkpt>
      <trkpt lat="43.59662" lon="3.012">
        <ele>552.41</ele>
        <time>2011-05-01T08:18:53Z</time>
      </trkpt>
      <trkpt lat="43.59667" lon="3.012">
        <ele>553.38</ele>
        <time>2011-05-01T08:19:05Z</time>
      </trkpt>
      <trkpt lat="43.59675" lon="3.01195">
        <ele>553.38</ele>
        <time>2011-05-01T08:19:16Z</time>
      </trkpt>
      <trkpt lat="43.59681" lon="3.0119">
        <ele>554.82</ele>
        <time>2011-05-01T08:19:29Z</time>
      </trkpt>
      <trkpt lat="43.59686" lon="3.01186">
        <ele>555.3</ele>
        <time>2011-05-01T08:19:40Z</time>
      </trkpt>
      <trkpt lat="43.59695" lon="3.01182">
        <ele>556.74</ele>
        <time>2011-05-01T08:19:55Z</time>
      </trkpt>
      <trkpt lat="43.59701" lon="3.01174">
        <ele>557.7</ele>
        <time>2011-05-01T08:20:09Z</time>
      </trkpt>
      <trkpt lat="43.5971" lon="3.0117">
        <ele>561.07</ele>
        <time>2011-05-01T08:20:25Z</time>
      </trkpt>
      <trkpt lat="43.59718" lon="3.01167">
        <ele>562.51</ele>
        <time>2011-05-01T08:20:41Z</time>
      </trkpt>
      <trkpt lat="43.59724" lon="3.01163">
        <ele>562.51</ele>
        <time>2011-05-01T08:20:54Z</time>
      </trkpt>
      <trkpt lat="43.59726" lon="3.01164">
        <ele>563.47</ele>
        <time>2011-05-01T08:21:07Z</time>
      </trkpt>
      <trkpt lat="43.59731" lon="3.01161">
        <ele>564.43</ele>
        <time>2011-05-01T08:21:17Z</time>
      </trkpt>
      <trkpt lat="43.59734" lon="3.01156">
        <ele>564.43</ele>
        <time>2011-05-01T08:21:29Z</time>
      </trkpt>
      <trkpt lat="43.59738" lon="3.01152">
        <ele>566.83</ele>
        <time>2011-05-01T08:21:44Z</time>
      </trkpt>
      <trkpt lat="43.59744" lon="3.01149">
        <ele>569.24</ele>
        <time>2011-05-01T08:21:55Z</time>
      </trkpt>
      <trkpt lat="43.59748" lon="3.0115">
        <ele>570.68</ele>
        <time>2011-05-01T08:22:09Z</time>
      </trkpt>
      <trkpt lat="43.59754" lon="3.01149">
        <ele>572.6</ele>
        <time>2011-05-01T08:22:21Z</time>
      </trkpt>
      <trkpt lat="43.59762" lon="3.01147">
        <ele>572.12</ele>
        <time>2011-05-01T08:22:33Z</time>
      </trkpt>
      <trkpt lat="43.59762" lon="3.01147">
        <ele>572.12</ele>
        <time>2011-05-01T08:22:47Z</time>
      </trkpt>
      <trkpt lat="43.59764" lon="3.01144">
        <ele>575.01</ele>
        <time>2011-05-01T08:23:03Z</time>
      </trkpt>
      <trkpt lat="43.59767" lon="3.0114">
        <ele>575.97</ele>
        <time>2011-05-01T08:23:16Z</time>
      </trkpt>
      <trkpt lat="43.59766" lon="3.01139">
        <ele>575.97</ele>
        <time>2011-05-01T08:23:30Z</time>
      </trkpt>
      <trkpt lat="43.59767" lon="3.01136">
        <ele>576.45</ele>
        <time>2011-05-01T08:23:50Z</time>
      </trkpt>
      <trkpt lat="43.59768" lon="3.01134">
        <ele>576.93</ele>
        <time>2011-05-01T08:24:02Z</time>
      </trkpt>
      <trkpt lat="43.59776" lon="3.01124">
        <ele>578.85</ele>
        <time>2011-05-01T08:24:17Z</time>
      </trkpt>
      <trkpt lat="43.59778" lon="3.01124">
        <ele>580.77</ele>
        <time>2011-05-01T08:24:32Z</time>
      </trkpt>
      <trkpt lat="43.5978" lon="3.01125">
        <ele>581.73</ele>
        <time>2011-05-01T08:24:50Z</time>
      </trkpt>
      <trkpt lat="43.59782" lon="3.01127">
        <ele>583.18</ele>
        <time>2011-05-01T08:25:03Z</time>
      </trkpt>
      <trkpt lat="43.59785" lon="3.01126">
        <ele>585.58</ele>
        <time>2011-05-01T08:25:20Z</time>
      </trkpt>
      <trkpt lat="43.59786" lon="3.01126">
        <ele>586.54</ele>
        <time>2011-05-01T08:25:34Z</time>
      </trkpt>
      <trkpt lat="43.59786" lon="3.01126">
        <ele>587.02</ele>
        <time>2011-05-01T08:25:55Z</time>
      </trkpt>
      <trkpt lat="43.59789" lon="3.01129">
        <ele>588.95</ele>
        <time>2011-05-01T08:26:11Z</time>
      </trkpt>
      <trkpt lat="43.59793" lon="3.0113">
        <ele>589.91</ele>
        <time>2011-05-01T08:26:23Z</time>
      </trkpt>
      <trkpt lat="43.59796" lon="3.0113">
        <ele>591.83</ele>
        <time>2011-05-01T08:26:41Z</time>
      </trkpt>
      <trkpt lat="43.59797" lon="3.0113">
        <ele>592.31</ele>
        <time>2011-05-01T08:26:57Z</time>
      </trkpt>
      <trkpt lat="43.59798" lon="3.0113">
        <ele>592.79</ele>
        <time>2011-05-01T08:27:26Z</time>
      </trkpt>
      <trkpt lat="43.598" lon="3.01132">
        <ele>593.75</ele>
        <time>2011-05-01T08:27:44Z</time>
      </trkpt>
      <trkpt lat="43.59803" lon="3.01138">
        <ele>595.67</ele>
        <time>2011-05-01T08:27:58Z</time>
      </trkpt>
      <trkpt lat="43.59804" lon="3.01137">
        <ele>596.64</ele>
        <time>2011-05-01T08:28:15Z</time>
      </trkpt>
      <trkpt lat="43.59807" lon="3.01138">
        <ele>598.56</ele>
        <time>2011-05-01T08:28:30Z</time>
      </trkpt>
      <trkpt lat="43.5981" lon="3.01139">
        <ele>600.48</ele>
        <time>2011-05-01T08:28:45Z</time>
      </trkpt>
      <trkpt lat="43.59812" lon="3.01139">
        <ele>601.44</ele>
        <time>2011-05-01T08:29:01Z</time>
      </trkpt>
      <trkpt lat="43.5982" lon="3.01136">
        <ele>602.88</ele>
        <time>2011-05-01T08:29:16Z</time>
      </trkpt>
      <trkpt lat="43.59823" lon="3.01134">
        <ele>603.85</ele>
        <time>2011-05-01T08:29:28Z</time>
      </trkpt>
      <trkpt lat="43.59826" lon="3.01131">
        <ele>605.77</ele>
        <time>2011-05-01T08:29:46Z</time>
      </trkpt>
      <trkpt lat="43.59833" lon="3.01128">
        <ele>606.73</ele>
        <time>2011-05-01T08:30:00Z</time>
      </trkpt>
      <trkpt lat="43.59835" lon="3.01127">
        <ele>608.17</ele>
        <time>2011-05-01T08:30:14Z</time>
      </trkpt>
      <trkpt lat="43.59841" lon="3.01125">
        <ele>609.61</ele>
        <time>2011-05-01T08:30:29Z</time>
      </trkpt>
      <trkpt lat="43.59846" lon="3.01124">
        <ele>611.54</ele>
        <time>2011-05-01T08:30:45Z</time>
      </trkpt>
      <trkpt lat="43.5985" lon="3.01121">
        <ele>612.02</ele>
        <time>2011-05-01T08:30:58Z</time>
      </trkpt>
      <trkpt lat="43.59856" lon="3.01114">
        <ele>612.5</ele>
        <time>2011-05-01T08:31:12Z</time>
      </trkpt>
      <trkpt lat="43.59866" lon="3.01109">
        <ele>613.46</ele>
        <time>2011-05-01T08:31:28Z</time>
      </trkpt>
      <trkpt lat="43.59871" lon="3.01105">
        <ele>612.5</ele>
        <time>2011-05-01T08:31:40Z</time>
      </trkpt>
      <trkpt lat="43.5988" lon="3.011">
        <ele>613.46</ele>
        <time>2011-05-01T08:31:52Z</time>
      </trkpt>
      <trkpt lat="43.59888" lon="3.01097">
        <ele>614.42</ele>
        <time>2011-05-01T08:32:06Z</time>
      </trkpt>
      <trkpt lat="43.59896" lon="3.01095">
        <ele>615.86</ele>
        <time>2011-05-01T08:32:20Z</time>
      </trkpt>
      <trkpt lat="43.59902" lon="3.01085">
        <ele>615.38</ele>
        <time>2011-05-01T08:32:33Z</time>
      </trkpt>
      <trkpt lat="43.59903" lon="3.01084">
        <ele>615.38</ele>
        <time>2011-05-01T08:32:46Z</time>
      </trkpt>
      <trkpt lat="43.59903" lon="3.01084">
        <ele>614.9</ele>
        <time>2011-05-01T08:33:08Z</time>
      </trkpt>
      <trkpt lat="43.59909" lon="3.01081">
        <ele>614.9</ele>
        <time>2011-05-01T08:33:30Z</time>
      </trkpt>
      <trkpt lat="43.59914" lon="3.01081">
        <ele>615.38</ele>
        <time>2011-05-01T08:33:47Z</time>
      </trkpt>
      <trkpt lat="43.59915" lon="3.0108">
        <ele>615.38</ele>
        <time>2011-05-01T08:33:49Z</time>
      </trkpt>
      <trkpt lat="43.59924" lon="3.01075">
        <ele>616.34</ele>
        <time>2011-05-01T08:34:02Z</time>
      </trkpt>
      <trkpt lat="43.59935" lon="3.01071">
        <ele>616.34</ele>
        <time>2011-05-01T08:34:16Z</time>
      </trkpt>
      <trkpt lat="43.59939" lon="3.01069">
        <ele>616.34</ele>
        <time>2011-05-01T08:34:22Z</time>
      </trkpt>
      <trkpt lat="43.59949" lon="3.01064">
        <ele>615.86</ele>
        <time>2011-05-01T08:34:34Z</time>
      </trkpt>
      <trkpt lat="43.59956" lon="3.01063">
        <ele>614.42</ele>
        <time>2011-05-01T08:34:45Z</time>
      </trkpt>
      <trkpt lat="43.59967" lon="3.01062">
        <ele>613.46</ele>
        <time>2011-05-01T08:35:00Z</time>
      </trkpt>
      <trkpt lat="43.59978" lon="3.01062">
        <ele>612.98</ele>
        <time>2011-05-01T08:35:15Z</time>
      </trkpt>
      <trkpt lat="43.59987" lon="3.01065">
        <ele>613.46</ele>
        <time>2011-05-01T08:35:28Z</time>
      </trkpt>
      <trkpt lat="43.59996" lon="3.01064">
        <ele>613.46</ele>
        <time>2011-05-01T08:35:39Z</time>
      </trkpt>
      <trkpt lat="43.60005" lon="3.01064">
        <ele>614.42</ele>
        <time>2011-05-01T08:35:51Z</time>
      </trkpt>
      <trkpt lat="43.60012" lon="3.01063">
        <ele>615.86</ele>
        <time>2011-05-01T08:36:03Z</time>
      </trkpt>
      <trkpt lat="43.6002" lon="3.01063">
        <ele>615.38</ele>
        <time>2011-05-01T08:36:17Z</time>
      </trkpt>
      <trkpt lat="43.60031" lon="3.01061">
        <ele>615.86</ele>
        <time>2011-05-01T08:36:30Z</time>
      </trkpt>
      <trkpt lat="43.6004" lon="3.0106">
        <ele>616.82</ele>
        <time>2011-05-01T08:36:42Z</time>
      </trkpt>
      <trkpt lat="43.60053" lon="3.01061">
        <ele>617.78</ele>
        <time>2011-05-01T08:36:58Z</time>
      </trkpt>
      <trkpt lat="43.60057" lon="3.01062">
        <ele>619.71</ele>
        <time>2011-05-01T08:37:14Z</time>
      </trkpt>
      <trkpt lat="43.60065" lon="3.01065">
        <ele>621.63</ele>
        <time>2011-05-01T08:37:29Z</time>
      </trkpt>
      <trkpt lat="43.60071" lon="3.01066">
        <ele>623.55</ele>
        <time>2011-05-01T08:37:41Z</time>
      </trkpt>
      <trkpt lat="43.60078" lon="3.01068">
        <ele>623.55</ele>
        <time>2011-05-01T08:37:55Z</time>
      </trkpt>
      <trkpt lat="43.60085" lon="3.01069">
        <ele>623.07</ele>
        <time>2011-05-01T08:38:07Z</time>
      </trkpt>
      <trkpt lat="43.60089" lon="3.0107">
        <ele>622.59</ele>
        <time>2011-05-01T08:38:18Z</time>
      </trkpt>
      <trkpt lat="43.60094" lon="3.01069">
        <ele>622.59</ele>
        <time>2011-05-01T08:38:31Z</time>
      </trkpt>
      <trkpt lat="43.60094" lon="3.01069">
        <ele>622.59</ele>
        <time>2011-05-01T08:38:53Z</time>
      </trkpt>
      <trkpt lat="43.60103" lon="3.01066">
        <ele>623.07</ele>
        <time>2011-05-01T08:39:07Z</time>
      </trkpt>
      <trkpt lat="43.60104" lon="3.01066">
        <ele>623.07</ele>
        <time>2011-05-01T08:39:09Z</time>
      </trkpt>
      <trkpt lat="43.6011" lon="3.01063">
        <ele>622.11</ele>
        <time>2011-05-01T08:39:16Z</time>
      </trkpt>
      <trkpt lat="43.6012" lon="3.01062">
        <ele>621.63</ele>
        <time>2011-05-01T08:39:30Z</time>
      </trkpt>
      <trkpt lat="43.60123" lon="3.0106">
        <ele>621.15</ele>
        <time>2011-05-01T08:39:36Z</time>
      </trkpt>
      <trkpt lat="43.60132" lon="3.01053">
        <ele>621.63</ele>
        <time>2011-05-01T08:39:48Z</time>
      </trkpt>
      <trkpt lat="43.6014" lon="3.01049">
        <ele>622.59</ele>
        <time>2011-05-01T08:39:59Z</time>
      </trkpt>
      <trkpt lat="43.60148" lon="3.01046">
        <ele>624.03</ele>
        <time>2011-05-01T08:40:11Z</time>
      </trkpt>
      <trkpt lat="43.60155" lon="3.01045">
        <ele>624.99</ele>
        <time>2011-05-01T08:40:25Z</time>
      </trkpt>
      <trkpt lat="43.6016" lon="3.0105">
        <ele>626.44</ele>
        <time>2011-05-01T08:40:40Z</time>
      </trkpt>
      <trkpt lat="43.60164" lon="3.01051">
        <ele>627.88</ele>
        <time>2011-05-01T08:40:55Z</time>
      </trkpt>
      <trkpt lat="43.60164" lon="3.0105">
        <ele>628.36</ele>
        <time>2011-05-01T08:41:11Z</time>
      </trkpt>
      <trkpt lat="43.60168" lon="3.01051">
        <ele>630.28</ele>
        <time>2011-05-01T08:41:27Z</time>
      </trkpt>
      <trkpt lat="43.60174" lon="3.01051">
        <ele>632.2</ele>
        <time>2011-05-01T08:41:44Z</time>
      </trkpt>
      <trkpt lat="43.60174" lon="3.01051">
        <ele>631.72</ele>
        <time>2011-05-01T08:42:05Z</time>
      </trkpt>
      <trkpt lat="43.60174" lon="3.01052">
        <ele>631.72</ele>
        <time>2011-05-01T08:42:18Z</time>
      </trkpt>
      <trkpt lat="43.60175" lon="3.01052">
        <ele>631.72</ele>
        <time>2011-05-01T08:42:42Z</time>
      </trkpt>
      <trkpt lat="43.60175" lon="3.01052">
        <ele>631.24</ele>
        <time>2011-05-01T08:43:16Z</time>
      </trkpt>
      <trkpt lat="43.60175" lon="3.01052">
        <ele>631.72</ele>
        <time>2011-05-01T08:43:52Z</time>
      </trkpt>
      <trkpt lat="43.60175" lon="3.01052">
        <ele>631.72</ele>
        <time>2011-05-01T08:44:23Z</time>
      </trkpt>
      <trkpt lat="43.60175" lon="3.01052">
        <ele>631.72</ele>
        <time>2011-05-01T08:44:53Z</time>
      </trkpt>
      <trkpt lat="43.60175" lon="3.01051">
        <ele>632.2</ele>
        <time>2011-05-01T08:45:25Z</time>
      </trkpt>
      <trkpt lat="43.60175" lon="3.01051">
        <ele>632.2</ele>
        <time>2011-05-01T08:45:58Z</time>
      </trkpt>
      <trkpt lat="43.60175" lon="3.01051">
        <ele>632.68</ele>
        <time>2011-05-01T08:46:31Z</time>
      </trkpt>
      <trkpt lat="43.60175" lon="3.01051">
        <ele>632.2</ele>
        <time>2011-05-01T08:47:06Z</time>
      </trkpt>
      <trkpt lat="43.60175" lon="3.01051">
        <ele>633.17</ele>
        <time>2011-05-01T08:47:40Z</time>
      </trkpt>
      <trkpt lat="43.60176" lon="3.01052">
        <ele>633.65</ele>
        <time>2011-05-01T08:47:54Z</time>
      </trkpt>
      <trkpt lat="43.60176" lon="3.01052">
        <ele>633.17</ele>
        <time>2011-05-01T08:48:18Z</time>
      </trkpt>
      <trkpt lat="43.60176" lon="3.01049">
        <ele>634.13</ele>
        <time>2011-05-01T08:48:45Z</time>
      </trkpt>
      <trkpt lat="43.60176" lon="3.01048">
        <ele>633.65</ele>
        <time>2011-05-01T08:49:02Z</time>
      </trkpt>
      <trkpt lat="43.60176" lon="3.01048">
        <ele>634.61</ele>
        <time>2011-05-01T08:49:27Z</time>
      </trkpt>
      <trkpt lat="43.60182" lon="3.01045">
        <ele>634.61</ele>
        <time>2011-05-01T08:49:41Z</time>
      </trkpt>
      <trkpt lat="43.60191" lon="3.01044">
        <ele>636.05</ele>
        <time>2011-05-01T08:49:52Z</time>
      </trkpt>
      <trkpt lat="43.60197" lon="3.01048">
        <ele>636.53</ele>
        <time>2011-05-01T08:50:06Z</time>
      </trkpt>
      <trkpt lat="43.60203" lon="3.01056">
        <ele>637.49</ele>
        <time>2011-05-01T08:50:18Z</time>
      </trkpt>
      <trkpt lat="43.60201" lon="3.01062">
        <ele>639.41</ele>
        <time>2011-05-01T08:50:29Z</time>
      </trkpt>
      <trkpt lat="43.60198" lon="3.01067">
        <ele>640.86</ele>
        <time>2011-05-01T08:50:43Z</time>
      </trkpt>
      <trkpt lat="43.60197" lon="3.01069">
        <ele>642.3</ele>
        <time>2011-05-01T08:50:57Z</time>
      </trkpt>
      <trkpt lat="43.60197" lon="3.01071">
        <ele>642.3</ele>
        <time>2011-05-01T08:51:10Z</time>
      </trkpt>
      <trkpt lat="43.60197" lon="3.01071">
        <ele>642.78</ele>
        <time>2011-05-01T08:51:33Z</time>
      </trkpt>
      <trkpt lat="43.60197" lon="3.01073">
        <ele>643.26</ele>
        <time>2011-05-01T08:51:48Z</time>
      </trkpt>
      <trkpt lat="43.60198" lon="3.01075">
        <ele>644.7</ele>
        <time>2011-05-01T08:51:59Z</time>
      </trkpt>
      <trkpt lat="43.60198" lon="3.01075">
        <ele>646.62</ele>
        <time>2011-05-01T08:52:14Z</time>
      </trkpt>
      <trkpt lat="43.60199" lon="3.01076">
        <ele>648.07</ele>
        <time>2011-05-01T08:52:28Z</time>
      </trkpt>
      <trkpt lat="43.60202" lon="3.01082">
        <ele>650.47</ele>
        <time>2011-05-01T08:52:43Z</time>
      </trkpt>
      <trkpt lat="43.60202" lon="3.01082">
        <ele>650.95</ele>
        <time>2011-05-01T08:52:54Z</time>
      </trkpt>
      <trkpt lat="43.60198" lon="3.01086">
        <ele>653.35</ele>
        <time>2011-05-01T08:53:07Z</time>
      </trkpt>
      <trkpt lat="43.60201" lon="3.01084">
        <ele>654.8</ele>
        <time>2011-05-01T08:53:22Z</time>
      </trkpt>
      <trkpt lat="43.60201" lon="3.01084">
        <ele>655.76</ele>
        <time>2011-05-01T08:53:35Z</time>
      </trkpt>
      <trkpt lat="43.60201" lon="3.01084">
        <ele>657.68</ele>
        <time>2011-05-01T08:53:49Z</time>
      </trkpt>
      <trkpt lat="43.60206" lon="3.01076">
        <ele>658.64</ele>
        <time>2011-05-01T08:54:02Z</time>
      </trkpt>
      <trkpt lat="43.60211" lon="3.01069">
        <ele>659.12</ele>
        <time>2011-05-01T08:54:14Z</time>
      </trkpt>
      <trkpt lat="43.60216" lon="3.01074">
        <ele>660.08</ele>
        <time>2011-05-01T08:54:29Z</time>
      </trkpt>
      <trkpt lat="43.60227" lon="3.01069">
        <ele>661.04</ele>
        <time>2011-05-01T08:54:41Z</time>
      </trkpt>
      <trkpt lat="43.60231" lon="3.01068">
        <ele>662.97</ele>
        <time>2011-05-01T08:54:54Z</time>
      </trkpt>
      <trkpt lat="43.60237" lon="3.01063">
        <ele>664.89</ele>
        <time>2011-05-01T08:55:09Z</time>
      </trkpt>
      <trkpt lat="43.60237" lon="3.01063">
        <ele>665.37</ele>
        <time>2011-05-01T08:55:20Z</time>
      </trkpt>
      <trkpt lat="43.60237" lon="3.01063">
        <ele>666.81</ele>
        <time>2011-05-01T08:55:34Z</time>
      </trkpt>
      <trkpt lat="43.60239" lon="3.01064">
        <ele>668.25</ele>
        <time>2011-05-01T08:55:50Z</time>
      </trkpt>
      <trkpt lat="43.6024" lon="3.01062">
        <ele>670.18</ele>
        <time>2011-05-01T08:56:04Z</time>
      </trkpt>
      <trkpt lat="43.6024" lon="3.01062">
        <ele>671.14</ele>
        <time>2011-05-01T08:56:23Z</time>
      </trkpt>
      <trkpt lat="43.60241" lon="3.01063">
        <ele>671.62</ele>
        <time>2011-05-01T08:56:43Z</time>
      </trkpt>
      <trkpt lat="43.60241" lon="3.01063">
        <ele>671.62</ele>
        <time>2011-05-01T08:57:03Z</time>
      </trkpt>
      <trkpt lat="43.60241" lon="3.01062">
        <ele>670.18</ele>
        <time>2011-05-01T08:57:18Z</time>
      </trkpt>
      <trkpt lat="43.60241" lon="3.01062">
        <ele>669.7</ele>
        <time>2011-05-01T08:57:34Z</time>
      </trkpt>
      <trkpt lat="43.60242" lon="3.01063">
        <ele>670.18</ele>
        <time>2011-05-01T08:57:57Z</time>
      </trkpt>
      <trkpt lat="43.60242" lon="3.01063">
        <ele>670.18</ele>
        <time>2011-05-01T08:58:16Z</time>
      </trkpt>
      <trkpt lat="43.60242" lon="3.01063">
        <ele>672.1</ele>
        <time>2011-05-01T08:58:30Z</time>
      </trkpt>
      <trkpt lat="43.60242" lon="3.01063">
        <ele>674.98</ele>
        <time>2011-05-01T08:58:45Z</time>
      </trkpt>
      <trkpt lat="43.60242" lon="3.01063">
        <ele>676.91</ele>
        <time>2011-05-01T08:59:03Z</time>
      </trkpt>
      <trkpt lat="43.60256" lon="3.01059">
        <ele>679.31</ele>
        <time>2011-05-01T08:59:19Z</time>
      </trkpt>
      <trkpt lat="43.6027" lon="3.01059">
        <ele>681.71</ele>
        <time>2011-05-01T08:59:33Z</time>
      </trkpt>
      <trkpt lat="43.60278" lon="3.01059">
        <ele>684.12</ele>
        <time>2011-05-01T08:59:45Z</time>
      </trkpt>
      <trkpt lat="43.60285" lon="3.01051">
        <ele>685.08</ele>
        <time>2011-05-01T08:59:57Z</time>
      </trkpt>
      <trkpt lat="43.60285" lon="3.01051">
        <ele>685.56</ele>
        <time>2011-05-01T08:59:58Z</time>
      </trkpt>
      <trkpt lat="43.60289" lon="3.01051">
        <ele>687</ele>
        <time>2011-05-01T09:00:11Z</time>
      </trkpt>
      <trkpt lat="43.60295" lon="3.01048">
        <ele>688.92</ele>
        <time>2011-05-01T09:00:24Z</time>
      </trkpt>
      <trkpt lat="43.60299" lon="3.01043">
        <ele>689.88</ele>
        <time>2011-05-01T09:00:36Z</time>
      </trkpt>
      <trkpt lat="43.60302" lon="3.0104">
        <ele>691.81</ele>
        <time>2011-05-01T09:00:49Z</time>
      </trkpt>
      <trkpt lat="43.60307" lon="3.01034">
        <ele>692.77</ele>
        <time>2011-05-01T09:01:01Z</time>
      </trkpt>
      <trkpt lat="43.6031" lon="3.01028">
        <ele>694.21</ele>
        <time>2011-05-01T09:01:13Z</time>
      </trkpt>
      <trkpt lat="43.60312" lon="3.01024">
        <ele>695.65</ele>
        <time>2011-05-01T09:01:29Z</time>
      </trkpt>
      <trkpt lat="43.60315" lon="3.01021">
        <ele>697.09</ele>
        <time>2011-05-01T09:01:43Z</time>
      </trkpt>
      <trkpt lat="43.6032" lon="3.01017">
        <ele>699.02</ele>
        <time>2011-05-01T09:01:56Z</time>
      </trkpt>
      <trkpt lat="43.60323" lon="3.01014">
        <ele>699.5</ele>
        <time>2011-05-01T09:02:12Z</time>
      </trkpt>
      <trkpt lat="43.60327" lon="3.01013">
        <ele>700.94</ele>
        <time>2011-05-01T09:02:26Z</time>
      </trkpt>
      <trkpt lat="43.6033" lon="3.0101">
        <ele>700.94</ele>
        <time>2011-05-01T09:02:44Z</time>
      </trkpt>
      <trkpt lat="43.60337" lon="3.01001">
        <ele>703.34</ele>
        <time>2011-05-01T09:02:57Z</time>
      </trkpt>
      <trkpt lat="43.60339" lon="3.00998">
        <ele>703.34</ele>
        <time>2011-05-01T09:03:10Z</time>
      </trkpt>
      <trkpt lat="43.60339" lon="3.00996">
        <ele>703.34</ele>
        <time>2011-05-01T09:03:24Z</time>
      </trkpt>
      <trkpt lat="43.60339" lon="3.00996">
        <ele>702.86</ele>
        <time>2011-05-01T09:03:45Z</time>
      </trkpt>
      <trkpt lat="43.60342" lon="3.00993">
        <ele>703.82</ele>
        <time>2011-05-01T09:04:06Z</time>
      </trkpt>
      <trkpt lat="43.60346" lon="3.0099">
        <ele>705.75</ele>
        <time>2011-05-01T09:04:18Z</time>
      </trkpt>
      <trkpt lat="43.60348" lon="3.00988">
        <ele>706.71</ele>
        <time>2011-05-01T09:04:29Z</time>
      </trkpt>
      <trkpt lat="43.60349" lon="3.00987">
        <ele>707.19</ele>
        <time>2011-05-01T09:04:44Z</time>
      </trkpt>
      <trkpt lat="43.60352" lon="3.00983">
        <ele>709.11</ele>
        <time>2011-05-01T09:05:00Z</time>
      </trkpt>
      <trkpt lat="43.60356" lon="3.00992">
        <ele>710.07</ele>
        <time>2011-05-01T09:05:14Z</time>
      </trkpt>
      <trkpt lat="43.60357" lon="3.00995">
        <ele>710.55</ele>
        <time>2011-05-01T09:05:34Z</time>
      </trkpt>
      <trkpt lat="43.60357" lon="3.01001">
        <ele>711.51</ele>
        <time>2011-05-01T09:05:44Z</time>
      </trkpt>
      <trkpt lat="43.60358" lon="3.01012">
        <ele>714.4</ele>
        <time>2011-05-01T09:06:00Z</time>
      </trkpt>
      <trkpt lat="43.6036" lon="3.01008">
        <ele>715.36</ele>
        <time>2011-05-01T09:06:12Z</time>
      </trkpt>
      <trkpt lat="43.60362" lon="3.01006">
        <ele>716.8</ele>
        <time>2011-05-01T09:06:26Z</time>
      </trkpt>
      <trkpt lat="43.60363" lon="3.01005">
        <ele>718.24</ele>
        <time>2011-05-01T09:06:50Z</time>
      </trkpt>
      <trkpt lat="43.60363" lon="3.01005">
        <ele>718.24</ele>
        <time>2011-05-01T09:07:06Z</time>
      </trkpt>
      <trkpt lat="43.60365" lon="3.01005">
        <ele>718.72</ele>
        <time>2011-05-01T09:07:19Z</time>
      </trkpt>
      <trkpt lat="43.60369" lon="3.01014">
        <ele>722.09</ele>
        <time>2011-05-01T09:07:34Z</time>
      </trkpt>
      <trkpt lat="43.60372" lon="3.01018">
        <ele>723.05</ele>
        <time>2011-05-01T09:07:52Z</time>
      </trkpt>
      <trkpt lat="43.6037" lon="3.01019">
        <ele>724.49</ele>
        <time>2011-05-01T09:08:06Z</time>
      </trkpt>
      <trkpt lat="43.60372" lon="3.01017">
        <ele>724.49</ele>
        <time>2011-05-01T09:08:17Z</time>
      </trkpt>
      <trkpt lat="43.60372" lon="3.01017">
        <ele>724.01</ele>
        <time>2011-05-01T09:08:42Z</time>
      </trkpt>
      <trkpt lat="43.60373" lon="3.01016">
        <ele>725.45</ele>
        <time>2011-05-01T09:09:00Z</time>
      </trkpt>
      <trkpt lat="43.60378" lon="3.01016">
        <ele>726.89</ele>
        <time>2011-05-01T09:09:13Z</time>
      </trkpt>
      <trkpt lat="43.60381" lon="3.01025">
        <ele>728.34</ele>
        <time>2011-05-01T09:09:28Z</time>
      </trkpt>
      <trkpt lat="43.60385" lon="3.01022">
        <ele>730.74</ele>
        <time>2011-05-01T09:09:43Z</time>
      </trkpt>
      <trkpt lat="43.60387" lon="3.01019">
        <ele>732.18</ele>
        <time>2011-05-01T09:09:57Z</time>
      </trkpt>
      <trkpt lat="43.60394" lon="3.01011">
        <ele>733.62</ele>
        <time>2011-05-01T09:10:11Z</time>
      </trkpt>
      <trkpt lat="43.60397" lon="3.01007">
        <ele>734.1</ele>
        <time>2011-05-01T09:10:23Z</time>
      </trkpt>
      <trkpt lat="43.60403" lon="3.01">
        <ele>736.51</ele>
        <time>2011-05-01T09:10:36Z</time>
      </trkpt>
      <trkpt lat="43.60407" lon="3.00996">
        <ele>737.47</ele>
        <time>2011-05-01T09:10:51Z</time>
      </trkpt>
      <trkpt lat="43.60411" lon="3.00999">
        <ele>738.43</ele>
        <time>2011-05-01T09:11:04Z</time>
      </trkpt>
      <trkpt lat="43.60413" lon="3.01006">
        <ele>740.83</ele>
        <time>2011-05-01T09:11:19Z</time>
      </trkpt>
      <trkpt lat="43.60413" lon="3.01014">
        <ele>740.83</ele>
        <time>2011-05-01T09:11:33Z</time>
      </trkpt>
      <trkpt lat="43.60412" lon="3.01014">
        <ele>741.79</ele>
        <time>2011-05-01T09:11:52Z</time>
      </trkpt>
      <trkpt lat="43.60412" lon="3.01014">
        <ele>741.79</ele>
        <time>2011-05-01T09:12:21Z</time>
      </trkpt>
      <trkpt lat="43.60412" lon="3.01014">
        <ele>741.31</ele>
        <time>2011-05-01T09:12:43Z</time>
      </trkpt>
      <trkpt lat="43.60412" lon="3.01015">
        <ele>741.31</ele>
        <time>2011-05-01T09:13:02Z</time>
      </trkpt>
      <trkpt lat="43.60412" lon="3.01016">
        <ele>741.31</ele>
        <time>2011-05-01T09:13:18Z</time>
      </trkpt>
      <trkpt lat="43.60414" lon="3.01015">
        <ele>742.28</ele>
        <time>2011-05-01T09:13:34Z</time>
      </trkpt>
      <trkpt lat="43.60423" lon="3.01009">
        <ele>744.68</ele>
        <time>2011-05-01T09:13:48Z</time>
      </trkpt>
      <trkpt lat="43.6043" lon="3.01005">
        <ele>746.6</ele>
        <time>2011-05-01T09:14:02Z</time>
      </trkpt>
      <trkpt lat="43.60432" lon="3.01005">
        <ele>747.08</ele>
        <time>2011-05-01T09:14:17Z</time>
      </trkpt>
      <trkpt lat="43.60434" lon="3.01006">
        <ele>748.52</ele>
        <time>2011-05-01T09:14:24Z</time>
      </trkpt>
      <trkpt lat="43.6044" lon="3.01011">
        <ele>749.97</ele>
        <time>2011-05-01T09:14:36Z</time>
      </trkpt>
      <trkpt lat="43.60447" lon="3.01012">
        <ele>750.45</ele>
        <time>2011-05-01T09:14:46Z</time>
      </trkpt>
      <trkpt lat="43.60453" lon="3.0101">
        <ele>749.97</ele>
        <time>2011-05-01T09:14:58Z</time>
      </trkpt>
      <trkpt lat="43.60454" lon="3.0101">
        <ele>750.45</ele>
        <time>2011-05-01T09:15:09Z</time>
      </trkpt>
      <trkpt lat="43.60457" lon="3.01011">
        <ele>749.49</ele>
        <time>2011-05-01T09:15:12Z</time>
      </trkpt>
      <trkpt lat="43.60461" lon="3.01011">
        <ele>748.04</ele>
        <time>2011-05-01T09:15:18Z</time>
      </trkpt>
      <trkpt lat="43.60469" lon="3.01007">
        <ele>745.64</ele>
        <time>2011-05-01T09:15:30Z</time>
      </trkpt>
      <trkpt lat="43.60473" lon="3.01009">
        <ele>745.16</ele>
        <time>2011-05-01T09:15:43Z</time>
      </trkpt>
      <trkpt lat="43.60474" lon="3.0101">
        <ele>744.68</ele>
        <time>2011-05-01T09:16:00Z</time>
      </trkpt>
      <trkpt lat="43.60478" lon="3.01012">
        <ele>744.2</ele>
        <time>2011-05-01T09:16:07Z</time>
      </trkpt>
      <trkpt lat="43.60484" lon="3.01017">
        <ele>742.76</ele>
        <time>2011-05-01T09:16:17Z</time>
      </trkpt>
      <trkpt lat="43.60488" lon="3.01021">
        <ele>742.76</ele>
        <time>2011-05-01T09:16:23Z</time>
      </trkpt>
      <trkpt lat="43.60499" lon="3.01024">
        <ele>742.28</ele>
        <time>2011-05-01T09:16:35Z</time>
      </trkpt>
      <trkpt lat="43.60505" lon="3.01024">
        <ele>743.24</ele>
        <time>2011-05-01T09:16:47Z</time>
      </trkpt>
      <trkpt lat="43.60516" lon="3.01027">
        <ele>744.68</ele>
        <time>2011-05-01T09:17:01Z</time>
      </trkpt>
      <trkpt lat="43.6052" lon="3.01027">
        <ele>744.2</ele>
        <time>2011-05-01T09:17:14Z</time>
      </trkpt>
      <trkpt lat="43.60524" lon="3.0103">
        <ele>745.16</ele>
        <time>2011-05-01T09:17:26Z</time>
      </trkpt>
      <trkpt lat="43.6053" lon="3.01031">
        <ele>746.6</ele>
        <time>2011-05-01T09:17:39Z</time>
      </trkpt>
      <trkpt lat="43.60539" lon="3.01029">
        <ele>747.08</ele>
        <time>2011-05-01T09:17:54Z</time>
      </trkpt>
      <trkpt lat="43.60541" lon="3.01027">
        <ele>747.56</ele>
        <time>2011-05-01T09:17:57Z</time>
      </trkpt>
      <trkpt lat="43.60549" lon="3.01027">
        <ele>748.04</ele>
        <time>2011-05-01T09:18:09Z</time>
      </trkpt>
      <trkpt lat="43.6056" lon="3.01037">
        <ele>749</ele>
        <time>2011-05-01T09:18:23Z</time>
      </trkpt>
      <trkpt lat="43.60562" lon="3.01038">
        <ele>749.49</ele>
        <time>2011-05-01T09:18:36Z</time>
      </trkpt>
      <trkpt lat="43.60567" lon="3.01036">
        <ele>750.45</ele>
        <time>2011-05-01T09:18:53Z</time>
      </trkpt>
      <trkpt lat="43.60575" lon="3.01034">
        <ele>751.89</ele>
        <time>2011-05-01T09:19:04Z</time>
      </trkpt>
      <trkpt lat="43.60581" lon="3.01035">
        <ele>753.33</ele>
        <time>2011-05-01T09:19:15Z</time>
      </trkpt>
      <trkpt lat="43.60591" lon="3.0104">
        <ele>754.77</ele>
        <time>2011-05-01T09:19:27Z</time>
      </trkpt>
      <trkpt lat="43.60595" lon="3.01042">
        <ele>756.69</ele>
        <time>2011-05-01T09:19:42Z</time>
      </trkpt>
      <trkpt lat="43.60597" lon="3.01042">
        <ele>757.66</ele>
        <time>2011-05-01T09:19:56Z</time>
      </trkpt>
      <trkpt lat="43.60602" lon="3.01042">
        <ele>759.1</ele>
        <time>2011-05-01T09:20:07Z</time>
      </trkpt>
      <trkpt lat="43.60607" lon="3.0104">
        <ele>759.58</ele>
        <time>2011-05-01T09:20:22Z</time>
      </trkpt>
      <trkpt lat="43.60615" lon="3.01039">
        <ele>761.98</ele>
        <time>2011-05-01T09:20:34Z</time>
      </trkpt>
      <trkpt lat="43.60617" lon="3.01039">
        <ele>762.94</ele>
        <time>2011-05-01T09:20:49Z</time>
      </trkpt>
      <trkpt lat="43.6062" lon="3.01041">
        <ele>763.9</ele>
        <time>2011-05-01T09:21:00Z</time>
      </trkpt>
      <trkpt lat="43.60626" lon="3.01038">
        <ele>765.35</ele>
        <time>2011-05-01T09:21:13Z</time>
      </trkpt>
      <trkpt lat="43.60635" lon="3.01031">
        <ele>765.83</ele>
        <time>2011-05-01T09:21:26Z</time>
      </trkpt>
      <trkpt lat="43.60636" lon="3.0103">
        <ele>766.31</ele>
        <time>2011-05-01T09:21:41Z</time>
      </trkpt>
      <trkpt lat="43.60637" lon="3.01028">
        <ele>766.79</ele>
        <time>2011-05-01T09:21:57Z</time>
      </trkpt>
      <trkpt lat="43.60637" lon="3.01028">
        <ele>767.27</ele>
        <time>2011-05-01T09:22:15Z</time>
      </trkpt>
      <trkpt lat="43.6064" lon="3.01024">
        <ele>768.23</ele>
        <time>2011-05-01T09:22:31Z</time>
      </trkpt>
      <trkpt lat="43.60642" lon="3.01023">
        <ele>768.23</ele>
        <time>2011-05-01T09:22:43Z</time>
      </trkpt>
      <trkpt lat="43.60645" lon="3.01023">
        <ele>768.71</ele>
        <time>2011-05-01T09:22:58Z</time>
      </trkpt>
      <trkpt lat="43.60651" lon="3.01013">
        <ele>770.15</ele>
        <time>2011-05-01T09:23:15Z</time>
      </trkpt>
      <trkpt lat="43.60654" lon="3.01011">
        <ele>772.08</ele>
        <time>2011-05-01T09:23:26Z</time>
      </trkpt>
      <trkpt lat="43.60655" lon="3.01011">
        <ele>773.04</ele>
        <time>2011-05-01T09:23:40Z</time>
      </trkpt>
      <trkpt lat="43.60655" lon="3.01011">
        <ele>772.56</ele>
        <time>2011-05-01T09:23:53Z</time>
      </trkpt>
      <trkpt lat="43.60655" lon="3.01011">
        <ele>772.56</ele>
        <time>2011-05-01T09:24:13Z</time>
      </trkpt>
      <trkpt lat="43.60655" lon="3.01011">
        <ele>773.52</ele>
        <time>2011-05-01T09:24:42Z</time>
      </trkpt>
      <trkpt lat="43.60655" lon="3.01011">
        <ele>773.52</ele>
        <time>2011-05-01T09:25:04Z</time>
      </trkpt>
      <trkpt lat="43.60655" lon="3.01011">
        <ele>774.48</ele>
        <time>2011-05-01T09:25:32Z</time>
      </trkpt>
      <trkpt lat="43.60656" lon="3.0101">
        <ele>774.48</ele>
        <time>2011-05-01T09:25:51Z</time>
      </trkpt>
      <trkpt lat="43.60656" lon="3.0101">
        <ele>770.15</ele>
        <time>2011-05-01T09:26:01Z</time>
      </trkpt>
      <trkpt lat="43.60656" lon="3.0101">
        <ele>783.13</ele>
        <time>2011-05-01T09:26:02Z</time>
      </trkpt>
      <trkpt lat="43.60656" lon="3.0101">
        <ele>772.08</ele>
        <time>2011-05-01T09:26:03Z</time>
      </trkpt>
      <trkpt lat="43.60656" lon="3.0101">
        <ele>779.29</ele>
        <time>2011-05-01T09:26:04Z</time>
      </trkpt>
      <trkpt lat="43.60656" lon="3.0101">
        <ele>774.48</ele>
        <time>2011-05-01T09:26:05Z</time>
      </trkpt>
      <trkpt lat="43.60656" lon="3.0101">
        <ele>774</ele>
        <time>2011-05-01T09:26:29Z</time>
      </trkpt>
      <trkpt lat="43.60657" lon="3.01008">
        <ele>774</ele>
        <time>2011-05-01T09:26:49Z</time>
      </trkpt>
      <trkpt lat="43.60658" lon="3.01008">
        <ele>774</ele>
        <time>2011-05-01T09:27:01Z</time>
      </trkpt>
      <trkpt lat="43.60659" lon="3.01007">
        <ele>775.92</ele>
        <time>2011-05-01T09:27:14Z</time>
      </trkpt>
      <trkpt lat="43.60665" lon="3.01001">
        <ele>778.32</ele>
        <time>2011-05-01T09:27:28Z</time>
      </trkpt>
      <trkpt lat="43.6067" lon="3.00995">
        <ele>780.73</ele>
        <time>2011-05-01T09:27:38Z</time>
      </trkpt>
      <trkpt lat="43.60673" lon="3.0099">
        <ele>783.13</ele>
        <time>2011-05-01T09:27:47Z</time>
      </trkpt>
      <trkpt lat="43.60674" lon="3.00988">
        <ele>782.17</ele>
        <time>2011-05-01T09:27:49Z</time>
      </trkpt>
      <trkpt lat="43.60675" lon="3.00987">
        <ele>786.02</ele>
        <time>2011-05-01T09:27:52Z</time>
      </trkpt>
      <trkpt lat="43.60677" lon="3.00985">
        <ele>789.38</ele>
        <time>2011-05-01T09:27:57Z</time>
      </trkpt>
      <trkpt lat="43.60677" lon="3.00985">
        <ele>788.42</ele>
        <time>2011-05-01T09:27:58Z</time>
      </trkpt>
      <trkpt lat="43.6068" lon="3.0098">
        <ele>790.34</ele>
        <time>2011-05-01T09:28:10Z</time>
      </trkpt>
      <trkpt lat="43.60682" lon="3.0098">
        <ele>787.94</ele>
        <time>2011-05-01T09:28:20Z</time>
      </trkpt>
      <trkpt lat="43.60682" lon="3.00978">
        <ele>788.9</ele>
        <time>2011-05-01T09:28:25Z</time>
      </trkpt>
      <trkpt lat="43.60682" lon="3.00977">
        <ele>788.9</ele>
        <time>2011-05-01T09:28:41Z</time>
      </trkpt>
      <trkpt lat="43.60685" lon="3.0098">
        <ele>789.86</ele>
        <time>2011-05-01T09:29:02Z</time>
      </trkpt>
      <trkpt lat="43.6069" lon="3.00987">
        <ele>790.34</ele>
        <time>2011-05-01T09:29:14Z</time>
      </trkpt>
      <trkpt lat="43.60696" lon="3.00998">
        <ele>791.3</ele>
        <time>2011-05-01T09:29:29Z</time>
      </trkpt>
      <trkpt lat="43.60699" lon="3.01006">
        <ele>792.74</ele>
        <time>2011-05-01T09:29:40Z</time>
      </trkpt>
      <trkpt lat="43.607" lon="3.01009">
        <ele>792.74</ele>
        <time>2011-05-01T09:29:55Z</time>
      </trkpt>
      <trkpt lat="43.60702" lon="3.01015">
        <ele>795.15</ele>
        <time>2011-05-01T09:30:11Z</time>
      </trkpt>
      <trkpt lat="43.60704" lon="3.0102">
        <ele>797.07</ele>
        <time>2011-05-01T09:30:25Z</time>
      </trkpt>
      <trkpt lat="43.60706" lon="3.0102">
        <ele>797.55</ele>
        <time>2011-05-01T09:30:41Z</time>
      </trkpt>
      <trkpt lat="43.60707" lon="3.01017">
        <ele>798.51</ele>
        <time>2011-05-01T09:30:54Z</time>
      </trkpt>
      <trkpt lat="43.6071" lon="3.01017">
        <ele>798.99</ele>
        <time>2011-05-01T09:31:09Z</time>
      </trkpt>
      <trkpt lat="43.60712" lon="3.01016">
        <ele>800.92</ele>
        <time>2011-05-01T09:31:21Z</time>
      </trkpt>
      <trkpt lat="43.60715" lon="3.01012">
        <ele>801.88</ele>
        <time>2011-05-01T09:31:35Z</time>
      </trkpt>
      <trkpt lat="43.60718" lon="3.01007">
        <ele>803.8</ele>
        <time>2011-05-01T09:31:45Z</time>
      </trkpt>
      <trkpt lat="43.60718" lon="3.01007">
        <ele>803.8</ele>
        <time>2011-05-01T09:32:06Z</time>
      </trkpt>
      <trkpt lat="43.60719" lon="3.01007">
        <ele>803.32</ele>
        <time>2011-05-01T09:32:28Z</time>
      </trkpt>
      <trkpt lat="43.60719" lon="3.01006">
        <ele>803.8</ele>
        <time>2011-05-01T09:32:50Z</time>
      </trkpt>
      <trkpt lat="43.6072" lon="3.01006">
        <ele>803.8</ele>
        <time>2011-05-01T09:33:11Z</time>
      </trkpt>
      <trkpt lat="43.60723" lon="3.01007">
        <ele>804.76</ele>
        <time>2011-05-01T09:33:26Z</time>
      </trkpt>
      <trkpt lat="43.60726" lon="3.01007">
        <ele>806.2</ele>
        <time>2011-05-01T09:33:36Z</time>
      </trkpt>
      <trkpt lat="43.60729" lon="3.01006">
        <ele>807.64</ele>
        <time>2011-05-01T09:33:49Z</time>
      </trkpt>
      <trkpt lat="43.60733" lon="3.01004">
        <ele>809.57</ele>
        <time>2011-05-01T09:34:04Z</time>
      </trkpt>
      <trkpt lat="43.60739" lon="3.01003">
        <ele>811.49</ele>
        <time>2011-05-01T09:34:16Z</time>
      </trkpt>
      <trkpt lat="43.60742" lon="3.01004">
        <ele>812.45</ele>
        <time>2011-05-01T09:34:30Z</time>
      </trkpt>
      <trkpt lat="43.60744" lon="3.01007">
        <ele>813.89</ele>
        <time>2011-05-01T09:34:41Z</time>
      </trkpt>
      <trkpt lat="43.60746" lon="3.01006">
        <ele>814.85</ele>
        <time>2011-05-01T09:34:52Z</time>
      </trkpt>
      <trkpt lat="43.60749" lon="3.00999">
        <ele>814.37</ele>
        <time>2011-05-01T09:35:04Z</time>
      </trkpt>
      <trkpt lat="43.60753" lon="3.00993">
        <ele>817.26</ele>
        <time>2011-05-01T09:35:14Z</time>
      </trkpt>
      <trkpt lat="43.60756" lon="3.00992">
        <ele>818.22</ele>
        <time>2011-05-01T09:35:26Z</time>
      </trkpt>
      <trkpt lat="43.60756" lon="3.00992">
        <ele>817.74</ele>
        <time>2011-05-01T09:35:28Z</time>
      </trkpt>
      <trkpt lat="43.60756" lon="3.00992">
        <ele>818.7</ele>
        <time>2011-05-01T09:35:30Z</time>
      </trkpt>
      <trkpt lat="43.60756" lon="3.00991">
        <ele>819.66</ele>
        <time>2011-05-01T09:35:44Z</time>
      </trkpt>
      <trkpt lat="43.60757" lon="3.00991">
        <ele>819.18</ele>
        <time>2011-05-01T09:35:56Z</time>
      </trkpt>
      <trkpt lat="43.6076" lon="3.0099">
        <ele>818.7</ele>
        <time>2011-05-01T09:36:08Z</time>
      </trkpt>
      <trkpt lat="43.60763" lon="3.00988">
        <ele>819.18</ele>
        <time>2011-05-01T09:36:23Z</time>
      </trkpt>
      <trkpt lat="43.60769" lon="3.00989">
        <ele>821.1</ele>
        <time>2011-05-01T09:36:38Z</time>
      </trkpt>
      <trkpt lat="43.60775" lon="3.00989">
        <ele>821.58</ele>
        <time>2011-05-01T09:36:50Z</time>
      </trkpt>
      <trkpt lat="43.60777" lon="3.00988">
        <ele>823.03</ele>
        <time>2011-05-01T09:36:55Z</time>
      </trkpt>
      <trkpt lat="43.60781" lon="3.00986">
        <ele>822.55</ele>
        <time>2011-05-01T09:37:07Z</time>
      </trkpt>
      <trkpt lat="43.60784" lon="3.00985">
        <ele>824.47</ele>
        <time>2011-05-01T09:37:17Z</time>
      </trkpt>
      <trkpt lat="43.60788" lon="3.00984">
        <ele>823.99</ele>
        <time>2011-05-01T09:37:33Z</time>
      </trkpt>
      <trkpt lat="43.60791" lon="3.00984">
        <ele>824.95</ele>
        <time>2011-05-01T09:37:43Z</time>
      </trkpt>
      <trkpt lat="43.60794" lon="3.0098">
        <ele>824.95</ele>
        <time>2011-05-01T09:37:54Z</time>
      </trkpt>
      <trkpt lat="43.608" lon="3.00977">
        <ele>825.43</ele>
        <time>2011-05-01T09:38:09Z</time>
      </trkpt>
      <trkpt lat="43.60799" lon="3.00977">
        <ele>825.91</ele>
        <time>2011-05-01T09:38:23Z</time>
      </trkpt>
      <trkpt lat="43.60798" lon="3.00978">
        <ele>825.43</ele>
        <time>2011-05-01T09:38:40Z</time>
      </trkpt>
      <trkpt lat="43.60803" lon="3.00982">
        <ele>825.91</ele>
        <time>2011-05-01T09:38:52Z</time>
      </trkpt>
      <trkpt lat="43.60808" lon="3.00989">
        <ele>825.43</ele>
        <time>2011-05-01T09:39:09Z</time>
      </trkpt>
      <trkpt lat="43.60818" lon="3.00995">
        <ele>825.91</ele>
        <time>2011-05-01T09:39:23Z</time>
      </trkpt>
      <trkpt lat="43.60818" lon="3.00996">
        <ele>825.91</ele>
        <time>2011-05-01T09:39:31Z</time>
      </trkpt>
      <trkpt lat="43.60821" lon="3.00996">
        <ele>825.43</ele>
        <time>2011-05-01T09:39:35Z</time>
      </trkpt>
      <trkpt lat="43.60833" lon="3.00995">
        <ele>824.47</ele>
        <time>2011-05-01T09:39:50Z</time>
      </trkpt>
      <trkpt lat="43.60836" lon="3.00996">
        <ele>823.99</ele>
        <time>2011-05-01T09:40:04Z</time>
      </trkpt>
      <trkpt lat="43.60838" lon="3.00994">
        <ele>823.51</ele>
        <time>2011-05-01T09:40:18Z</time>
      </trkpt>
      <trkpt lat="43.60838" lon="3.00991">
        <ele>823.99</ele>
        <time>2011-05-01T09:40:30Z</time>
      </trkpt>
      <trkpt lat="43.60838" lon="3.00991">
        <ele>823.99</ele>
        <time>2011-05-01T09:40:44Z</time>
      </trkpt>
      <trkpt lat="43.60843" lon="3.00992">
        <ele>823.03</ele>
        <time>2011-05-01T09:40:57Z</time>
      </trkpt>
      <trkpt lat="43.60847" lon="3.00991">
        <ele>822.55</ele>
        <time>2011-05-01T09:41:11Z</time>
      </trkpt>
      <trkpt lat="43.60853" lon="3.00989">
        <ele>822.06</ele>
        <time>2011-05-01T09:41:19Z</time>
      </trkpt>
      <trkpt lat="43.60863" lon="3.0099">
        <ele>821.58</ele>
        <time>2011-05-01T09:41:32Z</time>
      </trkpt>
      <trkpt lat="43.60866" lon="3.00991">
        <ele>822.06</ele>
        <time>2011-05-01T09:41:35Z</time>
      </trkpt>
      <trkpt lat="43.60868" lon="3.00991">
        <ele>821.58</ele>
        <time>2011-05-01T09:41:37Z</time>
      </trkpt>
      <trkpt lat="43.60875" lon="3.00989">
        <ele>821.58</ele>
        <time>2011-05-01T09:41:44Z</time>
      </trkpt>
      <trkpt lat="43.60883" lon="3.00988">
        <ele>822.06</ele>
        <time>2011-05-01T09:41:58Z</time>
      </trkpt>
      <trkpt lat="43.60884" lon="3.00988">
        <ele>822.06</ele>
        <time>2011-05-01T09:42:01Z</time>
      </trkpt>
      <trkpt lat="43.60886" lon="3.00986">
        <ele>821.58</ele>
        <time>2011-05-01T09:42:03Z</time>
      </trkpt>
      <trkpt lat="43.609" lon="3.00982">
        <ele>821.58</ele>
        <time>2011-05-01T09:42:17Z</time>
      </trkpt>
      <trkpt lat="43.60903" lon="3.00982">
        <ele>821.1</ele>
        <time>2011-05-01T09:42:22Z</time>
      </trkpt>
      <trkpt lat="43.60912" lon="3.00981">
        <ele>821.58</ele>
        <time>2011-05-01T09:42:32Z</time>
      </trkpt>
      <trkpt lat="43.60917" lon="3.00984">
        <ele>820.62</ele>
        <time>2011-05-01T09:42:45Z</time>
      </trkpt>
      <trkpt lat="43.60917" lon="3.00984">
        <ele>820.14</ele>
        <time>2011-05-01T09:43:08Z</time>
      </trkpt>
      <trkpt lat="43.6092" lon="3.00983">
        <ele>821.1</ele>
        <time>2011-05-01T09:43:27Z</time>
      </trkpt>
      <trkpt lat="43.60924" lon="3.00985">
        <ele>820.62</ele>
        <time>2011-05-01T09:43:38Z</time>
      </trkpt>
      <trkpt lat="43.60925" lon="3.00984">
        <ele>820.14</ele>
        <time>2011-05-01T09:43:51Z</time>
      </trkpt>
      <trkpt lat="43.60929" lon="3.00984">
        <ele>819.66</ele>
        <time>2011-05-01T09:43:55Z</time>
      </trkpt>
      <trkpt lat="43.60931" lon="3.00984">
        <ele>819.66</ele>
        <time>2011-05-01T09:43:57Z</time>
      </trkpt>
      <trkpt lat="43.60938" lon="3.00987">
        <ele>818.22</ele>
        <time>2011-05-01T09:44:08Z</time>
      </trkpt>
      <trkpt lat="43.60945" lon="3.00988">
        <ele>816.78</ele>
        <time>2011-05-01T09:44:19Z</time>
      </trkpt>
      <trkpt lat="43.60953" lon="3.00992">
        <ele>816.3</ele>
        <time>2011-05-01T09:44:31Z</time>
      </trkpt>
      <trkpt lat="43.60956" lon="3.00994">
        <ele>816.3</ele>
        <time>2011-05-01T09:44:42Z</time>
      </trkpt>
      <trkpt lat="43.60959" lon="3.00997">
        <ele>815.82</ele>
        <time>2011-05-01T09:44:57Z</time>
      </trkpt>
      <trkpt lat="43.60959" lon="3.00998">
        <ele>816.3</ele>
        <time>2011-05-01T09:45:26Z</time>
      </trkpt>
      <trkpt lat="43.60958" lon="3.00998">
        <ele>816.3</ele>
        <time>2011-05-01T09:45:46Z</time>
      </trkpt>
      <trkpt lat="43.60961" lon="3.00996">
        <ele>815.82</ele>
        <time>2011-05-01T09:46:01Z</time>
      </trkpt>
      <trkpt lat="43.6097" lon="3.00997">
        <ele>814.85</ele>
        <time>2011-05-01T09:46:12Z</time>
      </trkpt>
      <trkpt lat="43.6098" lon="3.00999">
        <ele>814.37</ele>
        <time>2011-05-01T09:46:27Z</time>
      </trkpt>
      <trkpt lat="43.60994" lon="3.01003">
        <ele>813.41</ele>
        <time>2011-05-01T09:46:43Z</time>
      </trkpt>
      <trkpt lat="43.61" lon="3.01005">
        <ele>813.89</ele>
        <time>2011-05-01T09:46:49Z</time>
      </trkpt>
      <trkpt lat="43.61005" lon="3.01015">
        <ele>815.82</ele>
        <time>2011-05-01T09:47:02Z</time>
      </trkpt>
      <trkpt lat="43.61009" lon="3.01021">
        <ele>816.78</ele>
        <time>2011-05-01T09:47:14Z</time>
      </trkpt>
      <trkpt lat="43.61012" lon="3.01024">
        <ele>817.26</ele>
        <time>2011-05-01T09:47:20Z</time>
      </trkpt>
      <trkpt lat="43.61022" lon="3.01028">
        <ele>818.7</ele>
        <time>2011-05-01T09:47:33Z</time>
      </trkpt>
      <trkpt lat="43.61024" lon="3.01029">
        <ele>818.22</ele>
        <time>2011-05-01T09:47:36Z</time>
      </trkpt>
      <trkpt lat="43.61031" lon="3.01037">
        <ele>819.66</ele>
        <time>2011-05-01T09:47:48Z</time>
      </trkpt>
      <trkpt lat="43.61036" lon="3.01047">
        <ele>820.62</ele>
        <time>2011-05-01T09:48:00Z</time>
      </trkpt>
      <trkpt lat="43.61042" lon="3.01052">
        <ele>822.55</ele>
        <time>2011-05-01T09:48:12Z</time>
      </trkpt>
      <trkpt lat="43.61043" lon="3.01052">
        <ele>821.58</ele>
        <time>2011-05-01T09:48:16Z</time>
      </trkpt>
      <trkpt lat="43.61048" lon="3.0106">
        <ele>822.55</ele>
        <time>2011-05-01T09:48:28Z</time>
      </trkpt>
      <trkpt lat="43.61049" lon="3.01066">
        <ele>823.99</ele>
        <time>2011-05-01T09:48:43Z</time>
      </trkpt>
      <trkpt lat="43.61053" lon="3.01069">
        <ele>825.91</ele>
        <time>2011-05-01T09:48:56Z</time>
      </trkpt>
      <trkpt lat="43.6106" lon="3.01068">
        <ele>825.91</ele>
        <time>2011-05-01T09:49:08Z</time>
      </trkpt>
      <trkpt lat="43.61069" lon="3.01063">
        <ele>825.91</ele>
        <time>2011-05-01T09:49:19Z</time>
      </trkpt>
      <trkpt lat="43.61074" lon="3.0106">
        <ele>824.95</ele>
        <time>2011-05-01T09:49:24Z</time>
      </trkpt>
      <trkpt lat="43.61085" lon="3.01056">
        <ele>825.91</ele>
        <time>2011-05-01T09:49:38Z</time>
      </trkpt>
      <trkpt lat="43.61088" lon="3.01058">
        <ele>827.35</ele>
        <time>2011-05-01T09:49:52Z</time>
      </trkpt>
      <trkpt lat="43.61092" lon="3.01061">
        <ele>828.31</ele>
        <time>2011-05-01T09:50:03Z</time>
      </trkpt>
      <trkpt lat="43.61096" lon="3.01069">
        <ele>829.76</ele>
        <time>2011-05-01T09:50:17Z</time>
      </trkpt>
      <trkpt lat="43.61096" lon="3.01075">
        <ele>830.72</ele>
        <time>2011-05-01T09:50:31Z</time>
      </trkpt>
      <trkpt lat="43.61096" lon="3.01085">
        <ele>832.16</ele>
        <time>2011-05-01T09:50:42Z</time>
      </trkpt>
      <trkpt lat="43.61095" lon="3.01089">
        <ele>832.64</ele>
        <time>2011-05-01T09:50:54Z</time>
      </trkpt>
      <trkpt lat="43.61098" lon="3.01095">
        <ele>833.12</ele>
        <time>2011-05-01T09:51:04Z</time>
      </trkpt>
      <trkpt lat="43.61099" lon="3.01097">
        <ele>834.08</ele>
        <time>2011-05-01T09:51:11Z</time>
      </trkpt>
      <trkpt lat="43.611" lon="3.011">
        <ele>834.08</ele>
        <time>2011-05-01T09:51:16Z</time>
      </trkpt>
      <trkpt lat="43.61102" lon="3.01103">
        <ele>835.04</ele>
        <time>2011-05-01T09:51:27Z</time>
      </trkpt>
      <trkpt lat="43.61104" lon="3.01105">
        <ele>835.04</ele>
        <time>2011-05-01T09:51:39Z</time>
      </trkpt>
      <trkpt lat="43.61104" lon="3.01108">
        <ele>836</ele>
        <time>2011-05-01T09:51:49Z</time>
      </trkpt>
      <trkpt lat="43.61105" lon="3.01111">
        <ele>836</ele>
        <time>2011-05-01T09:52:02Z</time>
      </trkpt>
      <trkpt lat="43.61105" lon="3.01115">
        <ele>836</ele>
        <time>2011-05-01T09:52:06Z</time>
      </trkpt>
      <trkpt lat="43.61105" lon="3.0112">
        <ele>836.96</ele>
        <time>2011-05-01T09:52:11Z</time>
      </trkpt>
      <trkpt lat="43.61111" lon="3.01127">
        <ele>836.96</ele>
        <time>2011-05-01T09:52:20Z</time>
      </trkpt>
      <trkpt lat="43.61118" lon="3.01134">
        <ele>836.48</ele>
        <time>2011-05-01T09:52:33Z</time>
      </trkpt>
      <trkpt lat="43.61124" lon="3.01138">
        <ele>836</ele>
        <time>2011-05-01T09:52:46Z</time>
      </trkpt>
      <trkpt lat="43.61125" lon="3.01141">
        <ele>836.96</ele>
        <time>2011-05-01T09:52:56Z</time>
      </trkpt>
      <trkpt lat="43.61122" lon="3.0115">
        <ele>838.41</ele>
        <time>2011-05-01T09:53:08Z</time>
      </trkpt>
      <trkpt lat="43.61123" lon="3.01157">
        <ele>840.81</ele>
        <time>2011-05-01T09:53:19Z</time>
      </trkpt>
      <trkpt lat="43.61126" lon="3.01159">
        <ele>841.29</ele>
        <time>2011-05-01T09:53:32Z</time>
      </trkpt>
      <trkpt lat="43.6113" lon="3.01163">
        <ele>841.77</ele>
        <time>2011-05-01T09:53:43Z</time>
      </trkpt>
      <trkpt lat="43.61134" lon="3.01164">
        <ele>841.29</ele>
        <time>2011-05-01T09:53:55Z</time>
      </trkpt>
      <trkpt lat="43.61139" lon="3.01163">
        <ele>841.77</ele>
        <time>2011-05-01T09:54:01Z</time>
      </trkpt>
      <trkpt lat="43.61153" lon="3.01162">
        <ele>840.33</ele>
        <time>2011-05-01T09:54:14Z</time>
      </trkpt>
      <trkpt lat="43.61165" lon="3.01159">
        <ele>840.33</ele>
        <time>2011-05-01T09:54:26Z</time>
      </trkpt>
      <trkpt lat="43.61175" lon="3.01159">
        <ele>839.85</ele>
        <time>2011-05-01T09:54:39Z</time>
      </trkpt>
      <trkpt lat="43.61179" lon="3.01153">
        <ele>838.41</ele>
        <time>2011-05-01T09:54:51Z</time>
      </trkpt>
      <trkpt lat="43.6118" lon="3.01153">
        <ele>838.89</ele>
        <time>2011-05-01T09:54:52Z</time>
      </trkpt>
      <trkpt lat="43.61182" lon="3.01146">
        <ele>837.93</ele>
        <time>2011-05-01T09:54:56Z</time>
      </trkpt>
      <trkpt lat="43.61189" lon="3.01138">
        <ele>836.96</ele>
        <time>2011-05-01T09:55:09Z</time>
      </trkpt>
      <trkpt lat="43.61193" lon="3.0113">
        <ele>835.52</ele>
        <time>2011-05-01T09:55:21Z</time>
      </trkpt>
      <trkpt lat="43.61198" lon="3.01119">
        <ele>834.56</ele>
        <time>2011-05-01T09:55:30Z</time>
      </trkpt>
      <trkpt lat="43.612" lon="3.01114">
        <ele>833.12</ele>
        <time>2011-05-01T09:55:36Z</time>
      </trkpt>
      <trkpt lat="43.61206" lon="3.011">
        <ele>832.16</ele>
        <time>2011-05-01T09:55:47Z</time>
      </trkpt>
      <trkpt lat="43.61214" lon="3.01086">
        <ele>831.2</ele>
        <time>2011-05-01T09:56:00Z</time>
      </trkpt>
      <trkpt lat="43.61216" lon="3.01084">
        <ele>830.24</ele>
        <time>2011-05-01T09:56:04Z</time>
      </trkpt>
      <trkpt lat="43.61224" lon="3.01068">
        <ele>829.27</ele>
        <time>2011-05-01T09:56:18Z</time>
      </trkpt>
      <trkpt lat="43.6123" lon="3.01061">
        <ele>828.31</ele>
        <time>2011-05-01T09:56:24Z</time>
      </trkpt>
      <trkpt lat="43.61235" lon="3.01056">
        <ele>828.31</ele>
        <time>2011-05-01T09:56:29Z</time>
      </trkpt>
      <trkpt lat="43.61248" lon="3.01048">
        <ele>828.31</ele>
        <time>2011-05-01T09:56:42Z</time>
      </trkpt>
      <trkpt lat="43.61256" lon="3.01043">
        <ele>827.83</ele>
        <time>2011-05-01T09:56:50Z</time>
      </trkpt>
      <trkpt lat="43.61258" lon="3.01039">
        <ele>827.35</ele>
        <time>2011-05-01T09:56:54Z</time>
      </trkpt>
      <trkpt lat="43.61266" lon="3.01031">
        <ele>826.87</ele>
        <time>2011-05-01T09:57:02Z</time>
      </trkpt>
      <trkpt lat="43.61278" lon="3.01018">
        <ele>825.91</ele>
        <time>2011-05-01T09:57:15Z</time>
      </trkpt>
      <trkpt lat="43.6129" lon="3.01008">
        <ele>825.91</ele>
        <time>2011-05-01T09:57:27Z</time>
      </trkpt>
      <trkpt lat="43.61296" lon="3.01005">
        <ele>826.39</ele>
        <time>2011-05-01T09:57:32Z</time>
      </trkpt>
      <trkpt lat="43.61307" lon="3.00992">
        <ele>825.43</ele>
        <time>2011-05-01T09:57:45Z</time>
      </trkpt>
      <trkpt lat="43.61311" lon="3.00988">
        <ele>825.91</ele>
        <time>2011-05-01T09:57:50Z</time>
      </trkpt>
      <trkpt lat="43.61313" lon="3.00987">
        <ele>825.43</ele>
        <time>2011-05-01T09:57:52Z</time>
      </trkpt>
      <trkpt lat="43.61319" lon="3.00974">
        <ele>824.95</ele>
        <time>2011-05-01T09:58:04Z</time>
      </trkpt>
      <trkpt lat="43.61321" lon="3.0097">
        <ele>824.47</ele>
        <time>2011-05-01T09:58:17Z</time>
      </trkpt>
      <trkpt lat="43.61321" lon="3.00969">
        <ele>824.47</ele>
        <time>2011-05-01T09:58:18Z</time>
      </trkpt>
      <trkpt lat="43.61323" lon="3.00967">
        <ele>823.99</ele>
        <time>2011-05-01T09:58:20Z</time>
      </trkpt>
      <trkpt lat="43.6133" lon="3.00965">
        <ele>825.43</ele>
        <time>2011-05-01T09:58:27Z</time>
      </trkpt>
      <trkpt lat="43.61341" lon="3.00964">
        <ele>826.39</ele>
        <time>2011-05-01T09:58:42Z</time>
      </trkpt>
      <trkpt lat="43.61349" lon="3.00963">
        <ele>826.39</ele>
        <time>2011-05-01T09:58:55Z</time>
      </trkpt>
      <trkpt lat="43.61351" lon="3.00958">
        <ele>826.39</ele>
        <time>2011-05-01T09:59:02Z</time>
      </trkpt>
      <trkpt lat="43.61361" lon="3.00948">
        <ele>825.43</ele>
        <time>2011-05-01T09:59:10Z</time>
      </trkpt>
      <trkpt lat="43.61377" lon="3.00935">
        <ele>823.51</ele>
        <time>2011-05-01T09:59:23Z</time>
      </trkpt>
      <trkpt lat="43.61388" lon="3.00929">
        <ele>821.58</ele>
        <time>2011-05-01T09:59:30Z</time>
      </trkpt>
      <trkpt lat="43.61394" lon="3.00924">
        <ele>820.62</ele>
        <time>2011-05-01T09:59:35Z</time>
      </trkpt>
      <trkpt lat="43.61406" lon="3.00911">
        <ele>819.66</ele>
        <time>2011-05-01T09:59:47Z</time>
      </trkpt>
      <trkpt lat="43.61413" lon="3.00894">
        <ele>818.22</ele>
        <time>2011-05-01T09:59:59Z</time>
      </trkpt>
      <trkpt lat="43.61424" lon="3.00876">
        <ele>816.78</ele>
        <time>2011-05-01T10:00:11Z</time>
      </trkpt>
      <trkpt lat="43.61427" lon="3.00868">
        <ele>816.3</ele>
        <time>2011-05-01T10:00:16Z</time>
      </trkpt>
      <trkpt lat="43.6143" lon="3.00863">
        <ele>815.82</ele>
        <time>2011-05-01T10:00:29Z</time>
      </trkpt>
      <trkpt lat="43.61432" lon="3.00863">
        <ele>815.82</ele>
        <time>2011-05-01T10:00:38Z</time>
      </trkpt>
      <trkpt lat="43.61434" lon="3.00868">
        <ele>815.34</ele>
        <time>2011-05-01T10:00:48Z</time>
      </trkpt>
      <trkpt lat="43.61433" lon="3.00872">
        <ele>815.34</ele>
        <time>2011-05-01T10:00:59Z</time>
      </trkpt>
      <trkpt lat="43.61433" lon="3.00874">
        <ele>815.82</ele>
        <time>2011-05-01T10:01:01Z</time>
      </trkpt>
      <trkpt lat="43.61433" lon="3.00877">
        <ele>815.82</ele>
        <time>2011-05-01T10:01:03Z</time>
      </trkpt>
      <trkpt lat="43.61431" lon="3.00883">
        <ele>815.82</ele>
        <time>2011-05-01T10:01:07Z</time>
      </trkpt>
      <trkpt lat="43.61428" lon="3.00901">
        <ele>815.82</ele>
        <time>2011-05-01T10:01:21Z</time>
      </trkpt>
      <trkpt lat="43.61427" lon="3.00906">
        <ele>816.3</ele>
        <time>2011-05-01T10:01:25Z</time>
      </trkpt>
      <trkpt lat="43.61427" lon="3.00915">
        <ele>816.3</ele>
        <time>2011-05-01T10:01:34Z</time>
      </trkpt>
      <trkpt lat="43.61426" lon="3.0092">
        <ele>816.78</ele>
        <time>2011-05-01T10:01:37Z</time>
      </trkpt>
      <trkpt lat="43.61424" lon="3.00925">
        <ele>815.82</ele>
        <time>2011-05-01T10:01:41Z</time>
      </trkpt>
      <trkpt lat="43.61428" lon="3.00945">
        <ele>815.82</ele>
        <time>2011-05-01T10:01:54Z</time>
      </trkpt>
      <trkpt lat="43.6143" lon="3.00952">
        <ele>815.82</ele>
        <time>2011-05-01T10:01:58Z</time>
      </trkpt>
      <trkpt lat="43.61432" lon="3.00969">
        <ele>816.3</ele>
        <time>2011-05-01T10:02:13Z</time>
      </trkpt>
      <trkpt lat="43.61436" lon="3.00976">
        <ele>816.3</ele>
        <time>2011-05-01T10:02:28Z</time>
      </trkpt>
      <trkpt lat="43.61443" lon="3.00996">
        <ele>816.78</ele>
        <time>2011-05-01T10:02:42Z</time>
      </trkpt>
      <trkpt lat="43.61449" lon="3.01012">
        <ele>816.78</ele>
        <time>2011-05-01T10:02:54Z</time>
      </trkpt>
      <trkpt lat="43.6145" lon="3.01015">
        <ele>816.78</ele>
        <time>2011-05-01T10:02:56Z</time>
      </trkpt>
      <trkpt lat="43.61452" lon="3.0102">
        <ele>816.3</ele>
        <time>2011-05-01T10:02:59Z</time>
      </trkpt>
      <trkpt lat="43.61453" lon="3.01028">
        <ele>817.26</ele>
        <time>2011-05-01T10:03:04Z</time>
      </trkpt>
      <trkpt lat="43.61454" lon="3.01031">
        <ele>816.3</ele>
        <time>2011-05-01T10:03:06Z</time>
      </trkpt>
      <trkpt lat="43.61455" lon="3.01036">
        <ele>816.78</ele>
        <time>2011-05-01T10:03:20Z</time>
      </trkpt>
      <trkpt lat="43.61456" lon="3.01041">
        <ele>816.78</ele>
        <time>2011-05-01T10:03:30Z</time>
      </trkpt>
      <trkpt lat="43.61457" lon="3.01053">
        <ele>816.78</ele>
        <time>2011-05-01T10:03:38Z</time>
      </trkpt>
      <trkpt lat="43.61461" lon="3.01067">
        <ele>816.78</ele>
        <time>2011-05-01T10:03:47Z</time>
      </trkpt>
      <trkpt lat="43.61463" lon="3.01076">
        <ele>816.3</ele>
        <time>2011-05-01T10:03:53Z</time>
      </trkpt>
      <trkpt lat="43.61465" lon="3.0108">
        <ele>816.78</ele>
        <time>2011-05-01T10:03:56Z</time>
      </trkpt>
      <trkpt lat="43.61472" lon="3.01093">
        <ele>816.3</ele>
        <time>2011-05-01T10:04:06Z</time>
      </trkpt>
      <trkpt lat="43.61474" lon="3.01095">
        <ele>815.34</ele>
        <time>2011-05-01T10:04:08Z</time>
      </trkpt>
      <trkpt lat="43.61483" lon="3.01113">
        <ele>815.82</ele>
        <time>2011-05-01T10:04:22Z</time>
      </trkpt>
      <trkpt lat="43.615" lon="3.01124">
        <ele>815.82</ele>
        <time>2011-05-01T10:04:38Z</time>
      </trkpt>
      <trkpt lat="43.61509" lon="3.01133">
        <ele>816.3</ele>
        <time>2011-05-01T10:04:50Z</time>
      </trkpt>
      <trkpt lat="43.61512" lon="3.01135">
        <ele>816.3</ele>
        <time>2011-05-01T10:04:54Z</time>
      </trkpt>
      <trkpt lat="43.61523" lon="3.01141">
        <ele>816.78</ele>
        <time>2011-05-01T10:05:05Z</time>
      </trkpt>
      <trkpt lat="43.61534" lon="3.01148">
        <ele>817.74</ele>
        <time>2011-05-01T10:05:15Z</time>
      </trkpt>
      <trkpt lat="43.61545" lon="3.01161">
        <ele>818.7</ele>
        <time>2011-05-01T10:05:29Z</time>
      </trkpt>
      <trkpt lat="43.61558" lon="3.01178">
        <ele>819.18</ele>
        <time>2011-05-01T10:05:44Z</time>
      </trkpt>
      <trkpt lat="43.61558" lon="3.01179">
        <ele>819.66</ele>
        <time>2011-05-01T10:05:45Z</time>
      </trkpt>
      <trkpt lat="43.61567" lon="3.01198">
        <ele>820.14</ele>
        <time>2011-05-01T10:06:00Z</time>
      </trkpt>
      <trkpt lat="43.61571" lon="3.01209">
        <ele>820.14</ele>
        <time>2011-05-01T10:06:09Z</time>
      </trkpt>
      <trkpt lat="43.61576" lon="3.01226">
        <ele>820.14</ele>
        <time>2011-05-01T10:06:20Z</time>
      </trkpt>
      <trkpt lat="43.61578" lon="3.01238">
        <ele>819.66</ele>
        <time>2011-05-01T10:06:28Z</time>
      </trkpt>
      <trkpt lat="43.61582" lon="3.01259">
        <ele>818.7</ele>
        <time>2011-05-01T10:06:42Z</time>
      </trkpt>
      <trkpt lat="43.61583" lon="3.01277">
        <ele>818.22</ele>
        <time>2011-05-01T10:06:53Z</time>
      </trkpt>
      <trkpt lat="43.61579" lon="3.01299">
        <ele>817.74</ele>
        <time>2011-05-01T10:07:08Z</time>
      </trkpt>
      <trkpt lat="43.61575" lon="3.01319">
        <ele>818.22</ele>
        <time>2011-05-01T10:07:21Z</time>
      </trkpt>
      <trkpt lat="43.61573" lon="3.0133">
        <ele>818.22</ele>
        <time>2011-05-01T10:07:28Z</time>
      </trkpt>
      <trkpt lat="43.61572" lon="3.01335">
        <ele>818.7</ele>
        <time>2011-05-01T10:07:32Z</time>
      </trkpt>
      <trkpt lat="43.61567" lon="3.01355">
        <ele>817.74</ele>
        <time>2011-05-01T10:07:46Z</time>
      </trkpt>
      <trkpt lat="43.61566" lon="3.01359">
        <ele>818.7</ele>
        <time>2011-05-01T10:07:48Z</time>
      </trkpt>
      <trkpt lat="43.61561" lon="3.01381">
        <ele>818.7</ele>
        <time>2011-05-01T10:08:03Z</time>
      </trkpt>
      <trkpt lat="43.6156" lon="3.01389">
        <ele>818.22</ele>
        <time>2011-05-01T10:08:15Z</time>
      </trkpt>
      <trkpt lat="43.6156" lon="3.01389">
        <ele>818.7</ele>
        <time>2011-05-01T10:08:18Z</time>
      </trkpt>
      <trkpt lat="43.6156" lon="3.01393">
        <ele>817.74</ele>
        <time>2011-05-01T10:08:20Z</time>
      </trkpt>
      <trkpt lat="43.61558" lon="3.0141">
        <ele>816.3</ele>
        <time>2011-05-01T10:08:30Z</time>
      </trkpt>
      <trkpt lat="43.61555" lon="3.01422">
        <ele>814.85</ele>
        <time>2011-05-01T10:08:37Z</time>
      </trkpt>
      <trkpt lat="43.61555" lon="3.01448">
        <ele>812.93</ele>
        <time>2011-05-01T10:08:52Z</time>
      </trkpt>
      <trkpt lat="43.61555" lon="3.0145">
        <ele>811.97</ele>
        <time>2011-05-01T10:08:54Z</time>
      </trkpt>
      <trkpt lat="43.61556" lon="3.01462">
        <ele>810.53</ele>
        <time>2011-05-01T10:09:01Z</time>
      </trkpt>
      <trkpt lat="43.61558" lon="3.01481">
        <ele>807.64</ele>
        <time>2011-05-01T10:09:14Z</time>
      </trkpt>
      <trkpt lat="43.61557" lon="3.01487">
        <ele>806.68</ele>
        <time>2011-05-01T10:09:22Z</time>
      </trkpt>
      <trkpt lat="43.61558" lon="3.01502">
        <ele>804.28</ele>
        <time>2011-05-01T10:09:35Z</time>
      </trkpt>
      <trkpt lat="43.6156" lon="3.01523">
        <ele>802.84</ele>
        <time>2011-05-01T10:09:48Z</time>
      </trkpt>
      <trkpt lat="43.61561" lon="3.01525">
        <ele>801.88</ele>
        <time>2011-05-01T10:09:50Z</time>
      </trkpt>
      <trkpt lat="43.61564" lon="3.01538">
        <ele>799.95</ele>
        <time>2011-05-01T10:10:00Z</time>
      </trkpt>
      <trkpt lat="43.61567" lon="3.01548">
        <ele>798.99</ele>
        <time>2011-05-01T10:10:07Z</time>
      </trkpt>
      <trkpt lat="43.61568" lon="3.01554">
        <ele>798.51</ele>
        <time>2011-05-01T10:10:13Z</time>
      </trkpt>
      <trkpt lat="43.6157" lon="3.01572">
        <ele>795.15</ele>
        <time>2011-05-01T10:10:27Z</time>
      </trkpt>
      <trkpt lat="43.61571" lon="3.0158">
        <ele>794.19</ele>
        <time>2011-05-01T10:10:32Z</time>
      </trkpt>
      <trkpt lat="43.6157" lon="3.016">
        <ele>790.82</ele>
        <time>2011-05-01T10:10:45Z</time>
      </trkpt>
      <trkpt lat="43.61569" lon="3.01619">
        <ele>788.9</ele>
        <time>2011-05-01T10:10:57Z</time>
      </trkpt>
      <trkpt lat="43.61569" lon="3.01627">
        <ele>787.94</ele>
        <time>2011-05-01T10:11:02Z</time>
      </trkpt>
      <trkpt lat="43.61569" lon="3.01633">
        <ele>787.46</ele>
        <time>2011-05-01T10:11:06Z</time>
      </trkpt>
      <trkpt lat="43.6157" lon="3.01651">
        <ele>785.53</ele>
        <time>2011-05-01T10:11:18Z</time>
      </trkpt>
      <trkpt lat="43.6157" lon="3.01658">
        <ele>784.57</ele>
        <time>2011-05-01T10:11:22Z</time>
      </trkpt>
      <trkpt lat="43.61571" lon="3.01663">
        <ele>783.13</ele>
        <time>2011-05-01T10:11:25Z</time>
      </trkpt>
      <trkpt lat="43.6157" lon="3.01668">
        <ele>782.17</ele>
        <time>2011-05-01T10:11:29Z</time>
      </trkpt>
      <trkpt lat="43.61571" lon="3.01671">
        <ele>781.69</ele>
        <time>2011-05-01T10:11:31Z</time>
      </trkpt>
      <trkpt lat="43.61571" lon="3.01674">
        <ele>781.21</ele>
        <time>2011-05-01T10:11:36Z</time>
      </trkpt>
      <trkpt lat="43.61572" lon="3.01676">
        <ele>780.73</ele>
        <time>2011-05-01T10:11:38Z</time>
      </trkpt>
      <trkpt lat="43.61571" lon="3.0168">
        <ele>780.73</ele>
        <time>2011-05-01T10:11:41Z</time>
      </trkpt>
      <trkpt lat="43.61572" lon="3.01687">
        <ele>779.29</ele>
        <time>2011-05-01T10:11:47Z</time>
      </trkpt>
      <trkpt lat="43.61573" lon="3.01704">
        <ele>775.92</ele>
        <time>2011-05-01T10:11:59Z</time>
      </trkpt>
      <trkpt lat="43.61574" lon="3.01719">
        <ele>773.52</ele>
        <time>2011-05-01T10:12:11Z</time>
      </trkpt>
      <trkpt lat="43.61575" lon="3.01723">
        <ele>773.04</ele>
        <time>2011-05-01T10:12:14Z</time>
      </trkpt>
      <trkpt lat="43.61576" lon="3.01734">
        <ele>771.11</ele>
        <time>2011-05-01T10:12:22Z</time>
      </trkpt>
      <trkpt lat="43.61575" lon="3.01737">
        <ele>770.63</ele>
        <time>2011-05-01T10:12:24Z</time>
      </trkpt>
      <trkpt lat="43.61576" lon="3.01742">
        <ele>769.67</ele>
        <time>2011-05-01T10:12:28Z</time>
      </trkpt>
      <trkpt lat="43.61577" lon="3.01748">
        <ele>769.19</ele>
        <time>2011-05-01T10:12:33Z</time>
      </trkpt>
      <trkpt lat="43.61578" lon="3.01756">
        <ele>767.75</ele>
        <time>2011-05-01T10:12:49Z</time>
      </trkpt>
      <trkpt lat="43.6158" lon="3.01758">
        <ele>767.27</ele>
        <time>2011-05-01T10:12:51Z</time>
      </trkpt>
      <trkpt lat="43.61581" lon="3.01763">
        <ele>765.35</ele>
        <time>2011-05-01T10:12:55Z</time>
      </trkpt>
      <trkpt lat="43.61582" lon="3.01764">
        <ele>765.35</ele>
        <time>2011-05-01T10:12:57Z</time>
      </trkpt>
      <trkpt lat="43.61583" lon="3.01767">
        <ele>764.87</ele>
        <time>2011-05-01T10:13:00Z</time>
      </trkpt>
      <trkpt lat="43.61587" lon="3.01776">
        <ele>762.94</ele>
        <time>2011-05-01T10:13:12Z</time>
      </trkpt>
      <trkpt lat="43.6159" lon="3.01781">
        <ele>761.02</ele>
        <time>2011-05-01T10:13:18Z</time>
      </trkpt>
      <trkpt lat="43.61596" lon="3.01786">
        <ele>759.58</ele>
        <time>2011-05-01T10:13:31Z</time>
      </trkpt>
      <trkpt lat="43.61596" lon="3.01787">
        <ele>759.1</ele>
        <time>2011-05-01T10:13:32Z</time>
      </trkpt>
      <trkpt lat="43.61604" lon="3.01796">
        <ele>757.18</ele>
        <time>2011-05-01T10:13:39Z</time>
      </trkpt>
      <trkpt lat="43.61612" lon="3.01811">
        <ele>755.25</ele>
        <time>2011-05-01T10:13:51Z</time>
      </trkpt>
      <trkpt lat="43.61619" lon="3.01824">
        <ele>752.37</ele>
        <time>2011-05-01T10:14:02Z</time>
      </trkpt>
      <trkpt lat="43.6162" lon="3.01826">
        <ele>752.37</ele>
        <time>2011-05-01T10:14:04Z</time>
      </trkpt>
      <trkpt lat="43.61622" lon="3.01834">
        <ele>751.41</ele>
        <time>2011-05-01T10:14:09Z</time>
      </trkpt>
      <trkpt lat="43.61627" lon="3.0185">
        <ele>749</ele>
        <time>2011-05-01T10:14:21Z</time>
      </trkpt>
      <trkpt lat="43.61635" lon="3.01864">
        <ele>747.08</ele>
        <time>2011-05-01T10:14:31Z</time>
      </trkpt>
      <trkpt lat="43.61637" lon="3.01869">
        <ele>746.12</ele>
        <time>2011-05-01T10:14:44Z</time>
      </trkpt>
      <trkpt lat="43.61637" lon="3.01869">
        <ele>746.12</ele>
        <time>2011-05-01T10:14:47Z</time>
      </trkpt>
      <trkpt lat="43.61637" lon="3.01869">
        <ele>746.6</ele>
        <time>2011-05-01T10:14:50Z</time>
      </trkpt>
      <trkpt lat="43.61641" lon="3.01878">
        <ele>744.68</ele>
        <time>2011-05-01T10:15:02Z</time>
      </trkpt>
      <trkpt lat="43.61641" lon="3.01878">
        <ele>744.2</ele>
        <time>2011-05-01T10:15:14Z</time>
      </trkpt>
      <trkpt lat="43.61643" lon="3.01879">
        <ele>743.72</ele>
        <time>2011-05-01T10:15:25Z</time>
      </trkpt>
      <trkpt lat="43.61646" lon="3.01882">
        <ele>742.28</ele>
        <time>2011-05-01T10:15:29Z</time>
      </trkpt>
      <trkpt lat="43.61648" lon="3.01883">
        <ele>742.28</ele>
        <time>2011-05-01T10:15:31Z</time>
      </trkpt>
      <trkpt lat="43.61654" lon="3.01907">
        <ele>739.39</ele>
        <time>2011-05-01T10:15:43Z</time>
      </trkpt>
      <trkpt lat="43.61652" lon="3.01912">
        <ele>739.39</ele>
        <time>2011-05-01T10:15:46Z</time>
      </trkpt>
      <trkpt lat="43.61653" lon="3.01919">
        <ele>738.91</ele>
        <time>2011-05-01T10:15:50Z</time>
      </trkpt>
      <trkpt lat="43.61656" lon="3.01938">
        <ele>735.55</ele>
        <time>2011-05-01T10:16:01Z</time>
      </trkpt>
      <trkpt lat="43.61655" lon="3.01956">
        <ele>732.66</ele>
        <time>2011-05-01T10:16:11Z</time>
      </trkpt>
      <trkpt lat="43.61654" lon="3.01975">
        <ele>729.3</ele>
        <time>2011-05-01T10:16:21Z</time>
      </trkpt>
      <trkpt lat="43.61652" lon="3.01981">
        <ele>728.82</ele>
        <time>2011-05-01T10:16:25Z</time>
      </trkpt>
      <trkpt lat="43.61651" lon="3.01985">
        <ele>728.34</ele>
        <time>2011-05-01T10:16:28Z</time>
      </trkpt>
      <trkpt lat="43.61647" lon="3.01995">
        <ele>725.93</ele>
        <time>2011-05-01T10:16:36Z</time>
      </trkpt>
      <trkpt lat="43.61645" lon="3.02001">
        <ele>724.97</ele>
        <time>2011-05-01T10:16:40Z</time>
      </trkpt>
      <trkpt lat="43.61643" lon="3.02014">
        <ele>723.05</ele>
        <time>2011-05-01T10:16:47Z</time>
      </trkpt>
      <trkpt lat="43.61632" lon="3.02022">
        <ele>721.61</ele>
        <time>2011-05-01T10:16:57Z</time>
      </trkpt>
      <trkpt lat="43.61611" lon="3.02016">
        <ele>720.16</ele>
        <time>2011-05-01T10:17:14Z</time>
      </trkpt>
      <trkpt lat="43.6161" lon="3.02016">
        <ele>720.16</ele>
        <time>2011-05-01T10:17:15Z</time>
      </trkpt>
      <trkpt lat="43.6161" lon="3.02014">
        <ele>720.16</ele>
        <time>2011-05-01T10:17:20Z</time>
      </trkpt>
      <trkpt lat="43.61603" lon="3.02012">
        <ele>719.68</ele>
        <time>2011-05-01T10:17:26Z</time>
      </trkpt>
      <trkpt lat="43.61598" lon="3.02009">
        <ele>719.68</ele>
        <time>2011-05-01T10:17:30Z</time>
      </trkpt>
      <trkpt lat="43.61594" lon="3.02009">
        <ele>719.2</ele>
        <time>2011-05-01T10:17:35Z</time>
      </trkpt>
      <trkpt lat="43.6159" lon="3.0201">
        <ele>719.2</ele>
        <time>2011-05-01T10:17:39Z</time>
      </trkpt>
      <trkpt lat="43.61584" lon="3.02017">
        <ele>719.68</ele>
        <time>2011-05-01T10:17:50Z</time>
      </trkpt>
      <trkpt lat="43.61584" lon="3.02024">
        <ele>719.68</ele>
        <time>2011-05-01T10:17:55Z</time>
      </trkpt>
      <trkpt lat="43.6158" lon="3.02046">
        <ele>720.65</ele>
        <time>2011-05-01T10:18:10Z</time>
      </trkpt>
      <trkpt lat="43.61573" lon="3.02062">
        <ele>720.65</ele>
        <time>2011-05-01T10:18:21Z</time>
      </trkpt>
      <trkpt lat="43.61567" lon="3.02081">
        <ele>720.65</ele>
        <time>2011-05-01T10:18:35Z</time>
      </trkpt>
      <trkpt lat="43.61561" lon="3.02099">
        <ele>720.65</ele>
        <time>2011-05-01T10:18:47Z</time>
      </trkpt>
      <trkpt lat="43.61559" lon="3.02114">
        <ele>719.2</ele>
        <time>2011-05-01T10:18:59Z</time>
      </trkpt>
      <trkpt lat="43.61557" lon="3.02131">
        <ele>717.76</ele>
        <time>2011-05-01T10:19:11Z</time>
      </trkpt>
      <trkpt lat="43.61556" lon="3.02142">
        <ele>717.28</ele>
        <time>2011-05-01T10:19:21Z</time>
      </trkpt>
      <trkpt lat="43.6155" lon="3.02157">
        <ele>716.8</ele>
        <time>2011-05-01T10:19:32Z</time>
      </trkpt>
      <trkpt lat="43.61545" lon="3.02173">
        <ele>716.32</ele>
        <time>2011-05-01T10:19:44Z</time>
      </trkpt>
      <trkpt lat="43.61542" lon="3.0218">
        <ele>715.84</ele>
        <time>2011-05-01T10:19:49Z</time>
      </trkpt>
      <trkpt lat="43.61537" lon="3.022">
        <ele>714.4</ele>
        <time>2011-05-01T10:20:04Z</time>
      </trkpt>
      <trkpt lat="43.61534" lon="3.02217">
        <ele>712.47</ele>
        <time>2011-05-01T10:20:16Z</time>
      </trkpt>
      <trkpt lat="43.61534" lon="3.02219">
        <ele>711.99</ele>
        <time>2011-05-01T10:20:17Z</time>
      </trkpt>
      <trkpt lat="43.61532" lon="3.02236">
        <ele>709.59</ele>
        <time>2011-05-01T10:20:30Z</time>
      </trkpt>
      <trkpt lat="43.6153" lon="3.02254">
        <ele>708.63</ele>
        <time>2011-05-01T10:20:42Z</time>
      </trkpt>
      <trkpt lat="43.61529" lon="3.02256">
        <ele>708.63</ele>
        <time>2011-05-01T10:20:44Z</time>
      </trkpt>
      <trkpt lat="43.61529" lon="3.0226">
        <ele>707.67</ele>
        <time>2011-05-01T10:20:46Z</time>
      </trkpt>
      <trkpt lat="43.61529" lon="3.02266">
        <ele>707.67</ele>
        <time>2011-05-01T10:20:50Z</time>
      </trkpt>
      <trkpt lat="43.61529" lon="3.02275">
        <ele>707.19</ele>
        <time>2011-05-01T10:20:56Z</time>
      </trkpt>
      <trkpt lat="43.61531" lon="3.02292">
        <ele>706.23</ele>
        <time>2011-05-01T10:21:07Z</time>
      </trkpt>
      <trkpt lat="43.61532" lon="3.02311">
        <ele>705.26</ele>
        <time>2011-05-01T10:21:20Z</time>
      </trkpt>
      <trkpt lat="43.61532" lon="3.02317">
        <ele>704.78</ele>
        <time>2011-05-01T10:21:24Z</time>
      </trkpt>
      <trkpt lat="43.61531" lon="3.02326">
        <ele>704.3</ele>
        <time>2011-05-01T10:21:30Z</time>
      </trkpt>
      <trkpt lat="43.6153" lon="3.02334">
        <ele>703.82</ele>
        <time>2011-05-01T10:21:35Z</time>
      </trkpt>
      <trkpt lat="43.61529" lon="3.02355">
        <ele>701.9</ele>
        <time>2011-05-01T10:21:48Z</time>
      </trkpt>
      <trkpt lat="43.61528" lon="3.0236">
        <ele>701.42</ele>
        <time>2011-05-01T10:21:51Z</time>
      </trkpt>
      <trkpt lat="43.61525" lon="3.02376">
        <ele>699.98</ele>
        <time>2011-05-01T10:22:05Z</time>
      </trkpt>
      <trkpt lat="43.61525" lon="3.02377">
        <ele>699.5</ele>
        <time>2011-05-01T10:22:06Z</time>
      </trkpt>
      <trkpt lat="43.61525" lon="3.0238">
        <ele>699.98</ele>
        <time>2011-05-01T10:22:08Z</time>
      </trkpt>
      <trkpt lat="43.61514" lon="3.0239">
        <ele>697.57</ele>
        <time>2011-05-01T10:22:23Z</time>
      </trkpt>
      <trkpt lat="43.61513" lon="3.0239">
        <ele>696.61</ele>
        <time>2011-05-01T10:22:27Z</time>
      </trkpt>
      <trkpt lat="43.61513" lon="3.02395">
        <ele>697.09</ele>
        <time>2011-05-01T10:22:32Z</time>
      </trkpt>
      <trkpt lat="43.61515" lon="3.02401">
        <ele>697.09</ele>
        <time>2011-05-01T10:22:42Z</time>
      </trkpt>
      <trkpt lat="43.61515" lon="3.02401">
        <ele>697.09</ele>
        <time>2011-05-01T10:22:48Z</time>
      </trkpt>
      <trkpt lat="43.6151" lon="3.02401">
        <ele>696.61</ele>
        <time>2011-05-01T10:22:59Z</time>
      </trkpt>
      <trkpt lat="43.6151" lon="3.02401">
        <ele>696.61</ele>
        <time>2011-05-01T10:23:21Z</time>
      </trkpt>
      <trkpt lat="43.6151" lon="3.02401">
        <ele>696.61</ele>
        <time>2011-05-01T10:23:48Z</time>
      </trkpt>
      <trkpt lat="43.6151" lon="3.02401">
        <ele>696.61</ele>
        <time>2011-05-01T10:24:11Z</time>
      </trkpt>
      <trkpt lat="43.61511" lon="3.02401">
        <ele>696.61</ele>
        <time>2011-05-01T10:24:28Z</time>
      </trkpt>
      <trkpt lat="43.6151" lon="3.02401">
        <ele>697.09</ele>
        <time>2011-05-01T10:24:48Z</time>
      </trkpt>
      <trkpt lat="43.61511" lon="3.02401">
        <ele>696.61</ele>
        <time>2011-05-01T10:25:04Z</time>
      </trkpt>
      <trkpt lat="43.61513" lon="3.024">
        <ele>696.61</ele>
        <time>2011-05-01T10:25:16Z</time>
      </trkpt>
      <trkpt lat="43.61514" lon="3.024">
        <ele>696.61</ele>
        <time>2011-05-01T10:25:18Z</time>
      </trkpt>
      <trkpt lat="43.61518" lon="3.024">
        <ele>696.61</ele>
        <time>2011-05-01T10:25:23Z</time>
      </trkpt>
      <trkpt lat="43.61528" lon="3.02397">
        <ele>695.17</ele>
        <time>2011-05-01T10:25:35Z</time>
      </trkpt>
      <trkpt lat="43.61531" lon="3.02396">
        <ele>694.69</ele>
        <time>2011-05-01T10:25:45Z</time>
      </trkpt>
      <trkpt lat="43.61542" lon="3.02383">
        <ele>694.69</ele>
        <time>2011-05-01T10:25:56Z</time>
      </trkpt>
      <trkpt lat="43.61547" lon="3.0237">
        <ele>693.73</ele>
        <time>2011-05-01T10:26:08Z</time>
      </trkpt>
      <trkpt lat="43.61549" lon="3.02366">
        <ele>692.77</ele>
        <time>2011-05-01T10:26:13Z</time>
      </trkpt>
      <trkpt lat="43.61549" lon="3.02361">
        <ele>692.77</ele>
        <time>2011-05-01T10:26:17Z</time>
      </trkpt>
      <trkpt lat="43.6155" lon="3.02359">
        <ele>692.77</ele>
        <time>2011-05-01T10:26:21Z</time>
      </trkpt>
      <trkpt lat="43.61549" lon="3.02353">
        <ele>692.29</ele>
        <time>2011-05-01T10:26:25Z</time>
      </trkpt>
      <trkpt lat="43.61552" lon="3.02344">
        <ele>691.81</ele>
        <time>2011-05-01T10:26:30Z</time>
      </trkpt>
      <trkpt lat="43.61555" lon="3.02331">
        <ele>691.81</ele>
        <time>2011-05-01T10:26:40Z</time>
      </trkpt>
      <trkpt lat="43.61559" lon="3.02311">
        <ele>690.36</ele>
        <time>2011-05-01T10:26:53Z</time>
      </trkpt>
      <trkpt lat="43.61559" lon="3.02305">
        <ele>689.4</ele>
        <time>2011-05-01T10:26:57Z</time>
      </trkpt>
      <trkpt lat="43.61559" lon="3.023">
        <ele>689.4</ele>
        <time>2011-05-01T10:27:01Z</time>
      </trkpt>
      <trkpt lat="43.6156" lon="3.0229">
        <ele>688.92</ele>
        <time>2011-05-01T10:27:08Z</time>
      </trkpt>
      <trkpt lat="43.61565" lon="3.0227">
        <ele>687.96</ele>
        <time>2011-05-01T10:27:20Z</time>
      </trkpt>
      <trkpt lat="43.61568" lon="3.02255">
        <ele>687.48</ele>
        <time>2011-05-01T10:27:29Z</time>
      </trkpt>
      <trkpt lat="43.61571" lon="3.02249">
        <ele>687</ele>
        <time>2011-05-01T10:27:33Z</time>
      </trkpt>
      <trkpt lat="43.61575" lon="3.02239">
        <ele>686.52</ele>
        <time>2011-05-01T10:27:40Z</time>
      </trkpt>
      <trkpt lat="43.61581" lon="3.02224">
        <ele>686.04</ele>
        <time>2011-05-01T10:27:53Z</time>
      </trkpt>
      <trkpt lat="43.61581" lon="3.02223">
        <ele>686.04</ele>
        <time>2011-05-01T10:27:54Z</time>
      </trkpt>
      <trkpt lat="43.61582" lon="3.02218">
        <ele>685.08</ele>
        <time>2011-05-01T10:27:57Z</time>
      </trkpt>
      <trkpt lat="43.61588" lon="3.02204">
        <ele>684.12</ele>
        <time>2011-05-01T10:28:10Z</time>
      </trkpt>
      <trkpt lat="43.61597" lon="3.02193">
        <ele>683.15</ele>
        <time>2011-05-01T10:28:21Z</time>
      </trkpt>
      <trkpt lat="43.61597" lon="3.02192">
        <ele>683.15</ele>
        <time>2011-05-01T10:28:22Z</time>
      </trkpt>
      <trkpt lat="43.61607" lon="3.0218">
        <ele>682.67</ele>
        <time>2011-05-01T10:28:34Z</time>
      </trkpt>
      <trkpt lat="43.61608" lon="3.02177">
        <ele>682.67</ele>
        <time>2011-05-01T10:28:36Z</time>
      </trkpt>
      <trkpt lat="43.61611" lon="3.02175">
        <ele>682.19</ele>
        <time>2011-05-01T10:28:38Z</time>
      </trkpt>
      <trkpt lat="43.61615" lon="3.02168">
        <ele>682.67</ele>
        <time>2011-05-01T10:28:44Z</time>
      </trkpt>
      <trkpt lat="43.61619" lon="3.02168">
        <ele>682.67</ele>
        <time>2011-05-01T10:28:48Z</time>
      </trkpt>
      <trkpt lat="43.61624" lon="3.0217">
        <ele>682.19</ele>
        <time>2011-05-01T10:28:53Z</time>
      </trkpt>
      <trkpt lat="43.61636" lon="3.02187">
        <ele>682.19</ele>
        <time>2011-05-01T10:29:08Z</time>
      </trkpt>
      <trkpt lat="43.61641" lon="3.02193">
        <ele>682.67</ele>
        <time>2011-05-01T10:29:13Z</time>
      </trkpt>
      <trkpt lat="43.61648" lon="3.02199">
        <ele>682.67</ele>
        <time>2011-05-01T10:29:29Z</time>
      </trkpt>
      <trkpt lat="43.61649" lon="3.022">
        <ele>682.67</ele>
        <time>2011-05-01T10:29:47Z</time>
      </trkpt>
      <trkpt lat="43.6165" lon="3.022">
        <ele>683.15</ele>
        <time>2011-05-01T10:30:11Z</time>
      </trkpt>
      <trkpt lat="43.61651" lon="3.022">
        <ele>683.15</ele>
        <time>2011-05-01T10:30:27Z</time>
      </trkpt>
      <trkpt lat="43.61651" lon="3.02201">
        <ele>683.15</ele>
        <time>2011-05-01T10:30:36Z</time>
      </trkpt>
      <trkpt lat="43.61654" lon="3.0221">
        <ele>685.56</ele>
        <time>2011-05-01T10:30:51Z</time>
      </trkpt>
      <trkpt lat="43.61656" lon="3.02217">
        <ele>686.52</ele>
        <time>2011-05-01T10:31:04Z</time>
      </trkpt>
      <trkpt lat="43.61657" lon="3.02216">
        <ele>686.52</ele>
        <time>2011-05-01T10:31:16Z</time>
      </trkpt>
      <trkpt lat="43.61657" lon="3.02217">
        <ele>687</ele>
        <time>2011-05-01T10:31:19Z</time>
      </trkpt>
      <trkpt lat="43.61656" lon="3.02219">
        <ele>687</ele>
        <time>2011-05-01T10:31:21Z</time>
      </trkpt>
      <trkpt lat="43.61649" lon="3.02234">
        <ele>687.48</ele>
        <time>2011-05-01T10:31:35Z</time>
      </trkpt>
      <trkpt lat="43.61646" lon="3.02245">
        <ele>687.48</ele>
        <time>2011-05-01T10:31:48Z</time>
      </trkpt>
      <trkpt lat="43.61642" lon="3.02256">
        <ele>688.44</ele>
        <time>2011-05-01T10:31:59Z</time>
      </trkpt>
      <trkpt lat="43.61641" lon="3.02269">
        <ele>688.92</ele>
        <time>2011-05-01T10:32:08Z</time>
      </trkpt>
      <trkpt lat="43.61639" lon="3.02271">
        <ele>689.4</ele>
        <time>2011-05-01T10:32:10Z</time>
      </trkpt>
      <trkpt lat="43.61637" lon="3.02287">
        <ele>689.88</ele>
        <time>2011-05-01T10:32:23Z</time>
      </trkpt>
      <trkpt lat="43.61636" lon="3.02292">
        <ele>690.36</ele>
        <time>2011-05-01T10:32:26Z</time>
      </trkpt>
      <trkpt lat="43.61636" lon="3.02306">
        <ele>691.33</ele>
        <time>2011-05-01T10:32:36Z</time>
      </trkpt>
      <trkpt lat="43.61639" lon="3.02327">
        <ele>692.77</ele>
        <time>2011-05-01T10:32:52Z</time>
      </trkpt>
      <trkpt lat="43.61639" lon="3.02334">
        <ele>692.29</ele>
        <time>2011-05-01T10:32:57Z</time>
      </trkpt>
      <trkpt lat="43.61639" lon="3.02344">
        <ele>693.73</ele>
        <time>2011-05-01T10:33:10Z</time>
      </trkpt>
      <trkpt lat="43.61641" lon="3.02354">
        <ele>695.17</ele>
        <time>2011-05-01T10:33:22Z</time>
      </trkpt>
      <trkpt lat="43.61641" lon="3.02366">
        <ele>695.65</ele>
        <time>2011-05-01T10:33:35Z</time>
      </trkpt>
      <trkpt lat="43.61642" lon="3.02376">
        <ele>696.61</ele>
        <time>2011-05-01T10:33:47Z</time>
      </trkpt>
      <trkpt lat="43.61641" lon="3.02376">
        <ele>696.13</ele>
        <time>2011-05-01T10:34:05Z</time>
      </trkpt>
      <trkpt lat="43.61642" lon="3.02388">
        <ele>697.09</ele>
        <time>2011-05-01T10:34:18Z</time>
      </trkpt>
      <trkpt lat="43.61643" lon="3.02404">
        <ele>698.05</ele>
        <time>2011-05-01T10:34:31Z</time>
      </trkpt>
      <trkpt lat="43.61643" lon="3.02418">
        <ele>699.5</ele>
        <time>2011-05-01T10:34:44Z</time>
      </trkpt>
      <trkpt lat="43.61644" lon="3.02418">
        <ele>699.5</ele>
        <time>2011-05-01T10:35:02Z</time>
      </trkpt>
      <trkpt lat="43.61644" lon="3.02419">
        <ele>699.5</ele>
        <time>2011-05-01T10:35:26Z</time>
      </trkpt>
      <trkpt lat="43.61645" lon="3.02421">
        <ele>699.5</ele>
        <time>2011-05-01T10:35:45Z</time>
      </trkpt>
      <trkpt lat="43.61646" lon="3.02428">
        <ele>700.46</ele>
        <time>2011-05-01T10:35:55Z</time>
      </trkpt>
      <trkpt lat="43.61647" lon="3.02438">
        <ele>699.98</ele>
        <time>2011-05-01T10:36:03Z</time>
      </trkpt>
      <trkpt lat="43.6165" lon="3.02459">
        <ele>701.42</ele>
        <time>2011-05-01T10:36:16Z</time>
      </trkpt>
      <trkpt lat="43.6165" lon="3.0246">
        <ele>701.42</ele>
        <time>2011-05-01T10:36:18Z</time>
      </trkpt>
      <trkpt lat="43.61652" lon="3.02475">
        <ele>701.9</ele>
        <time>2011-05-01T10:36:29Z</time>
      </trkpt>
      <trkpt lat="43.61653" lon="3.02489">
        <ele>701.9</ele>
        <time>2011-05-01T10:36:40Z</time>
      </trkpt>
      <trkpt lat="43.61648" lon="3.02509">
        <ele>701.42</ele>
        <time>2011-05-01T10:36:54Z</time>
      </trkpt>
      <trkpt lat="43.61643" lon="3.02528">
        <ele>700.94</ele>
        <time>2011-05-01T10:37:08Z</time>
      </trkpt>
      <trkpt lat="43.61641" lon="3.02531">
        <ele>700.94</ele>
        <time>2011-05-01T10:37:14Z</time>
      </trkpt>
      <trkpt lat="43.61636" lon="3.02538">
        <ele>699.98</ele>
        <time>2011-05-01T10:37:20Z</time>
      </trkpt>
      <trkpt lat="43.61624" lon="3.02557">
        <ele>699.02</ele>
        <time>2011-05-01T10:37:35Z</time>
      </trkpt>
      <trkpt lat="43.61615" lon="3.02571">
        <ele>699.5</ele>
        <time>2011-05-01T10:37:46Z</time>
      </trkpt>
      <trkpt lat="43.61604" lon="3.02582">
        <ele>699.98</ele>
        <time>2011-05-01T10:37:56Z</time>
      </trkpt>
      <trkpt lat="43.61593" lon="3.02598">
        <ele>700.46</ele>
        <time>2011-05-01T10:38:09Z</time>
      </trkpt>
      <trkpt lat="43.61582" lon="3.02616">
        <ele>702.38</ele>
        <time>2011-05-01T10:38:22Z</time>
      </trkpt>
      <trkpt lat="43.61572" lon="3.02631">
        <ele>703.34</ele>
        <time>2011-05-01T10:38:32Z</time>
      </trkpt>
      <trkpt lat="43.61566" lon="3.02641">
        <ele>704.3</ele>
        <time>2011-05-01T10:38:39Z</time>
      </trkpt>
      <trkpt lat="43.61553" lon="3.02656">
        <ele>706.23</ele>
        <time>2011-05-01T10:38:52Z</time>
      </trkpt>
      <trkpt lat="43.61543" lon="3.02666">
        <ele>708.15</ele>
        <time>2011-05-01T10:39:02Z</time>
      </trkpt>
      <trkpt lat="43.61538" lon="3.02671">
        <ele>708.63</ele>
        <time>2011-05-01T10:39:06Z</time>
      </trkpt>
      <trkpt lat="43.61524" lon="3.02686">
        <ele>709.59</ele>
        <time>2011-05-01T10:39:20Z</time>
      </trkpt>
      <trkpt lat="43.61513" lon="3.02704">
        <ele>710.07</ele>
        <time>2011-05-01T10:39:33Z</time>
      </trkpt>
      <trkpt lat="43.61511" lon="3.02711">
        <ele>710.55</ele>
        <time>2011-05-01T10:39:38Z</time>
      </trkpt>
      <trkpt lat="43.61496" lon="3.02728">
        <ele>712.47</ele>
        <time>2011-05-01T10:39:54Z</time>
      </trkpt>
      <trkpt lat="43.61479" lon="3.02736">
        <ele>714.88</ele>
        <time>2011-05-01T10:40:07Z</time>
      </trkpt>
      <trkpt lat="43.61462" lon="3.02745">
        <ele>716.8</ele>
        <time>2011-05-01T10:40:21Z</time>
      </trkpt>
      <trkpt lat="43.61443" lon="3.02758">
        <ele>717.76</ele>
        <time>2011-05-01T10:40:36Z</time>
      </trkpt>
      <trkpt lat="43.61429" lon="3.02764">
        <ele>718.72</ele>
        <time>2011-05-01T10:40:49Z</time>
      </trkpt>
      <trkpt lat="43.61413" lon="3.02772">
        <ele>720.16</ele>
        <time>2011-05-01T10:41:02Z</time>
      </trkpt>
      <trkpt lat="43.61392" lon="3.0278">
        <ele>721.61</ele>
        <time>2011-05-01T10:41:17Z</time>
      </trkpt>
      <trkpt lat="43.61373" lon="3.02789">
        <ele>723.05</ele>
        <time>2011-05-01T10:41:27Z</time>
      </trkpt>
      <trkpt lat="43.6137" lon="3.02792">
        <ele>723.53</ele>
        <time>2011-05-01T10:41:30Z</time>
      </trkpt>
      <trkpt lat="43.61353" lon="3.02802">
        <ele>724.97</ele>
        <time>2011-05-01T10:41:45Z</time>
      </trkpt>
      <trkpt lat="43.61339" lon="3.02815">
        <ele>726.41</ele>
        <time>2011-05-01T10:41:59Z</time>
      </trkpt>
      <trkpt lat="43.61329" lon="3.0283">
        <ele>727.37</ele>
        <time>2011-05-01T10:42:12Z</time>
      </trkpt>
      <trkpt lat="43.61326" lon="3.02836">
        <ele>727.86</ele>
        <time>2011-05-01T10:42:16Z</time>
      </trkpt>
      <trkpt lat="43.61318" lon="3.0285">
        <ele>730.26</ele>
        <time>2011-05-01T10:42:27Z</time>
      </trkpt>
      <trkpt lat="43.61308" lon="3.02865">
        <ele>732.18</ele>
        <time>2011-05-01T10:42:41Z</time>
      </trkpt>
      <trkpt lat="43.61298" lon="3.02877">
        <ele>733.62</ele>
        <time>2011-05-01T10:42:55Z</time>
      </trkpt>
      <trkpt lat="43.61295" lon="3.02881">
        <ele>733.62</ele>
        <time>2011-05-01T10:42:59Z</time>
      </trkpt>
      <trkpt lat="43.61289" lon="3.0289">
        <ele>735.07</ele>
        <time>2011-05-01T10:43:07Z</time>
      </trkpt>
      <trkpt lat="43.61281" lon="3.02898">
        <ele>736.51</ele>
        <time>2011-05-01T10:43:17Z</time>
      </trkpt>
      <trkpt lat="43.6128" lon="3.02903">
        <ele>737.47</ele>
        <time>2011-05-01T10:43:20Z</time>
      </trkpt>
      <trkpt lat="43.61278" lon="3.02907">
        <ele>737.47</ele>
        <time>2011-05-01T10:43:23Z</time>
      </trkpt>
      <trkpt lat="43.61278" lon="3.02915">
        <ele>738.43</ele>
        <time>2011-05-01T10:43:29Z</time>
      </trkpt>
      <trkpt lat="43.61273" lon="3.02929">
        <ele>739.87</ele>
        <time>2011-05-01T10:43:39Z</time>
      </trkpt>
      <trkpt lat="43.61272" lon="3.02937">
        <ele>740.83</ele>
        <time>2011-05-01T10:43:44Z</time>
      </trkpt>
      <trkpt lat="43.61268" lon="3.0295">
        <ele>742.76</ele>
        <time>2011-05-01T10:43:55Z</time>
      </trkpt>
      <trkpt lat="43.61266" lon="3.02956">
        <ele>742.76</ele>
        <time>2011-05-01T10:43:59Z</time>
      </trkpt>
      <trkpt lat="43.61262" lon="3.02966">
        <ele>744.68</ele>
        <time>2011-05-01T10:44:06Z</time>
      </trkpt>
      <trkpt lat="43.61258" lon="3.02976">
        <ele>745.16</ele>
        <time>2011-05-01T10:44:13Z</time>
      </trkpt>
      <trkpt lat="43.61252" lon="3.02983">
        <ele>746.12</ele>
        <time>2011-05-01T10:44:25Z</time>
      </trkpt>
      <trkpt lat="43.61252" lon="3.02983">
        <ele>746.12</ele>
        <time>2011-05-01T10:44:31Z</time>
      </trkpt>
      <trkpt lat="43.61252" lon="3.02989">
        <ele>746.6</ele>
        <time>2011-05-01T10:44:35Z</time>
      </trkpt>
      <trkpt lat="43.61249" lon="3.02997">
        <ele>747.08</ele>
        <time>2011-05-01T10:44:40Z</time>
      </trkpt>
      <trkpt lat="43.61241" lon="3.03021">
        <ele>747.08</ele>
        <time>2011-05-01T10:44:53Z</time>
      </trkpt>
      <trkpt lat="43.61237" lon="3.03031">
        <ele>747.08</ele>
        <time>2011-05-01T10:45:00Z</time>
      </trkpt>
      <trkpt lat="43.61234" lon="3.03038">
        <ele>747.56</ele>
        <time>2011-05-01T10:45:04Z</time>
      </trkpt>
      <trkpt lat="43.61232" lon="3.03044">
        <ele>748.04</ele>
        <time>2011-05-01T10:45:08Z</time>
      </trkpt>
      <trkpt lat="43.61227" lon="3.03064">
        <ele>749</ele>
        <time>2011-05-01T10:45:17Z</time>
      </trkpt>
      <trkpt lat="43.61225" lon="3.03073">
        <ele>749.49</ele>
        <time>2011-05-01T10:45:22Z</time>
      </trkpt>
      <trkpt lat="43.61217" lon="3.03096">
        <ele>750.45</ele>
        <time>2011-05-01T10:45:34Z</time>
      </trkpt>
      <trkpt lat="43.61216" lon="3.03101">
        <ele>750.93</ele>
        <time>2011-05-01T10:45:37Z</time>
      </trkpt>
      <trkpt lat="43.61214" lon="3.03107">
        <ele>751.41</ele>
        <time>2011-05-01T10:45:41Z</time>
      </trkpt>
      <trkpt lat="43.61211" lon="3.03116">
        <ele>752.37</ele>
        <time>2011-05-01T10:45:47Z</time>
      </trkpt>
      <trkpt lat="43.61209" lon="3.03133">
        <ele>753.33</ele>
        <time>2011-05-01T10:45:57Z</time>
      </trkpt>
      <trkpt lat="43.61207" lon="3.03137">
        <ele>753.81</ele>
        <time>2011-05-01T10:46:00Z</time>
      </trkpt>
      <trkpt lat="43.61201" lon="3.03152">
        <ele>754.29</ele>
        <time>2011-05-01T10:46:09Z</time>
      </trkpt>
      <trkpt lat="43.612" lon="3.03162">
        <ele>754.77</ele>
        <time>2011-05-01T10:46:15Z</time>
      </trkpt>
      <trkpt lat="43.61198" lon="3.03168">
        <ele>754.29</ele>
        <time>2011-05-01T10:46:19Z</time>
      </trkpt>
      <trkpt lat="43.61197" lon="3.0318">
        <ele>755.25</ele>
        <time>2011-05-01T10:46:26Z</time>
      </trkpt>
      <trkpt lat="43.61196" lon="3.03187">
        <ele>754.77</ele>
        <time>2011-05-01T10:46:30Z</time>
      </trkpt>
      <trkpt lat="43.61201" lon="3.03209">
        <ele>753.81</ele>
        <time>2011-05-01T10:46:44Z</time>
      </trkpt>
      <trkpt lat="43.61203" lon="3.03215">
        <ele>752.85</ele>
        <time>2011-05-01T10:46:55Z</time>
      </trkpt>
      <trkpt lat="43.61204" lon="3.03218">
        <ele>752.37</ele>
        <time>2011-05-01T10:46:57Z</time>
      </trkpt>
      <trkpt lat="43.61212" lon="3.03229">
        <ele>751.89</ele>
        <time>2011-05-01T10:47:04Z</time>
      </trkpt>
      <trkpt lat="43.61213" lon="3.03259">
        <ele>750.93</ele>
        <time>2011-05-01T10:47:17Z</time>
      </trkpt>
      <trkpt lat="43.61211" lon="3.03263">
        <ele>750.93</ele>
        <time>2011-05-01T10:47:21Z</time>
      </trkpt>
      <trkpt lat="43.61209" lon="3.03267">
        <ele>750.93</ele>
        <time>2011-05-01T10:47:33Z</time>
      </trkpt>
      <trkpt lat="43.61209" lon="3.03267">
        <ele>750.45</ele>
        <time>2011-05-01T10:47:43Z</time>
      </trkpt>
      <trkpt lat="43.6121" lon="3.03283">
        <ele>750.45</ele>
        <time>2011-05-01T10:47:55Z</time>
      </trkpt>
      <trkpt lat="43.6121" lon="3.03287">
        <ele>750.45</ele>
        <time>2011-05-01T10:47:57Z</time>
      </trkpt>
      <trkpt lat="43.6121" lon="3.03312">
        <ele>749.97</ele>
        <time>2011-05-01T10:48:10Z</time>
      </trkpt>
      <trkpt lat="43.61209" lon="3.0332">
        <ele>749.97</ele>
        <time>2011-05-01T10:48:15Z</time>
      </trkpt>
      <trkpt lat="43.61206" lon="3.03331">
        <ele>749.49</ele>
        <time>2011-05-01T10:48:22Z</time>
      </trkpt>
      <trkpt lat="43.61205" lon="3.03339">
        <ele>749.97</ele>
        <time>2011-05-01T10:48:27Z</time>
      </trkpt>
      <trkpt lat="43.61202" lon="3.03352">
        <ele>749</ele>
        <time>2011-05-01T10:48:34Z</time>
      </trkpt>
      <trkpt lat="43.612" lon="3.03369">
        <ele>748.52</ele>
        <time>2011-05-01T10:48:45Z</time>
      </trkpt>
      <trkpt lat="43.61196" lon="3.03391">
        <ele>747.08</ele>
        <time>2011-05-01T10:48:59Z</time>
      </trkpt>
      <trkpt lat="43.61194" lon="3.03395">
        <ele>746.6</ele>
        <time>2011-05-01T10:49:07Z</time>
      </trkpt>
      <trkpt lat="43.61192" lon="3.03403">
        <ele>746.6</ele>
        <time>2011-05-01T10:49:14Z</time>
      </trkpt>
      <trkpt lat="43.61188" lon="3.03405">
        <ele>746.12</ele>
        <time>2011-05-01T10:49:28Z</time>
      </trkpt>
      <trkpt lat="43.61182" lon="3.03417">
        <ele>744.68</ele>
        <time>2011-05-01T10:49:42Z</time>
      </trkpt>
      <trkpt lat="43.61168" lon="3.03428">
        <ele>742.76</ele>
        <time>2011-05-01T10:49:55Z</time>
      </trkpt>
      <trkpt lat="43.61166" lon="3.0343">
        <ele>742.76</ele>
        <time>2011-05-01T10:50:07Z</time>
      </trkpt>
      <trkpt lat="43.61154" lon="3.03452">
        <ele>741.31</ele>
        <time>2011-05-01T10:50:20Z</time>
      </trkpt>
      <trkpt lat="43.61151" lon="3.03472">
        <ele>739.39</ele>
        <time>2011-05-01T10:50:34Z</time>
      </trkpt>
      <trkpt lat="43.61152" lon="3.03492">
        <ele>737.47</ele>
        <time>2011-05-01T10:50:47Z</time>
      </trkpt>
      <trkpt lat="43.61151" lon="3.03495">
        <ele>736.99</ele>
        <time>2011-05-01T10:50:49Z</time>
      </trkpt>
      <trkpt lat="43.61152" lon="3.03503">
        <ele>736.99</ele>
        <time>2011-05-01T10:50:53Z</time>
      </trkpt>
      <trkpt lat="43.6115" lon="3.03513">
        <ele>736.03</ele>
        <time>2011-05-01T10:50:59Z</time>
      </trkpt>
      <trkpt lat="43.61148" lon="3.03517">
        <ele>735.55</ele>
        <time>2011-05-01T10:51:02Z</time>
      </trkpt>
      <trkpt lat="43.61146" lon="3.03522">
        <ele>735.55</ele>
        <time>2011-05-01T10:51:05Z</time>
      </trkpt>
      <trkpt lat="43.6114" lon="3.0354">
        <ele>734.58</ele>
        <time>2011-05-01T10:51:16Z</time>
      </trkpt>
      <trkpt lat="43.61136" lon="3.03565">
        <ele>732.18</ele>
        <time>2011-05-01T10:51:30Z</time>
      </trkpt>
      <trkpt lat="43.61136" lon="3.03589">
        <ele>730.26</ele>
        <time>2011-05-01T10:51:41Z</time>
      </trkpt>
      <trkpt lat="43.61139" lon="3.036">
        <ele>728.82</ele>
        <time>2011-05-01T10:51:48Z</time>
      </trkpt>
      <trkpt lat="43.61141" lon="3.03609">
        <ele>728.34</ele>
        <time>2011-05-01T10:51:54Z</time>
      </trkpt>
      <trkpt lat="43.61142" lon="3.03612">
        <ele>728.34</ele>
        <time>2011-05-01T10:51:56Z</time>
      </trkpt>
      <trkpt lat="43.61143" lon="3.03617">
        <ele>727.86</ele>
        <time>2011-05-01T10:52:00Z</time>
      </trkpt>
      <trkpt lat="43.61145" lon="3.03626">
        <ele>726.41</ele>
        <time>2011-05-01T10:52:06Z</time>
      </trkpt>
      <trkpt lat="43.61145" lon="3.03636">
        <ele>725.93</ele>
        <time>2011-05-01T10:52:12Z</time>
      </trkpt>
      <trkpt lat="43.61146" lon="3.03642">
        <ele>724.97</ele>
        <time>2011-05-01T10:52:16Z</time>
      </trkpt>
      <trkpt lat="43.61148" lon="3.03652">
        <ele>724.49</ele>
        <time>2011-05-01T10:52:22Z</time>
      </trkpt>
      <trkpt lat="43.6115" lon="3.0367">
        <ele>722.09</ele>
        <time>2011-05-01T10:52:34Z</time>
      </trkpt>
      <trkpt lat="43.61151" lon="3.03674">
        <ele>721.61</ele>
        <time>2011-05-01T10:52:37Z</time>
      </trkpt>
      <trkpt lat="43.61157" lon="3.03691">
        <ele>720.16</ele>
        <time>2011-05-01T10:52:49Z</time>
      </trkpt>
      <trkpt lat="43.61157" lon="3.03695">
        <ele>719.68</ele>
        <time>2011-05-01T10:52:51Z</time>
      </trkpt>
      <trkpt lat="43.61158" lon="3.03701">
        <ele>718.72</ele>
        <time>2011-05-01T10:52:55Z</time>
      </trkpt>
      <trkpt lat="43.61164" lon="3.03721">
        <ele>717.28</ele>
        <time>2011-05-01T10:53:09Z</time>
      </trkpt>
      <trkpt lat="43.61166" lon="3.03723">
        <ele>717.76</ele>
        <time>2011-05-01T10:53:11Z</time>
      </trkpt>
      <trkpt lat="43.61174" lon="3.03742">
        <ele>715.84</ele>
        <time>2011-05-01T10:53:25Z</time>
      </trkpt>
      <trkpt lat="43.61175" lon="3.03745">
        <ele>715.36</ele>
        <time>2011-05-01T10:53:27Z</time>
      </trkpt>
      <trkpt lat="43.61176" lon="3.03751">
        <ele>715.36</ele>
        <time>2011-05-01T10:53:31Z</time>
      </trkpt>
      <trkpt lat="43.61178" lon="3.03755">
        <ele>714.88</ele>
        <time>2011-05-01T10:53:34Z</time>
      </trkpt>
      <trkpt lat="43.61181" lon="3.03766">
        <ele>714.4</ele>
        <time>2011-05-01T10:53:40Z</time>
      </trkpt>
      <trkpt lat="43.61188" lon="3.03791">
        <ele>711.99</ele>
        <time>2011-05-01T10:53:55Z</time>
      </trkpt>
      <trkpt lat="43.61189" lon="3.03792">
        <ele>711.51</ele>
        <time>2011-05-01T10:53:56Z</time>
      </trkpt>
      <trkpt lat="43.6119" lon="3.03798">
        <ele>711.03</ele>
        <time>2011-05-01T10:54:00Z</time>
      </trkpt>
      <trkpt lat="43.61192" lon="3.03803">
        <ele>710.55</ele>
        <time>2011-05-01T10:54:04Z</time>
      </trkpt>
      <trkpt lat="43.61194" lon="3.03815">
        <ele>709.11</ele>
        <time>2011-05-01T10:54:11Z</time>
      </trkpt>
      <trkpt lat="43.61196" lon="3.03817">
        <ele>708.63</ele>
        <time>2011-05-01T10:54:13Z</time>
      </trkpt>
      <trkpt lat="43.61199" lon="3.03821">
        <ele>707.67</ele>
        <time>2011-05-01T10:54:19Z</time>
      </trkpt>
      <trkpt lat="43.61204" lon="3.03823">
        <ele>706.71</ele>
        <time>2011-05-01T10:54:24Z</time>
      </trkpt>
      <trkpt lat="43.61204" lon="3.03824">
        <ele>705.75</ele>
        <time>2011-05-01T10:54:27Z</time>
      </trkpt>
      <trkpt lat="43.61215" lon="3.03827">
        <ele>704.78</ele>
        <time>2011-05-01T10:54:40Z</time>
      </trkpt>
      <trkpt lat="43.61227" lon="3.03833">
        <ele>702.86</ele>
        <time>2011-05-01T10:54:54Z</time>
      </trkpt>
      <trkpt lat="43.61231" lon="3.03835">
        <ele>702.38</ele>
        <time>2011-05-01T10:54:57Z</time>
      </trkpt>
      <trkpt lat="43.6124" lon="3.03836">
        <ele>701.9</ele>
        <time>2011-05-01T10:55:02Z</time>
      </trkpt>
      <trkpt lat="43.61248" lon="3.03834">
        <ele>702.38</ele>
        <time>2011-05-01T10:55:06Z</time>
      </trkpt>
      <trkpt lat="43.61262" lon="3.03823">
        <ele>702.86</ele>
        <time>2011-05-01T10:55:18Z</time>
      </trkpt>
      <trkpt lat="43.61265" lon="3.03816">
        <ele>703.34</ele>
        <time>2011-05-01T10:55:23Z</time>
      </trkpt>
      <trkpt lat="43.6127" lon="3.03801">
        <ele>704.78</ele>
        <time>2011-05-01T10:55:36Z</time>
      </trkpt>
      <trkpt lat="43.61276" lon="3.03797">
        <ele>704.78</ele>
        <time>2011-05-01T10:55:48Z</time>
      </trkpt>
      <trkpt lat="43.61284" lon="3.03796">
        <ele>704.3</ele>
        <time>2011-05-01T10:56:00Z</time>
      </trkpt>
      <trkpt lat="43.61292" lon="3.03797">
        <ele>704.78</ele>
        <time>2011-05-01T10:56:04Z</time>
      </trkpt>
      <trkpt lat="43.61297" lon="3.038">
        <ele>704.78</ele>
        <time>2011-05-01T10:56:11Z</time>
      </trkpt>
      <trkpt lat="43.61301" lon="3.03806">
        <ele>704.78</ele>
        <time>2011-05-01T10:56:18Z</time>
      </trkpt>
      <trkpt lat="43.61312" lon="3.03818">
        <ele>704.78</ele>
        <time>2011-05-01T10:56:31Z</time>
      </trkpt>
      <trkpt lat="43.61317" lon="3.03831">
        <ele>704.3</ele>
        <time>2011-05-01T10:56:39Z</time>
      </trkpt>
      <trkpt lat="43.61319" lon="3.03841">
        <ele>703.82</ele>
        <time>2011-05-01T10:56:45Z</time>
      </trkpt>
      <trkpt lat="43.61319" lon="3.03855">
        <ele>702.86</ele>
        <time>2011-05-01T10:56:54Z</time>
      </trkpt>
      <trkpt lat="43.61319" lon="3.03862">
        <ele>701.9</ele>
        <time>2011-05-01T10:56:58Z</time>
      </trkpt>
      <trkpt lat="43.61318" lon="3.03881">
        <ele>699.98</ele>
        <time>2011-05-01T10:57:09Z</time>
      </trkpt>
      <trkpt lat="43.61318" lon="3.03909">
        <ele>698.05</ele>
        <time>2011-05-01T10:57:24Z</time>
      </trkpt>
      <trkpt lat="43.61316" lon="3.03928">
        <ele>696.61</ele>
        <time>2011-05-01T10:57:36Z</time>
      </trkpt>
      <trkpt lat="43.61315" lon="3.03956">
        <ele>695.65</ele>
        <time>2011-05-01T10:57:50Z</time>
      </trkpt>
      <trkpt lat="43.61315" lon="3.03961">
        <ele>695.17</ele>
        <time>2011-05-01T10:57:53Z</time>
      </trkpt>
      <trkpt lat="43.61314" lon="3.0398">
        <ele>693.73</ele>
        <time>2011-05-01T10:58:05Z</time>
      </trkpt>
      <trkpt lat="43.61314" lon="3.04004">
        <ele>693.25</ele>
        <time>2011-05-01T10:58:19Z</time>
      </trkpt>
      <trkpt lat="43.61314" lon="3.04015">
        <ele>693.25</ele>
        <time>2011-05-01T10:58:25Z</time>
      </trkpt>
      <trkpt lat="43.61313" lon="3.04019">
        <ele>693.25</ele>
        <time>2011-05-01T10:58:28Z</time>
      </trkpt>
      <trkpt lat="43.61312" lon="3.04033">
        <ele>693.25</ele>
        <time>2011-05-01T10:58:36Z</time>
      </trkpt>
      <trkpt lat="43.61307" lon="3.04056">
        <ele>692.29</ele>
        <time>2011-05-01T10:58:49Z</time>
      </trkpt>
      <trkpt lat="43.61303" lon="3.04066">
        <ele>691.81</ele>
        <time>2011-05-01T10:58:55Z</time>
      </trkpt>
      <trkpt lat="43.61289" lon="3.04078">
        <ele>690.36</ele>
        <time>2011-05-01T10:59:09Z</time>
      </trkpt>
      <trkpt lat="43.61277" lon="3.04092">
        <ele>689.4</ele>
        <time>2011-05-01T10:59:21Z</time>
      </trkpt>
      <trkpt lat="43.61275" lon="3.04096">
        <ele>688.92</ele>
        <time>2011-05-01T10:59:24Z</time>
      </trkpt>
      <trkpt lat="43.61269" lon="3.04108">
        <ele>688.44</ele>
        <time>2011-05-01T10:59:32Z</time>
      </trkpt>
      <trkpt lat="43.61264" lon="3.04117">
        <ele>688.44</ele>
        <time>2011-05-01T10:59:39Z</time>
      </trkpt>
      <trkpt lat="43.61254" lon="3.04138">
        <ele>687.96</ele>
        <time>2011-05-01T10:59:53Z</time>
      </trkpt>
      <trkpt lat="43.61245" lon="3.04154">
        <ele>687.96</ele>
        <time>2011-05-01T11:00:06Z</time>
      </trkpt>
      <trkpt lat="43.61243" lon="3.04157">
        <ele>688.44</ele>
        <time>2011-05-01T11:00:09Z</time>
      </trkpt>
      <trkpt lat="43.61242" lon="3.0416">
        <ele>687.96</ele>
        <time>2011-05-01T11:00:11Z</time>
      </trkpt>
      <trkpt lat="43.61236" lon="3.04173">
        <ele>688.44</ele>
        <time>2011-05-01T11:00:21Z</time>
      </trkpt>
      <trkpt lat="43.61227" lon="3.04183">
        <ele>687.96</ele>
        <time>2011-05-01T11:00:31Z</time>
      </trkpt>
      <trkpt lat="43.61217" lon="3.04193">
        <ele>687.48</ele>
        <time>2011-05-01T11:00:41Z</time>
      </trkpt>
      <trkpt lat="43.61214" lon="3.04196">
        <ele>687.48</ele>
        <time>2011-05-01T11:00:45Z</time>
      </trkpt>
      <trkpt lat="43.61205" lon="3.04208">
        <ele>687</ele>
        <time>2011-05-01T11:00:58Z</time>
      </trkpt>
      <trkpt lat="43.61198" lon="3.04217">
        <ele>686.52</ele>
        <time>2011-05-01T11:01:09Z</time>
      </trkpt>
      <trkpt lat="43.61194" lon="3.04221">
        <ele>686.52</ele>
        <time>2011-05-01T11:01:15Z</time>
      </trkpt>
      <trkpt lat="43.6118" lon="3.04226">
        <ele>685.56</ele>
        <time>2011-05-01T11:01:28Z</time>
      </trkpt>
      <trkpt lat="43.61175" lon="3.04223">
        <ele>685.56</ele>
        <time>2011-05-01T11:01:46Z</time>
      </trkpt>
      <trkpt lat="43.61168" lon="3.04229">
        <ele>685.08</ele>
        <time>2011-05-01T11:01:59Z</time>
      </trkpt>
      <trkpt lat="43.61162" lon="3.04232">
        <ele>684.6</ele>
        <time>2011-05-01T11:02:04Z</time>
      </trkpt>
      <trkpt lat="43.61157" lon="3.04236">
        <ele>684.12</ele>
        <time>2011-05-01T11:02:08Z</time>
      </trkpt>
      <trkpt lat="43.61152" lon="3.04239">
        <ele>683.63</ele>
        <time>2011-05-01T11:02:12Z</time>
      </trkpt>
      <trkpt lat="43.61133" lon="3.04249">
        <ele>683.15</ele>
        <time>2011-05-01T11:02:26Z</time>
      </trkpt>
      <trkpt lat="43.61129" lon="3.04251">
        <ele>683.15</ele>
        <time>2011-05-01T11:02:29Z</time>
      </trkpt>
      <trkpt lat="43.61101" lon="3.04259">
        <ele>681.71</ele>
        <time>2011-05-01T11:02:45Z</time>
      </trkpt>
      <trkpt lat="43.61095" lon="3.04261">
        <ele>681.23</ele>
        <time>2011-05-01T11:02:49Z</time>
      </trkpt>
      <trkpt lat="43.61077" lon="3.04266">
        <ele>680.27</ele>
        <time>2011-05-01T11:03:02Z</time>
      </trkpt>
      <trkpt lat="43.61068" lon="3.04265">
        <ele>680.27</ele>
        <time>2011-05-01T11:03:10Z</time>
      </trkpt>
      <trkpt lat="43.61054" lon="3.04268">
        <ele>679.31</ele>
        <time>2011-05-01T11:03:20Z</time>
      </trkpt>
      <trkpt lat="43.61046" lon="3.04266">
        <ele>678.35</ele>
        <time>2011-05-01T11:03:30Z</time>
      </trkpt>
      <trkpt lat="43.61043" lon="3.04258">
        <ele>676.42</ele>
        <time>2011-05-01T11:03:37Z</time>
      </trkpt>
      <trkpt lat="43.6104" lon="3.04253">
        <ele>676.91</ele>
        <time>2011-05-01T11:03:49Z</time>
      </trkpt>
      <trkpt lat="43.61037" lon="3.04247">
        <ele>674.02</ele>
        <time>2011-05-01T11:04:03Z</time>
      </trkpt>
      <trkpt lat="43.61037" lon="3.04239">
        <ele>673.06</ele>
        <time>2011-05-01T11:04:07Z</time>
      </trkpt>
      <trkpt lat="43.61022" lon="3.04232">
        <ele>671.62</ele>
        <time>2011-05-01T11:04:20Z</time>
      </trkpt>
      <trkpt lat="43.6102" lon="3.04232">
        <ele>672.1</ele>
        <time>2011-05-01T11:04:21Z</time>
      </trkpt>
      <trkpt lat="43.61007" lon="3.04221">
        <ele>671.14</ele>
        <time>2011-05-01T11:04:34Z</time>
      </trkpt>
      <trkpt lat="43.61004" lon="3.0422">
        <ele>671.14</ele>
        <time>2011-05-01T11:04:37Z</time>
      </trkpt>
      <trkpt lat="43.60996" lon="3.04213">
        <ele>669.7</ele>
        <time>2011-05-01T11:04:48Z</time>
      </trkpt>
      <trkpt lat="43.60996" lon="3.04213">
        <ele>669.7</ele>
        <time>2011-05-01T11:04:49Z</time>
      </trkpt>
      <trkpt lat="43.6099" lon="3.04209">
        <ele>669.22</ele>
        <time>2011-05-01T11:04:53Z</time>
      </trkpt>
      <trkpt lat="43.60976" lon="3.04197">
        <ele>667.77</ele>
        <time>2011-05-01T11:05:06Z</time>
      </trkpt>
      <trkpt lat="43.60962" lon="3.04185">
        <ele>666.81</ele>
        <time>2011-05-01T11:05:18Z</time>
      </trkpt>
      <trkpt lat="43.6095" lon="3.04178">
        <ele>664.89</ele>
        <time>2011-05-01T11:05:32Z</time>
      </trkpt>
      <trkpt lat="43.60934" lon="3.0417">
        <ele>664.41</ele>
        <time>2011-05-01T11:05:46Z</time>
      </trkpt>
      <trkpt lat="43.60921" lon="3.04167">
        <ele>663.45</ele>
        <time>2011-05-01T11:05:57Z</time>
      </trkpt>
      <trkpt lat="43.6091" lon="3.04164">
        <ele>663.45</ele>
        <time>2011-05-01T11:06:05Z</time>
      </trkpt>
      <trkpt lat="43.609" lon="3.04165">
        <ele>662.01</ele>
        <time>2011-05-01T11:06:16Z</time>
      </trkpt>
      <trkpt lat="43.60898" lon="3.04166">
        <ele>662.01</ele>
        <time>2011-05-01T11:06:18Z</time>
      </trkpt>
      <trkpt lat="43.60885" lon="3.04171">
        <ele>660.56</ele>
        <time>2011-05-01T11:06:31Z</time>
      </trkpt>
      <trkpt lat="43.60881" lon="3.04174">
        <ele>660.56</ele>
        <time>2011-05-01T11:06:35Z</time>
      </trkpt>
      <trkpt lat="43.60875" lon="3.04178">
        <ele>659.12</ele>
        <time>2011-05-01T11:06:41Z</time>
      </trkpt>
      <trkpt lat="43.60857" lon="3.04191">
        <ele>658.16</ele>
        <time>2011-05-01T11:06:57Z</time>
      </trkpt>
      <trkpt lat="43.60838" lon="3.04204">
        <ele>657.68</ele>
        <time>2011-05-01T11:07:13Z</time>
      </trkpt>
      <trkpt lat="43.60834" lon="3.04206">
        <ele>657.2</ele>
        <time>2011-05-01T11:07:16Z</time>
      </trkpt>
      <trkpt lat="43.60819" lon="3.04224">
        <ele>656.72</ele>
        <time>2011-05-01T11:07:31Z</time>
      </trkpt>
      <trkpt lat="43.60809" lon="3.04239">
        <ele>656.24</ele>
        <time>2011-05-01T11:07:43Z</time>
      </trkpt>
      <trkpt lat="43.60806" lon="3.04249">
        <ele>656.24</ele>
        <time>2011-05-01T11:07:49Z</time>
      </trkpt>
      <trkpt lat="43.60798" lon="3.04264">
        <ele>655.28</ele>
        <time>2011-05-01T11:08:00Z</time>
      </trkpt>
      <trkpt lat="43.60793" lon="3.04286">
        <ele>654.31</ele>
        <time>2011-05-01T11:08:11Z</time>
      </trkpt>
      <trkpt lat="43.60793" lon="3.04288">
        <ele>654.31</ele>
        <time>2011-05-01T11:08:12Z</time>
      </trkpt>
      <trkpt lat="43.6079" lon="3.04294">
        <ele>653.83</ele>
        <time>2011-05-01T11:08:16Z</time>
      </trkpt>
      <trkpt lat="43.6078" lon="3.04308">
        <ele>653.35</ele>
        <time>2011-05-01T11:08:25Z</time>
      </trkpt>
      <trkpt lat="43.60777" lon="3.04313">
        <ele>652.87</ele>
        <time>2011-05-01T11:08:28Z</time>
      </trkpt>
      <trkpt lat="43.60771" lon="3.04318">
        <ele>652.39</ele>
        <time>2011-05-01T11:08:41Z</time>
      </trkpt>
      <trkpt lat="43.60765" lon="3.04323">
        <ele>651.91</ele>
        <time>2011-05-01T11:08:49Z</time>
      </trkpt>
      <trkpt lat="43.60754" lon="3.0433">
        <ele>650.47</ele>
        <time>2011-05-01T11:08:58Z</time>
      </trkpt>
      <trkpt lat="43.60749" lon="3.04334">
        <ele>649.99</ele>
        <time>2011-05-01T11:09:09Z</time>
      </trkpt>
      <trkpt lat="43.60742" lon="3.04337">
        <ele>649.51</ele>
        <time>2011-05-01T11:09:14Z</time>
      </trkpt>
      <trkpt lat="43.6074" lon="3.04338">
        <ele>649.03</ele>
        <time>2011-05-01T11:09:16Z</time>
      </trkpt>
      <trkpt lat="43.60731" lon="3.04343">
        <ele>648.07</ele>
        <time>2011-05-01T11:09:28Z</time>
      </trkpt>
      <trkpt lat="43.60718" lon="3.04345">
        <ele>647.1</ele>
        <time>2011-05-01T11:09:40Z</time>
      </trkpt>
      <trkpt lat="43.60713" lon="3.04346">
        <ele>647.1</ele>
        <time>2011-05-01T11:09:45Z</time>
      </trkpt>
      <trkpt lat="43.60707" lon="3.04343">
        <ele>647.1</ele>
        <time>2011-05-01T11:09:50Z</time>
      </trkpt>
      <trkpt lat="43.60703" lon="3.04341">
        <ele>647.1</ele>
        <time>2011-05-01T11:09:53Z</time>
      </trkpt>
      <trkpt lat="43.60696" lon="3.04337">
        <ele>646.62</ele>
        <time>2011-05-01T11:09:59Z</time>
      </trkpt>
      <trkpt lat="43.60691" lon="3.04332">
        <ele>646.14</ele>
        <time>2011-05-01T11:10:03Z</time>
      </trkpt>
      <trkpt lat="43.60676" lon="3.04329">
        <ele>645.66</ele>
        <time>2011-05-01T11:10:17Z</time>
      </trkpt>
      <trkpt lat="43.60672" lon="3.04329">
        <ele>646.14</ele>
        <time>2011-05-01T11:10:22Z</time>
      </trkpt>
      <trkpt lat="43.60662" lon="3.04338">
        <ele>645.18</ele>
        <time>2011-05-01T11:10:33Z</time>
      </trkpt>
      <trkpt lat="43.60656" lon="3.04347">
        <ele>644.7</ele>
        <time>2011-05-01T11:10:40Z</time>
      </trkpt>
      <trkpt lat="43.6065" lon="3.0435">
        <ele>644.22</ele>
        <time>2011-05-01T11:10:44Z</time>
      </trkpt>
      <trkpt lat="43.60641" lon="3.04359">
        <ele>643.74</ele>
        <time>2011-05-01T11:10:53Z</time>
      </trkpt>
      <trkpt lat="43.60636" lon="3.04367">
        <ele>643.26</ele>
        <time>2011-05-01T11:10:59Z</time>
      </trkpt>
      <trkpt lat="43.60638" lon="3.04384">
        <ele>641.82</ele>
        <time>2011-05-01T11:11:11Z</time>
      </trkpt>
      <trkpt lat="43.60645" lon="3.04402">
        <ele>641.34</ele>
        <time>2011-05-01T11:11:22Z</time>
      </trkpt>
      <trkpt lat="43.60648" lon="3.04409">
        <ele>641.34</ele>
        <time>2011-05-01T11:11:29Z</time>
      </trkpt>
      <trkpt lat="43.60649" lon="3.04412">
        <ele>641.34</ele>
        <time>2011-05-01T11:11:31Z</time>
      </trkpt>
      <trkpt lat="43.60658" lon="3.04434">
        <ele>639.89</ele>
        <time>2011-05-01T11:11:46Z</time>
      </trkpt>
      <trkpt lat="43.60665" lon="3.04455">
        <ele>638.93</ele>
        <time>2011-05-01T11:11:59Z</time>
      </trkpt>
      <trkpt lat="43.60673" lon="3.04473">
        <ele>638.93</ele>
        <time>2011-05-01T11:12:12Z</time>
      </trkpt>
      <trkpt lat="43.60675" lon="3.04475">
        <ele>638.45</ele>
        <time>2011-05-01T11:12:14Z</time>
      </trkpt>
      <trkpt lat="43.60679" lon="3.04478">
        <ele>638.93</ele>
        <time>2011-05-01T11:12:19Z</time>
      </trkpt>
      <trkpt lat="43.60686" lon="3.04484">
        <ele>638.93</ele>
        <time>2011-05-01T11:12:27Z</time>
      </trkpt>
      <trkpt lat="43.60696" lon="3.04492">
        <ele>638.45</ele>
        <time>2011-05-01T11:12:40Z</time>
      </trkpt>
      <trkpt lat="43.60706" lon="3.04502">
        <ele>637.97</ele>
        <time>2011-05-01T11:12:53Z</time>
      </trkpt>
      <trkpt lat="43.60711" lon="3.04508">
        <ele>637.01</ele>
        <time>2011-05-01T11:13:07Z</time>
      </trkpt>
      <trkpt lat="43.60713" lon="3.0451">
        <ele>637.01</ele>
        <time>2011-05-01T11:13:09Z</time>
      </trkpt>
      <trkpt lat="43.60726" lon="3.04519">
        <ele>636.53</ele>
        <time>2011-05-01T11:13:22Z</time>
      </trkpt>
      <trkpt lat="43.60736" lon="3.04525">
        <ele>635.57</ele>
        <time>2011-05-01T11:13:33Z</time>
      </trkpt>
      <trkpt lat="43.60748" lon="3.04539">
        <ele>635.09</ele>
        <time>2011-05-01T11:13:45Z</time>
      </trkpt>
      <trkpt lat="43.60751" lon="3.04546">
        <ele>635.09</ele>
        <time>2011-05-01T11:13:49Z</time>
      </trkpt>
      <trkpt lat="43.60755" lon="3.04554">
        <ele>635.09</ele>
        <time>2011-05-01T11:13:55Z</time>
      </trkpt>
      <trkpt lat="43.60763" lon="3.04565">
        <ele>634.13</ele>
        <time>2011-05-01T11:14:03Z</time>
      </trkpt>
      <trkpt lat="43.60777" lon="3.04579">
        <ele>632.68</ele>
        <time>2011-05-01T11:14:18Z</time>
      </trkpt>
      <trkpt lat="43.6078" lon="3.04583">
        <ele>632.2</ele>
        <time>2011-05-01T11:14:22Z</time>
      </trkpt>
      <trkpt lat="43.60788" lon="3.04596">
        <ele>631.72</ele>
        <time>2011-05-01T11:14:35Z</time>
      </trkpt>
      <trkpt lat="43.6079" lon="3.04599">
        <ele>631.72</ele>
        <time>2011-05-01T11:14:38Z</time>
      </trkpt>
      <trkpt lat="43.60802" lon="3.04609">
        <ele>630.76</ele>
        <time>2011-05-01T11:14:49Z</time>
      </trkpt>
      <trkpt lat="43.60811" lon="3.04616">
        <ele>630.28</ele>
        <time>2011-05-01T11:14:59Z</time>
      </trkpt>
      <trkpt lat="43.60825" lon="3.0463">
        <ele>629.8</ele>
        <time>2011-05-01T11:15:13Z</time>
      </trkpt>
      <trkpt lat="43.60837" lon="3.0464">
        <ele>629.32</ele>
        <time>2011-05-01T11:15:25Z</time>
      </trkpt>
      <trkpt lat="43.60839" lon="3.04642">
        <ele>628.84</ele>
        <time>2011-05-01T11:15:28Z</time>
      </trkpt>
      <trkpt lat="43.60846" lon="3.0465">
        <ele>628.36</ele>
        <time>2011-05-01T11:15:36Z</time>
      </trkpt>
      <trkpt lat="43.60857" lon="3.04662">
        <ele>628.36</ele>
        <time>2011-05-01T11:15:49Z</time>
      </trkpt>
      <trkpt lat="43.60863" lon="3.04668">
        <ele>627.4</ele>
        <time>2011-05-01T11:15:56Z</time>
      </trkpt>
      <trkpt lat="43.6087" lon="3.04675">
        <ele>626.92</ele>
        <time>2011-05-01T11:16:04Z</time>
      </trkpt>
      <trkpt lat="43.6088" lon="3.0469">
        <ele>626.44</ele>
        <time>2011-05-01T11:16:17Z</time>
      </trkpt>
      <trkpt lat="43.60885" lon="3.04698">
        <ele>625.96</ele>
        <time>2011-05-01T11:16:23Z</time>
      </trkpt>
      <trkpt lat="43.60889" lon="3.0471">
        <ele>625.47</ele>
        <time>2011-05-01T11:16:32Z</time>
      </trkpt>
      <trkpt lat="43.60897" lon="3.04731">
        <ele>624.51</ele>
        <time>2011-05-01T11:16:46Z</time>
      </trkpt>
      <trkpt lat="43.60899" lon="3.04735">
        <ele>624.51</ele>
        <time>2011-05-01T11:16:49Z</time>
      </trkpt>
      <trkpt lat="43.60907" lon="3.04742">
        <ele>624.03</ele>
        <time>2011-05-01T11:16:57Z</time>
      </trkpt>
      <trkpt lat="43.60913" lon="3.04746">
        <ele>623.55</ele>
        <time>2011-05-01T11:17:02Z</time>
      </trkpt>
      <trkpt lat="43.60919" lon="3.0475">
        <ele>623.55</ele>
        <time>2011-05-01T11:17:07Z</time>
      </trkpt>
      <trkpt lat="43.60925" lon="3.04754">
        <ele>623.07</ele>
        <time>2011-05-01T11:17:13Z</time>
      </trkpt>
      <trkpt lat="43.60938" lon="3.04769">
        <ele>622.11</ele>
        <time>2011-05-01T11:17:27Z</time>
      </trkpt>
      <trkpt lat="43.6095" lon="3.04783">
        <ele>621.63</ele>
        <time>2011-05-01T11:17:39Z</time>
      </trkpt>
      <trkpt lat="43.60959" lon="3.04797">
        <ele>621.63</ele>
        <time>2011-05-01T11:17:49Z</time>
      </trkpt>
      <trkpt lat="43.6097" lon="3.04813">
        <ele>621.15</ele>
        <time>2011-05-01T11:18:00Z</time>
      </trkpt>
      <trkpt lat="43.60971" lon="3.04815">
        <ele>621.15</ele>
        <time>2011-05-01T11:18:01Z</time>
      </trkpt>
      <trkpt lat="43.60983" lon="3.04827">
        <ele>620.19</ele>
        <time>2011-05-01T11:18:11Z</time>
      </trkpt>
      <trkpt lat="43.60999" lon="3.04843">
        <ele>618.75</ele>
        <time>2011-05-01T11:18:23Z</time>
      </trkpt>
      <trkpt lat="43.6101" lon="3.04861">
        <ele>618.26</ele>
        <time>2011-05-01T11:18:36Z</time>
      </trkpt>
      <trkpt lat="43.6101" lon="3.04862">
        <ele>618.26</ele>
        <time>2011-05-01T11:18:37Z</time>
      </trkpt>
      <trkpt lat="43.61017" lon="3.04881">
        <ele>616.82</ele>
        <time>2011-05-01T11:18:48Z</time>
      </trkpt>
      <trkpt lat="43.61019" lon="3.04886">
        <ele>616.82</ele>
        <time>2011-05-01T11:18:51Z</time>
      </trkpt>
      <trkpt lat="43.61019" lon="3.04892">
        <ele>616.34</ele>
        <time>2011-05-01T11:18:55Z</time>
      </trkpt>
      <trkpt lat="43.61024" lon="3.04904">
        <ele>615.38</ele>
        <time>2011-05-01T11:19:04Z</time>
      </trkpt>
      <trkpt lat="43.61027" lon="3.04918">
        <ele>614.9</ele>
        <time>2011-05-01T11:19:14Z</time>
      </trkpt>
      <trkpt lat="43.61028" lon="3.04924">
        <ele>614.42</ele>
        <time>2011-05-01T11:19:20Z</time>
      </trkpt>
      <trkpt lat="43.61029" lon="3.04927">
        <ele>613.94</ele>
        <time>2011-05-01T11:19:22Z</time>
      </trkpt>
      <trkpt lat="43.61032" lon="3.0494">
        <ele>612.98</ele>
        <time>2011-05-01T11:19:33Z</time>
      </trkpt>
      <trkpt lat="43.61032" lon="3.04945">
        <ele>612.5</ele>
        <time>2011-05-01T11:19:36Z</time>
      </trkpt>
      <trkpt lat="43.61038" lon="3.04962">
        <ele>612.02</ele>
        <time>2011-05-01T11:19:48Z</time>
      </trkpt>
      <trkpt lat="43.61038" lon="3.04964">
        <ele>611.54</ele>
        <time>2011-05-01T11:19:56Z</time>
      </trkpt>
      <trkpt lat="43.61045" lon="3.04969">
        <ele>611.06</ele>
        <time>2011-05-01T11:20:06Z</time>
      </trkpt>
      <trkpt lat="43.61053" lon="3.04973">
        <ele>611.54</ele>
        <time>2011-05-01T11:20:13Z</time>
      </trkpt>
      <trkpt lat="43.61068" lon="3.04976">
        <ele>613.46</ele>
        <time>2011-05-01T11:20:24Z</time>
      </trkpt>
      <trkpt lat="43.6108" lon="3.04982">
        <ele>614.9</ele>
        <time>2011-05-01T11:20:37Z</time>
      </trkpt>
      <trkpt lat="43.61084" lon="3.04985">
        <ele>615.38</ele>
        <time>2011-05-01T11:20:40Z</time>
      </trkpt>
      <trkpt lat="43.61094" lon="3.04984">
        <ele>616.34</ele>
        <time>2011-05-01T11:20:46Z</time>
      </trkpt>
      <trkpt lat="43.61101" lon="3.04983">
        <ele>615.86</ele>
        <time>2011-05-01T11:20:58Z</time>
      </trkpt>
      <trkpt lat="43.61101" lon="3.04983">
        <ele>616.34</ele>
        <time>2011-05-01T11:21:14Z</time>
      </trkpt>
      <trkpt lat="43.61101" lon="3.04983">
        <ele>615.86</ele>
        <time>2011-05-01T11:21:31Z</time>
      </trkpt>
      <trkpt lat="43.61101" lon="3.04982">
        <ele>616.34</ele>
        <time>2011-05-01T11:21:44Z</time>
      </trkpt>
      <trkpt lat="43.61106" lon="3.04983">
        <ele>617.3</ele>
        <time>2011-05-01T11:21:58Z</time>
      </trkpt>
      <trkpt lat="43.6111" lon="3.04986">
        <ele>617.78</ele>
        <time>2011-05-01T11:22:04Z</time>
      </trkpt>
      <trkpt lat="43.61118" lon="3.04982">
        <ele>617.78</ele>
        <time>2011-05-01T11:22:17Z</time>
      </trkpt>
      <trkpt lat="43.61118" lon="3.04982">
        <ele>617.78</ele>
        <time>2011-05-01T11:22:33Z</time>
      </trkpt>
      <trkpt lat="43.61118" lon="3.04984">
        <ele>617.78</ele>
        <time>2011-05-01T11:22:47Z</time>
      </trkpt>
      <trkpt lat="43.61118" lon="3.04984">
        <ele>617.3</ele>
        <time>2011-05-01T11:23:01Z</time>
      </trkpt>
      <trkpt lat="43.61118" lon="3.04985">
        <ele>616.82</ele>
        <time>2011-05-01T11:23:14Z</time>
      </trkpt>
      <trkpt lat="43.61119" lon="3.04985">
        <ele>616.82</ele>
        <time>2011-05-01T11:23:28Z</time>
      </trkpt>
      <trkpt lat="43.61119" lon="3.04985">
        <ele>617.3</ele>
        <time>2011-05-01T11:23:45Z</time>
      </trkpt>
      <trkpt lat="43.61119" lon="3.04985">
        <ele>616.34</ele>
        <time>2011-05-01T11:24:07Z</time>
      </trkpt>
      <trkpt lat="43.61119" lon="3.04985">
        <ele>615.86</ele>
        <time>2011-05-01T11:24:18Z</time>
      </trkpt>
      <trkpt lat="43.61119" lon="3.04985">
        <ele>616.34</ele>
        <time>2011-05-01T11:24:31Z</time>
      </trkpt>
      <trkpt lat="43.61119" lon="3.04985">
        <ele>620.67</ele>
        <time>2011-05-01T11:24:33Z</time>
      </trkpt>
      <trkpt lat="43.61119" lon="3.04985">
        <ele>616.34</ele>
        <time>2011-05-01T11:24:34Z</time>
      </trkpt>
      <trkpt lat="43.61119" lon="3.04985">
        <ele>613.46</ele>
        <time>2011-05-01T11:24:43Z</time>
      </trkpt>
      <trkpt lat="43.61119" lon="3.04985">
        <ele>616.82</ele>
        <time>2011-05-01T11:24:51Z</time>
      </trkpt>
      <trkpt lat="43.61119" lon="3.04985">
        <ele>623.07</ele>
        <time>2011-05-01T11:24:53Z</time>
      </trkpt>
      <trkpt lat="43.61119" lon="3.04985">
        <ele>610.09</ele>
        <time>2011-05-01T11:24:54Z</time>
      </trkpt>
      <trkpt lat="43.61119" lon="3.04985">
        <ele>617.78</ele>
        <time>2011-05-01T11:24:55Z</time>
      </trkpt>
      <trkpt lat="43.61119" lon="3.04985">
        <ele>624.51</ele>
        <time>2011-05-01T11:24:57Z</time>
      </trkpt>
      <trkpt lat="43.61119" lon="3.04985">
        <ele>616.34</ele>
        <time>2011-05-01T11:24:58Z</time>
      </trkpt>
    </trkseg>
  </trk>
</gpx>